Darstellungsparameter: Aktuell verwendete Einstellungen:
Skalierung der Graphiken ... ?
xyx+y,   Skalierungsfaktor:      Skalierung: Modus: x, Faktor: 1
Darstellungszeitraum ... ?
Vom - - bis: - -   Zeitraum: 25.10.2010 - 22.09.2020
Min/Max/Avg-Anzeige ... ?
Zeige MMA aktuell
Zeige MMA Monat
Zeige MMA alles
Zeige --A aktuell
Zeige --A Monat
Zeige --A alles
Keine MMA-Anzeige
MMA:
Keine MMA-Graphiken
MMA-Basis: 25.10.2010 - 22.09.2020
Quicknavigation für Darstellung... ?
Tage:      1T, 2T, 3T, 5T -1T -2T -3T -5T +1T +2T +3T +5T
Wochen: 1W, 2W, 3W -1W -2W -3W +1W +2W +3W
Monate: 1M, 3M, 6M -1M -3M -6M +1M +3M +6M
Jahre:    1J, 3J, 5J, 10J -1J -3J -5J -10J +1J +3J +5J +10J
Nutze für die Darstellung ... ?
Originaldaten oder Mittelwerte auf ...
Stundenbasis Tagesbasis Wochenbasis
Monatsbasis Jahresbasis      Datenbasis: Original-Daten
Darstellen als:
Statistik (Auto) Statistik J:M      Darstellung:
Zur Graphik,    zurück zur Übersicht aller Sensoren.
 
Tabellarische Datenbersicht: ?
 
Sensor: Nr:Datum:Temp:Feuchte:Taupunkt:
Aussen-T/F 1 25-10-2010 00:01:04 4.7 C 84 % 2.23 C
2 25-10-2010 00:13:04 4.8 C 85 % 2.5 C
3 25-10-2010 00:25:04 5 C 85 % 2.69 C
4 25-10-2010 00:37:04 4.8 C 85 % 2.5 C
5 25-10-2010 00:49:04 4.7 C 86 % 2.56 C
6 25-10-2010 01:01:05 4.6 C 85 % 2.3 C
7 25-10-2010 01:13:05 4.6 C 86 % 2.47 C
8 25-10-2010 01:25:05 4.4 C 86 % 2.27 C
9 25-10-2010 01:37:05 4.4 C 86 % 2.27 C
10 25-10-2010 01:49:05 4.5 C 87 % 2.53 C
11 25-10-2010 02:01:05 4.6 C 87 % 2.63 C
12 25-10-2010 02:13:05 4.4 C 87 % 2.43 C
13 25-10-2010 02:25:05 4.4 C 87 % 2.43 C
14 25-10-2010 02:37:05 4.2 C 87 % 2.23 C
15 25-10-2010 02:49:05 4.5 C 87 % 2.53 C
16 25-10-2010 03:01:05 4.5 C 88 % 2.69 C
17 25-10-2010 03:13:05 4.5 C 87 % 2.53 C
18 25-10-2010 03:25:05 4.5 C 87 % 2.53 C
19 25-10-2010 03:37:05 4.7 C 87 % 2.73 C
20 25-10-2010 03:49:05 4.9 C 86 % 2.76 C
21 25-10-2010 04:01:05 5 C 85 % 2.69 C
22 25-10-2010 04:13:05 5.1 C 84 % 2.63 C
23 25-10-2010 04:25:05 5.1 C 84 % 2.63 C
24 25-10-2010 04:37:05 5.1 C 83 % 2.46 C
25 25-10-2010 04:49:05 5.2 C 83 % 2.56 C
Sensor: Nr:Datum:Temp:Feuchte:Taupunkt:
Aussen-T/F 26 25-10-2010 05:01:05 5.2 C 83 % 2.56 C
27 25-10-2010 05:13:06 5.2 C 82 % 2.39 C
28 25-10-2010 05:25:06 5.1 C 82 % 2.29 C
29 25-10-2010 05:37:06 5 C 82 % 2.19 C
30 25-10-2010 05:49:06 5 C 82 % 2.19 C
31 25-10-2010 06:01:06 5 C 82 % 2.19 C
32 25-10-2010 06:13:06 5.1 C 82 % 2.29 C
33 25-10-2010 06:25:06 5.1 C 81 % 2.12 C
34 25-10-2010 06:37:06 5 C 81 % 2.02 C
35 25-10-2010 06:49:02 5 C 81 % 2.02 C
36 25-10-2010 07:01:02 5 C 81 % 2.02 C
37 25-10-2010 07:13:02 4.9 C 82 % 2.09 C
38 25-10-2010 07:25:02 4.8 C 82 % 1.99 C
39 25-10-2010 07:37:02 4.8 C 82 % 1.99 C
40 25-10-2010 07:49:02 4.8 C 82 % 1.99 C
41 25-10-2010 08:01:02 4.9 C 82 % 2.09 C
42 25-10-2010 08:13:02 4.9 C 82 % 2.09 C
43 25-10-2010 08:25:02 4.8 C 82 % 1.99 C
44 25-10-2010 08:37:02 4.9 C 82 % 2.09 C
45 25-10-2010 08:49:01 5 C 81 % 2.02 C
46 25-10-2010 09:01:01 5 C 81 % 2.02 C
47 25-10-2010 09:13:02 5 C 80 % 1.84 C
48 25-10-2010 09:25:01 5 C 80 % 1.84 C
49 25-10-2010 09:37:01 5 C 80 % 1.84 C
50 25-10-2010 09:49:02 5.3 C 80 % 2.14 C
Sensor: Nr:Datum:Temp:Feuchte:Taupunkt:
Aussen-T/F 51 25-10-2010 10:01:02 5.5 C 79 % 2.16 C
52 25-10-2010 10:13:02 5.9 C 78 % 2.37 C
53 25-10-2010 10:25:03 5.8 C 76 % 1.91 C
54 25-10-2010 10:37:02 5.8 C 76 % 1.91 C
55 25-10-2010 10:49:03 6 C 75 % 1.91 C
56 25-10-2010 11:01:02 6.2 C 74 % 1.92 C
57 25-10-2010 11:13:02 6.4 C 73 % 1.92 C
58 25-10-2010 11:25:02 6.5 C 72 % 1.83 C
59 25-10-2010 11:37:02 6.6 C 72 % 1.92 C
60 25-10-2010 11:49:02 7 C 71 % 2.11 C
61 25-10-2010 12:01:01 7.3 C 68 % 1.8 C
62 25-10-2010 12:13:01 8 C 67 % 2.26 C
63 25-10-2010 12:25:02 8.2 C 63 % 1.59 C
64 25-10-2010 12:37:01 7.6 C 64 % 1.24 C
65 25-10-2010 12:49:02 8.1 C 62 % 1.27 C
66 25-10-2010 13:01:02 8.2 C 60 % 0.91 C
67 25-10-2010 13:13:02 8.4 C 59 % 0.87 C
68 25-10-2010 13:25:02 8.7 C 62 % 1.84 C
69 25-10-2010 13:37:03 8.9 C 58 % 1.1 C
70 25-10-2010 13:49:02 9.5 C 56 % 1.17 C
71 25-10-2010 14:01:02 9.7 C 52 % 0.33 C
72 25-10-2010 14:13:02 9.6 C 53 % 0.5 C
73 25-10-2010 14:25:01 10.1 C 50 % 0.16 C
74 25-10-2010 14:37:02 10.4 C 48 % -0.12 C
75 25-10-2010 14:49:02 10.7 C 42 % -1.67 C
Sensor: Nr:Datum:Temp:Feuchte:Taupunkt:
Aussen-T/F 76 25-10-2010 15:01:02 10.4 C 42 % -1.94 C
77 25-10-2010 15:13:02 10.4 C 41 % -2.27 C
78 25-10-2010 15:25:01 10.2 C 40 % -2.78 C
79 25-10-2010 15:37:02 10.4 C 39 % -2.94 C
80 25-10-2010 15:49:02 10.6 C 41 % -2.09 C
81 25-10-2010 16:01:02 11.7 C 39 % -1.78 C
82 25-10-2010 16:13:02 10.4 C 38 % -3.29 C
83 25-10-2010 16:25:01 10.5 C 41 % -2.18 C
84 25-10-2010 16:37:02 10.5 C 40 % -2.51 C
85 25-10-2010 16:49:01 10.5 C 41 % -2.18 C
86 25-10-2010 17:01:02 10.9 C 42 % -1.49 C
87 25-10-2010 17:13:02 11.1 C 40 % -1.97 C
88 25-10-2010 17:25:02 11.2 C 40 % -1.88 C
89 25-10-2010 17:37:02 10.4 C 41 % -2.27 C
90 25-10-2010 17:49:02 9.8 C 44 % -1.86 C
91 25-10-2010 18:01:01 9.2 C 46 % -1.8 C
92 25-10-2010 18:13:01 8.9 C 48 % -1.5 C
93 25-10-2010 18:25:02 8.3 C 50 % -1.5 C
94 25-10-2010 18:37:01 8 C 51 % -1.5 C
95 25-10-2010 18:49:02 7.4 C 56 % -0.79 C
96 25-10-2010 19:01:01 7 C 58 % -0.68 C
97 25-10-2010 19:13:01 6.7 C 62 % -0.05 C
98 25-10-2010 19:25:01 6.2 C 64 % -0.09 C
99 25-10-2010 19:37:02 5.8 C 66 % -0.05 C
100 25-10-2010 19:49:02 5.4 C 68 % -0.02 C
Sensor: Nr:Datum:Temp:Feuchte:Taupunkt:
Aussen-T/F 101 25-10-2010 20:01:01 5 C 69 % -0.2 C
102 25-10-2010 20:13:01 4.7 C 71 % -0.1 C
103 25-10-2010 20:25:02 4.7 C 73 % 0.28 C
104 25-10-2010 20:37:02 4.5 C 73 % 0.09 C
105 25-10-2010 20:49:02 4.4 C 73 % 0 C
106 25-10-2010 21:01:03 4.3 C 75 % 0.27 C
107 25-10-2010 21:13:03 4.1 C 77 % 0.44 C
108 25-10-2010 21:25:02 3.9 C 78 % 0.42 C
109 25-10-2010 21:37:02 3.7 C 79 % 0.4 C
110 25-10-2010 21:49:01 3.6 C 80 % 0.48 C
111 25-10-2010 22:01:01 3.4 C 81 % 0.46 C
112 25-10-2010 22:13:01 3.1 C 80 % -0.01 C
113 25-10-2010 22:25:01 3 C 80 % -0.1 C
114 25-10-2010 22:37:02 2.9 C 82 % 0.14 C
115 25-10-2010 22:49:02 2.6 C 83 % 0.01 C
116 25-10-2010 23:01:02 2.4 C 84 % -0.02 C
117 25-10-2010 23:13:02 2.4 C 84 % -0.02 C
118 25-10-2010 23:25:02 2.2 C 84 % -0.22 C
119 25-10-2010 23:37:02 2.2 C 85 % -0.05 C
120 25-10-2010 23:49:01 2.2 C 86 % 0.11 C
121 26-10-2010 00:01:02 2.2 C 86 % 0.11 C
122 26-10-2010 00:13:02 2 C 86 % -0.09 C
123 26-10-2010 00:25:01 1.8 C 87 % -0.13 C
124 26-10-2010 00:37:01 1.7 C 87 % -0.23 C
125 26-10-2010 00:49:02 1.7 C 88 % -0.07 C
Sensor: Nr:Datum:Temp:Feuchte:Taupunkt:
Aussen-T/F 126 26-10-2010 01:01:01 1.6 C 88 % -0.17 C
127 26-10-2010 01:13:01 1.6 C 89 % -0.01 C
128 26-10-2010 01:25:02 1.6 C 89 % -0.01 C
129 26-10-2010 01:37:02 1.4 C 89 % -0.21 C
130 26-10-2010 01:49:01 1.2 C 89 % -0.41 C
131 26-10-2010 02:01:02 1 C 89 % -0.6 C
132 26-10-2010 02:13:02 0.8 C 90 % -0.65 C
133 26-10-2010 02:25:01 0.7 C 91 % -0.6 C
134 26-10-2010 02:37:01 0.8 C 91 % -0.5 C
135 26-10-2010 02:50:03 0.8 C 92 % -0.35 C
136 26-10-2010 03:02:03 0.7 C 91 % -0.6 C
137 26-10-2010 03:14:04 0.4 C 91 % -0.89 C
138 26-10-2010 03:26:04 0.3 C 91 % -0.99 C
139 26-10-2010 03:38:02 0.1 C 91 % -1.19 C
140 26-10-2010 03:50:02 0 C 91 % -1.29 C
141 26-10-2010 04:02:02 0.1 C 92 % -1.04 C
142 26-10-2010 04:14:02 0.1 C 92 % -1.04 C
143 26-10-2010 04:26:02 0.2 C 92 % -0.94 C
144 26-10-2010 04:38:02 0.1 C 93 % -0.89 C
145 26-10-2010 04:50:02 0.1 C 93 % -0.89 C
146 26-10-2010 05:02:02 0.1 C 93 % -0.89 C
147 26-10-2010 05:14:02 0 C 93 % -0.99 C
148 26-10-2010 05:26:02 0.1 C 94 % -0.75 C
149 26-10-2010 05:38:02 0.1 C 94 % -0.75 C
150 26-10-2010 05:50:01 0.1 C 94 % -0.75 C
Sensor: Nr:Datum:Temp:Feuchte:Taupunkt:
Aussen-T/F 151 26-10-2010 06:02:01 0.2 C 94 % -0.65 C
152 26-10-2010 06:14:01 0.2 C 94 % -0.65 C
153 26-10-2010 06:26:01 0.2 C 94 % -0.65 C
154 26-10-2010 06:38:01 0.2 C 94 % -0.65 C
155 26-10-2010 06:50:01 -0.1 C 94 % -0.95 C
156 26-10-2010 07:02:01 -0.1 C 94 % -0.95 C
157 26-10-2010 07:14:01 -0.2 C 94 % -1.05 C
158 26-10-2010 07:26:02 -0.3 C 94 % -1.15 C
159 26-10-2010 07:38:01 -0.5 C 94 % -1.34 C
160 26-10-2010 07:50:02 -0.5 C 94 % -1.34 C
161 26-10-2010 08:02:02 -0.5 C 94 % -1.34 C
162 26-10-2010 08:14:02 -0.5 C 94 % -1.34 C
163 26-10-2010 08:26:03 -0.4 C 94 % -1.25 C
164 26-10-2010 08:38:02 -0.4 C 94 % -1.25 C
165 26-10-2010 08:50:02 -0.3 C 94 % -1.15 C
166 26-10-2010 09:02:02 -0.1 C 94 % -0.95 C
167 26-10-2010 09:14:02 -0.3 C 94 % -1.15 C
168 26-10-2010 09:26:02 -0.5 C 94 % -1.34 C
169 26-10-2010 09:38:02 -0.5 C 94 % -1.34 C
170 26-10-2010 09:50:02 -0.4 C 94 % -1.25 C
171 26-10-2010 10:02:01 -0.3 C 94 % -1.15 C
172 26-10-2010 10:14:01 -0.1 C 94 % -0.95 C
173 26-10-2010 10:26:02 0.1 C 94 % -0.75 C
174 26-10-2010 10:38:01 0.3 C 94 % -0.55 C
175 26-10-2010 10:50:03 0.5 C 93 % -0.5 C
Sensor: Nr:Datum:Temp:Feuchte:Taupunkt:
Aussen-T/F 176 26-10-2010 11:02:02 0.8 C 93 % -0.2 C
177 26-10-2010 11:14:02 0.8 C 92 % -0.35 C
178 26-10-2010 11:26:02 1.1 C 91 % -0.2 C
179 26-10-2010 11:38:03 1.5 C 91 % 0.19 C
180 26-10-2010 11:50:02 1.9 C 90 % 0.44 C
181 26-10-2010 12:02:01 2.1 C 88 % 0.33 C
182 26-10-2010 12:14:01 2.9 C 88 % 1.11 C
183 26-10-2010 12:26:02 3.4 C 87 % 1.45 C
184 26-10-2010 12:38:02 3.4 C 85 % 1.12 C
185 26-10-2010 12:50:02 4 C 84 % 1.55 C
186 26-10-2010 13:02:02 4.3 C 83 % 1.67 C
187 26-10-2010 13:14:02 4.7 C 83 % 2.07 C
188 26-10-2010 13:26:02 5.5 C 81 % 2.51 C
189 26-10-2010 13:38:02 6.2 C 78 % 2.66 C
190 26-10-2010 13:50:02 7 C 73 % 2.5 C
191 26-10-2010 14:02:03 7.8 C 70 % 2.68 C
192 26-10-2010 14:14:03 8.4 C 65 % 2.21 C
193 26-10-2010 14:26:02 9.1 C 62 % 2.22 C
194 26-10-2010 14:38:02 9.5 C 60 % 2.13 C
195 26-10-2010 14:50:01 9.6 C 58 % 1.75 C
196 26-10-2010 15:02:01 9.5 C 57 % 1.42 C
197 26-10-2010 15:14:01 9.4 C 58 % 1.57 C
198 26-10-2010 15:26:01 9.6 C 59 % 1.99 C
199 26-10-2010 15:38:01 10 C 56 % 1.64 C
200 26-10-2010 15:50:02 10.1 C 56 % 1.73 C
Sensor: Nr:Datum:Temp:Feuchte:Taupunkt:
Aussen-T/F 201 26-10-2010 16:02:02 9.9 C 57 % 1.79 C
202 26-10-2010 16:14:02 9.6 C 58 % 1.75 C
203 26-10-2010 16:26:03 9.3 C 60 % 1.95 C
204 26-10-2010 16:38:02 8.9 C 62 % 2.03 C
205 26-10-2010 16:50:02 8.5 C 65 % 2.31 C
206 26-10-2010 17:02:02 8.4 C 67 % 2.64 C
207 26-10-2010 17:14:02 8.2 C 67 % 2.45 C
208 26-10-2010 17:26:02 8 C 68 % 2.47 C
209 26-10-2010 17:38:02 7.9 C 70 % 2.78 C
210 26-10-2010 17:50:02 7.7 C 71 % 2.78 C
211 26-10-2010 18:02:01 7.4 C 71 % 2.5 C
212 26-10-2010 18:14:01 7.2 C 72 % 2.5 C
213 26-10-2010 18:26:02 7.1 C 72 % 2.4 C
214 26-10-2010 18:38:02 6.9 C 73 % 2.4 C
215 26-10-2010 18:50:02 6.8 C 74 % 2.5 C
216 26-10-2010 19:02:03 6.8 C 74 % 2.5 C
217 26-10-2010 19:14:03 6.6 C 75 % 2.49 C
218 26-10-2010 19:26:02 6.6 C 76 % 2.68 C
219 26-10-2010 19:38:02 6.5 C 76 % 2.58 C
220 26-10-2010 19:50:01 6.4 C 76 % 2.49 C
221 26-10-2010 20:02:02 6.4 C 76 % 2.49 C
222 26-10-2010 20:14:02 6.4 C 76 % 2.49 C
223 26-10-2010 20:26:01 6.4 C 76 % 2.49 C
224 26-10-2010 20:38:02 6.3 C 76 % 2.39 C
225 26-10-2010 20:50:02 6.2 C 77 % 2.48 C
Sensor: Nr:Datum:Temp:Feuchte:Taupunkt:
Aussen-T/F 226 26-10-2010 21:02:02 6.1 C 77 % 2.38 C
227 26-10-2010 21:14:02 6.1 C 77 % 2.38 C
228 26-10-2010 21:26:01 6.2 C 75 % 2.11 C
229 26-10-2010 21:38:02 6 C 76 % 2.1 C
230 26-10-2010 21:50:01 5.9 C 78 % 2.37 C
231 26-10-2010 22:02:02 5.7 C 79 % 2.35 C
232 26-10-2010 22:14:02 5.7 C 80 % 2.53 C
233 26-10-2010 22:26:02 5.7 C 80 % 2.53 C
234 26-10-2010 22:39:02 5.7 C 81 % 2.7 C
235 26-10-2010 22:51:02 5.7 C 81 % 2.7 C
236 26-10-2010 23:03:02 5.7 C 81 % 2.7 C
237 26-10-2010 23:15:02 5.7 C 81 % 2.7 C
238 26-10-2010 23:27:02 5.7 C 81 % 2.7 C
239 26-10-2010 23:39:02 5.5 C 81 % 2.51 C
240 26-10-2010 23:51:02 5.4 C 81 % 2.41 C
241 27-10-2010 00:03:02 5.4 C 82 % 2.58 C
242 27-10-2010 00:15:02 5.4 C 82 % 2.58 C
243 27-10-2010 00:27:02 5.2 C 81 % 2.21 C
244 27-10-2010 00:39:02 5 C 81 % 2.02 C
245 27-10-2010 00:51:02 4.8 C 82 % 1.99 C
246 27-10-2010 01:03:02 5.1 C 78 % 1.59 C
247 27-10-2010 01:15:03 5.2 C 76 % 1.32 C
248 27-10-2010 01:27:03 5.3 C 75 % 1.24 C
249 27-10-2010 01:39:03 5.5 C 72 % 0.86 C
250 27-10-2010 01:51:03 5.7 C 68 % 0.27 C
Sensor: Nr:Datum:Temp:Feuchte:Taupunkt:
Aussen-T/F 251 27-10-2010 02:03:03 5.7 C 69 % 0.47 C
252 27-10-2010 02:15:03 5.5 C 72 % 0.86 C
253 27-10-2010 02:27:03 5.6 C 73 % 1.15 C
254 27-10-2010 02:39:03 5.5 C 74 % 1.24 C
255 27-10-2010 02:51:03 5.4 C 75 % 1.33 C
256 27-10-2010 03:03:03 5.6 C 74 % 1.34 C
257 27-10-2010 03:15:03 5.6 C 75 % 1.53 C
258 27-10-2010 03:27:03 5.4 C 75 % 1.33 C
259 27-10-2010 03:39:03 5.4 C 76 % 1.52 C
260 27-10-2010 03:51:03 5.4 C 75 % 1.33 C
261 27-10-2010 04:03:03 5.4 C 75 % 1.33 C
262 27-10-2010 04:15:03 5.4 C 75 % 1.33 C
263 27-10-2010 04:27:03 5.4 C 76 % 1.52 C
264 27-10-2010 04:39:03 5.4 C 75 % 1.33 C
265 27-10-2010 04:51:03 5.5 C 74 % 1.24 C
266 27-10-2010 05:03:03 5.6 C 73 % 1.15 C
267 27-10-2010 05:15:03 5.7 C 72 % 1.06 C
268 27-10-2010 05:27:03 5.7 C 73 % 1.25 C
269 27-10-2010 05:39:03 5.6 C 73 % 1.15 C
270 27-10-2010 05:51:04 5.6 C 73 % 1.15 C
271 27-10-2010 06:03:04 5.6 C 73 % 1.15 C
272 27-10-2010 06:15:04 5.7 C 73 % 1.25 C
273 27-10-2010 06:27:04 5.7 C 74 % 1.44 C
274 27-10-2010 06:39:04 5.7 C 74 % 1.44 C
275 27-10-2010 06:51:04 5.7 C 73 % 1.25 C
Sensor: Nr:Datum:Temp:Feuchte:Taupunkt:
Aussen-T/F 276 27-10-2010 07:03:04 5.7 C 73 % 1.25 C
277 27-10-2010 07:15:04 5.7 C 73 % 1.25 C
278 27-10-2010 07:27:04 5.7 C 73 % 1.25 C
279 27-10-2010 07:39:03 5.8 C 72 % 1.15 C
280 27-10-2010 07:51:02 5.9 C 70 % 0.86 C
281 27-10-2010 08:03:01 5.9 C 69 % 0.66 C
282 27-10-2010 08:15:02 5.9 C 70 % 0.86 C
283 27-10-2010 08:27:02 5.7 C 71 % 0.86 C
284 27-10-2010 08:39:02 5.5 C 73 % 1.06 C
285 27-10-2010 08:51:02 5.4 C 75 % 1.33 C
286 27-10-2010 09:03:03 5.5 C 78 % 1.98 C
287 27-10-2010 09:15:02 5.6 C 78 % 2.07 C
288 27-10-2010 09:27:02 5.8 C 79 % 2.45 C
289 27-10-2010 09:39:02 6 C 79 % 2.64 C
290 27-10-2010 09:51:01 6.3 C 79 % 2.93 C
291 27-10-2010 10:03:02 6.5 C 78 % 2.95 C
292 27-10-2010 10:15:01 6.8 C 77 % 3.06 C
293 27-10-2010 10:27:01 7 C 76 % 3.07 C
294 27-10-2010 10:39:01 7.3 C 73 % 2.79 C
295 27-10-2010 10:51:01 7.4 C 70 % 2.3 C
296 27-10-2010 11:03:01 7.6 C 69 % 2.29 C
297 27-10-2010 11:15:02 7.8 C 68 % 2.27 C
298 27-10-2010 11:27:02 8.2 C 66 % 2.24 C
299 27-10-2010 11:39:01 8.6 C 63 % 1.97 C
300 27-10-2010 11:51:02 8.9 C 59 % 1.34 C
Sensor: Nr:Datum:Temp:Feuchte:Taupunkt:
Aussen-T/F 301 27-10-2010 12:03:01 9.1 C 53 % 0.04 C
302 27-10-2010 12:15:02 9.4 C 49 % -0.76 C
303 27-10-2010 12:27:02 9.5 C 48 % -0.95 C
304 27-10-2010 12:39:01 9.8 C 47 % -0.96 C
305 27-10-2010 12:51:02 10.3 C 46 % -0.8 C
306 27-10-2010 13:03:02 10.7 C 43 % -1.35 C
307 27-10-2010 13:15:02 10.8 C 40 % -2.24 C
308 27-10-2010 13:27:02 11.1 C 37 % -3.02 C
309 27-10-2010 13:39:02 11 C 36 % -3.47 C
310 27-10-2010 13:51:02 11 C 37 % -3.11 C
311 27-10-2010 14:03:02 11 C 37 % -3.11 C
312 27-10-2010 14:15:01 11 C 38 % -2.75 C
313 27-10-2010 14:27:01 11 C 35 % -3.85 C
314 27-10-2010 14:39:02 11.1 C 36 % -3.39 C
315 27-10-2010 14:51:02 11.2 C 35 % -3.67 C
316 27-10-2010 15:03:02 11.3 C 35 % -3.58 C
317 27-10-2010 15:15:02 11.5 C 34 % -3.79 C
318 27-10-2010 15:27:02 11.7 C 35 % -3.23 C
319 27-10-2010 15:39:02 11.6 C 35 % -3.32 C
320 27-10-2010 15:51:02 11.7 C 32 % -4.42 C
321 27-10-2010 16:03:02 11.8 C 34 % -3.53 C
322 27-10-2010 16:15:03 11.9 C 32 % -4.25 C
323 27-10-2010 16:27:03 12.1 C 32 % -4.07 C
324 27-10-2010 16:39:02 12.1 C 31 % -4.49 C
325 27-10-2010 16:51:02 12 C 32 % -4.16 C
Sensor: Nr:Datum:Temp:Feuchte:Taupunkt:
Aussen-T/F 326 27-10-2010 17:03:02 11.9 C 34 % -3.44 C
327 27-10-2010 17:15:02 11.8 C 35 % -3.14 C
328 27-10-2010 17:27:02 11.6 C 32 % -4.51 C
329 27-10-2010 17:39:02 11.5 C 34 % -3.79 C
330 27-10-2010 17:51:02 11.2 C 36 % -3.3 C
331 27-10-2010 18:03:02 10.9 C 41 % -1.82 C
332 27-10-2010 18:15:02 10.6 C 43 % -1.44 C
333 27-10-2010 18:27:03 10.4 C 43 % -1.62 C
334 27-10-2010 18:39:01 10.1 C 49 % -0.11 C
335 27-10-2010 18:51:02 10.2 C 45 % -1.19 C
336 27-10-2010 19:03:01 10.2 C 46 % -0.89 C
337 27-10-2010 19:15:02 10.1 C 48 % -0.4 C
338 27-10-2010 19:27:02 10 C 46 % -1.07 C
339 27-10-2010 19:39:02 10 C 47 % -0.78 C
340 27-10-2010 19:51:02 9.9 C 47 % -0.87 C
341 27-10-2010 20:03:02 9.8 C 49 % -0.39 C
342 27-10-2010 20:15:02 9.7 C 47 % -1.05 C
343 27-10-2010 20:27:02 9.9 C 48 % -0.58 C
344 27-10-2010 20:39:02 9.8 C 47 % -0.96 C
345 27-10-2010 20:51:01 9.8 C 47 % -0.96 C
346 27-10-2010 21:03:02 9.7 C 50 % -0.21 C
347 27-10-2010 21:15:01 9.6 C 52 % 0.24 C
348 27-10-2010 21:27:01 9.6 C 49 % -0.57 C
349 27-10-2010 21:39:02 9.5 C 53 % 0.41 C
350 27-10-2010 21:51:02 9.4 C 54 % 0.58 C
Sensor: Nr:Datum:Temp:Feuchte:Taupunkt:
Aussen-T/F 351 27-10-2010 22:03:02 9.3 C 55 % 0.74 C
352 27-10-2010 22:15:01 9.2 C 55 % 0.64 C
353 27-10-2010 22:27:01 9.1 C 56 % 0.8 C
354 27-10-2010 22:39:02 9.2 C 55 % 0.64 C
355 27-10-2010 22:51:01 9.2 C 53 % 0.13 C
356 27-10-2010 23:03:02 9.2 C 51 % -0.4 C
357 27-10-2010 23:15:02 9.1 C 55 % 0.55 C
358 27-10-2010 23:27:02 9 C 55 % 0.46 C
359 27-10-2010 23:39:02 8.9 C 57 % 0.86 C
360 27-10-2010 23:51:02 8.9 C 57 % 0.86 C
361 28-10-2010 00:03:02 8.8 C 55 % 0.27 C
362 28-10-2010 00:15:02 8.7 C 56 % 0.43 C
363 28-10-2010 00:27:02 8.7 C 57 % 0.67 C
364 28-10-2010 00:39:02 8.6 C 57 % 0.58 C
365 28-10-2010 00:51:01 8.5 C 57 % 0.48 C
366 28-10-2010 01:03:02 8.5 C 57 % 0.48 C
367 28-10-2010 01:15:02 8.5 C 57 % 0.48 C
368 28-10-2010 01:27:02 8.5 C 57 % 0.48 C
369 28-10-2010 01:39:01 8.4 C 58 % 0.63 C
370 28-10-2010 01:51:02 8.4 C 59 % 0.87 C
371 28-10-2010 02:03:01 8.3 C 59 % 0.77 C
372 28-10-2010 02:15:02 8.1 C 60 % 0.82 C
373 28-10-2010 02:27:02 8 C 61 % 0.95 C
374 28-10-2010 02:39:02 8 C 62 % 1.18 C
375 28-10-2010 02:52:04 7.9 C 62 % 1.08 C
Sensor: Nr:Datum:Temp:Feuchte:Taupunkt:
Aussen-T/F 376 28-10-2010 03:04:05 7.8 C 61 % 0.76 C
377 28-10-2010 03:16:04 7.5 C 60 % 0.25 C
378 28-10-2010 03:28:04 7.5 C 59 % 0.02 C
379 28-10-2010 03:40:02 7.6 C 61 % 0.57 C
380 28-10-2010 03:52:02 7.7 C 60 % 0.44 C
381 28-10-2010 04:04:02 7.7 C 61 % 0.67 C
382 28-10-2010 04:16:02 7.7 C 62 % 0.89 C
383 28-10-2010 04:28:03 7.6 C 63 % 1.02 C
384 28-10-2010 04:40:01 7.6 C 64 % 1.24 C
385 28-10-2010 04:52:02 7.7 C 63 % 1.11 C
386 28-10-2010 05:04:01 7.6 C 63 % 1.02 C
387 28-10-2010 05:16:01 7.6 C 65 % 1.45 C
388 28-10-2010 05:28:01 7.4 C 63 % 0.83 C
389 28-10-2010 05:40:02 7.4 C 63 % 0.83 C
390 28-10-2010 05:52:02 7.6 C 61 % 0.57 C
391 28-10-2010 06:04:02 7.9 C 59 % 0.4 C
392 28-10-2010 06:16:02 8.1 C 52 % -1.15 C
393 28-10-2010 06:28:02 7.9 C 53 % -1.07 C
394 28-10-2010 06:40:02 7.8 C 53 % -1.17 C
395 28-10-2010 06:52:01 8.2 C 50 % -1.59 C
396 28-10-2010 07:04:02 8.4 C 50 % -1.4 C
397 28-10-2010 07:16:01 8.5 C 50 % -1.31 C
398 28-10-2010 07:28:01 8.6 C 51 % -0.95 C
399 28-10-2010 07:40:01 8.4 C 51 % -1.13 C
400 28-10-2010 07:52:01 8.5 C 51 % -1.04 C
Sensor: Nr:Datum:Temp:Feuchte:Taupunkt:
Aussen-T/F 401 28-10-2010 08:04:02 8.7 C 52 % -0.59 C
402 28-10-2010 08:16:01 8.7 C 53 % -0.33 C
403 28-10-2010 08:28:01 8.6 C 55 % 0.08 C
404 28-10-2010 08:40:01 8.7 C 55 % 0.18 C
405 28-10-2010 08:52:02 8.8 C 55 % 0.27 C
406 28-10-2010 09:04:01 9 C 52 % -0.31 C
407 28-10-2010 09:16:02 9.2 C 50 % -0.67 C
408 28-10-2010 09:28:02 8.9 C 57 % 0.86 C
409 28-10-2010 09:40:01 8.6 C 61 % 1.52 C
410 28-10-2010 09:52:02 8.6 C 61 % 1.52 C
411 28-10-2010 10:04:02 8.1 C 68 % 2.56 C
412 28-10-2010 10:16:02 7.7 C 74 % 3.37 C
413 28-10-2010 10:28:02 7.7 C 78 % 4.11 C
414 28-10-2010 10:40:02 7.9 C 77 % 4.12 C
415 28-10-2010 10:52:02 8.1 C 74 % 3.75 C
416 28-10-2010 11:04:02 8.6 C 70 % 3.45 C
417 28-10-2010 11:16:01 9.3 C 68 % 3.71 C
418 28-10-2010 11:28:01 10 C 65 % 3.73 C
419 28-10-2010 11:40:02 10.2 C 61 % 3.03 C
420 28-10-2010 11:52:02 10.4 C 60 % 2.98 C
421 28-10-2010 12:04:02 10.4 C 58 % 2.5 C
422 28-10-2010 12:16:02 10.8 C 59 % 3.12 C
423 28-10-2010 12:28:02 10.7 C 59 % 3.03 C
424 28-10-2010 12:40:02 10.7 C 60 % 3.26 C
425 28-10-2010 12:52:02 11 C 58 % 3.07 C
Sensor: Nr:Datum:Temp:Feuchte:Taupunkt:
Aussen-T/F 426 28-10-2010 13:04:03 11.2 C 56 % 2.76 C
427 28-10-2010 13:16:02 10.9 C 57 % 2.73 C
428 28-10-2010 13:28:02 11.2 C 56 % 2.76 C
429 28-10-2010 13:40:02 11.6 C 55 % 2.88 C
430 28-10-2010 13:52:01 11.8 C 54 % 2.81 C
431 28-10-2010 14:04:02 11.9 C 54 % 2.9 C
432 28-10-2010 14:16:01 12 C 53 % 2.73 C
433 28-10-2010 14:28:01 12.4 C 52 % 2.83 C
434 28-10-2010 14:40:01 12.4 C 51 % 2.56 C
435 28-10-2010 14:52:01 12.8 C 51 % 2.93 C
436 28-10-2010 15:04:02 13.1 C 49 % 2.64 C
437 28-10-2010 15:16:01 12.6 C 50 % 2.47 C
438 28-10-2010 15:28:01 12.7 C 51 % 2.84 C
439 28-10-2010 15:40:01 12.6 C 52 % 3.02 C
440 28-10-2010 15:52:01 12.6 C 52 % 3.02 C
441 28-10-2010 16:04:02 11.9 C 56 % 3.41 C
442 28-10-2010 16:16:02 11.6 C 58 % 3.63 C
443 28-10-2010 16:28:02 11.5 C 60 % 4.02 C
444 28-10-2010 16:40:01 11.5 C 60 % 4.02 C
445 28-10-2010 16:52:01 11.6 C 60 % 4.11 C
446 28-10-2010 17:04:01 11.6 C 60 % 4.11 C
447 28-10-2010 17:16:02 11.5 C 60 % 4.02 C
448 28-10-2010 17:28:02 11.1 C 60 % 3.64 C
449 28-10-2010 17:40:01 10.7 C 62 % 3.73 C
450 28-10-2010 17:52:03 10.5 C 63 % 3.77 C
Sensor: Nr:Datum:Temp:Feuchte:Taupunkt:
Aussen-T/F 451 28-10-2010 18:04:02 10.2 C 64 % 3.7 C
452 28-10-2010 18:16:02 10 C 65 % 3.73 C
453 28-10-2010 18:28:02 10 C 65 % 3.73 C
454 28-10-2010 18:40:02 9.7 C 67 % 3.88 C
455 28-10-2010 18:52:02 9.4 C 68 % 3.8 C
456 28-10-2010 19:04:02 9.2 C 70 % 4.02 C
457 28-10-2010 19:16:02 9.2 C 70 % 4.02 C
458 28-10-2010 19:28:02 9.2 C 70 % 4.02 C
459 28-10-2010 19:40:02 9.2 C 70 % 4.02 C
460 28-10-2010 19:52:02 9.1 C 69 % 3.72 C
461 28-10-2010 20:04:01 9.2 C 70 % 4.02 C
462 28-10-2010 20:16:02 9.2 C 70 % 4.02 C
463 28-10-2010 20:28:02 9 C 70 % 3.83 C
464 28-10-2010 20:40:02 8.9 C 72 % 4.14 C
465 28-10-2010 20:52:02 8.7 C 72 % 3.94 C
466 28-10-2010 21:04:03 8.6 C 73 % 4.04 C
467 28-10-2010 21:16:02 8.6 C 74 % 4.24 C
468 28-10-2010 21:28:02 8.5 C 74 % 4.14 C
469 28-10-2010 21:40:02 8.1 C 74 % 3.75 C
470 28-10-2010 21:52:01 8.1 C 77 % 4.32 C
471 28-10-2010 22:04:02 7.7 C 78 % 4.11 C
472 28-10-2010 22:16:01 7.6 C 79 % 4.2 C
473 28-10-2010 22:28:01 7.9 C 80 % 4.67 C
474 28-10-2010 22:40:02 7.4 C 79 % 4 C
475 28-10-2010 22:52:01 7.2 C 80 % 3.99 C
Sensor: Nr:Datum:Temp:Feuchte:Taupunkt:
Aussen-T/F 476 28-10-2010 23:04:02 7 C 81 % 3.97 C
477 28-10-2010 23:16:01 6.9 C 82 % 4.05 C
478 28-10-2010 23:28:01 6.8 C 83 % 4.12 C
479 28-10-2010 23:40:02 6.7 C 84 % 4.19 C
480 28-10-2010 23:52:01 6.5 C 84 % 4 C
481 29-10-2010 00:04:02 6.3 C 84 % 3.8 C
482 29-10-2010 00:16:02 6.2 C 84 % 3.7 C
483 29-10-2010 00:28:02 6.2 C 85 % 3.87 C
484 29-10-2010 00:40:02 6.3 C 85 % 3.97 C
485 29-10-2010 00:52:02 6.3 C 86 % 4.14 C
486 29-10-2010 01:04:02 6.4 C 86 % 4.23 C
487 29-10-2010 01:16:02 6.3 C 86 % 4.14 C
488 29-10-2010 01:28:03 6.2 C 87 % 4.2 C
489 29-10-2010 01:40:02 6.3 C 87 % 4.3 C
490 29-10-2010 01:52:02 6.2 C 87 % 4.2 C
491 29-10-2010 02:04:01 6.1 C 87 % 4.1 C
492 29-10-2010 02:16:02 6.2 C 88 % 4.36 C
493 29-10-2010 02:28:02 6.4 C 88 % 4.56 C
494 29-10-2010 02:40:01 6.8 C 88 % 4.96 C
495 29-10-2010 02:52:02 6.8 C 88 % 4.96 C
496 29-10-2010 03:04:02 6.9 C 87 % 4.89 C
497 29-10-2010 03:16:01 7.2 C 86 % 5.02 C
498 29-10-2010 03:28:01 7.6 C 87 % 5.58 C
499 29-10-2010 03:40:02 7.8 C 85 % 5.44 C
500 29-10-2010 03:52:02 8 C 83 % 5.29 C
Sensor: Nr:Datum:Temp:Feuchte:Taupunkt:
Aussen-T/F 501 29-10-2010 04:04:01 8 C 81 % 4.94 C
502 29-10-2010 04:16:02 8 C 80 % 4.77 C
503 29-10-2010 04:28:02 8.1 C 78 % 4.5 C
504 29-10-2010 04:40:01 8.1 C 78 % 4.5 C
505 29-10-2010 04:52:02 8.1 C 76 % 4.13 C
506 29-10-2010 05:04:01 8.1 C 76 % 4.13 C
507 29-10-2010 05:16:01 8.1 C 76 % 4.13 C
508 29-10-2010 05:28:01 8.1 C 77 % 4.32 C
509 29-10-2010 05:40:02 8.1 C 77 % 4.32 C
510 29-10-2010 05:52:01 8.1 C 77 % 4.32 C
511 29-10-2010 06:04:01 8.1 C 77 % 4.32 C
512 29-10-2010 06:16:01 8.3 C 77 % 4.51 C
513 29-10-2010 06:28:01 8.2 C 77 % 4.42 C
514 29-10-2010 06:40:02 8.2 C 77 % 4.42 C
515 29-10-2010 06:52:01 8.2 C 78 % 4.6 C
516 29-10-2010 07:04:02 8.2 C 78 % 4.6 C
517 29-10-2010 07:16:01 8.1 C 78 % 4.5 C
518 29-10-2010 07:28:01 8.1 C 78 % 4.5 C
519 29-10-2010 07:40:02 7.7 C 79 % 4.3 C
520 29-10-2010 07:52:01 7.3 C 80 % 4.09 C
521 29-10-2010 08:04:02 7.1 C 82 % 4.24 C
522 29-10-2010 08:16:01 7 C 83 % 4.32 C
523 29-10-2010 08:28:01 6.9 C 84 % 4.39 C
524 29-10-2010 08:40:01 6.9 C 85 % 4.56 C
525 29-10-2010 08:52:01 6.8 C 85 % 4.46 C
Sensor: Nr:Datum:Temp:Feuchte:Taupunkt:
Aussen-T/F 526 29-10-2010 09:04:02 6.6 C 86 % 4.43 C
527 29-10-2010 09:16:01 6.5 C 86 % 4.33 C
528 29-10-2010 09:28:01 6.4 C 87 % 4.4 C
529 29-10-2010 09:40:01 6.4 C 87 % 4.4 C
530 29-10-2010 09:52:01 6.5 C 87 % 4.5 C
531 29-10-2010 10:04:01 6.6 C 88 % 4.76 C
532 29-10-2010 10:16:02 6.8 C 88 % 4.96 C
533 29-10-2010 10:28:02 7 C 87 % 4.99 C
534 29-10-2010 10:40:01 7.3 C 88 % 5.45 C
535 29-10-2010 10:52:01 7.6 C 88 % 5.74 C
536 29-10-2010 11:04:01 7.9 C 87 % 5.87 C
537 29-10-2010 11:16:02 8.6 C 86 % 6.39 C
538 29-10-2010 11:28:02 9.4 C 83 % 6.66 C
539 29-10-2010 11:40:01 9.7 C 82 % 6.78 C
540 29-10-2010 11:52:02 10.3 C 77 % 6.45 C
541 29-10-2010 12:04:01 10.5 C 74 % 6.07 C
542 29-10-2010 12:16:02 11 C 72 % 6.15 C
543 29-10-2010 12:28:02 11.7 C 70 % 6.42 C
544 29-10-2010 12:40:01 12.3 C 63 % 5.47 C
545 29-10-2010 12:52:02 12.9 C 57 % 4.6 C
546 29-10-2010 13:04:01 13.1 C 54 % 4.01 C
547 29-10-2010 13:16:01 13.7 C 51 % 3.76 C
548 29-10-2010 13:28:01 14 C 46 % 2.58 C
549 29-10-2010 13:40:01 14.2 C 48 % 3.36 C
550 29-10-2010 13:52:01 14.7 C 46 % 3.22 C
Sensor: Nr:Datum:Temp:Feuchte:Taupunkt:
Aussen-T/F 551 29-10-2010 14:04:01 15.3 C 46 % 3.76 C
552 29-10-2010 14:16:01 15.7 C 46 % 4.13 C
553 29-10-2010 14:28:01 16 C 45 % 4.09 C
554 29-10-2010 14:40:02 16.7 C 44 % 4.4 C
555 29-10-2010 14:52:01 16.6 C 42 % 3.65 C
556 29-10-2010 15:04:02 16.7 C 41 % 3.4 C
557 29-10-2010 15:16:01 16.6 C 43 % 3.98 C
558 29-10-2010 15:28:01 16.5 C 40 % 2.87 C
559 29-10-2010 15:40:02 16.7 C 39 % 2.69 C
560 29-10-2010 15:52:01 16.7 C 41 % 3.4 C
561 29-10-2010 16:04:02 16.1 C 40 % 2.51 C
562 29-10-2010 16:16:01 16 C 39 % 2.07 C
563 29-10-2010 16:28:01 16.1 C 38 % 1.79 C
564 29-10-2010 16:40:01 15.9 C 39 % 1.98 C
565 29-10-2010 16:52:01 15.5 C 40 % 1.98 C
566 29-10-2010 17:04:01 15.5 C 40 % 1.98 C
567 29-10-2010 17:16:02 15.2 C 41 % 2.05 C
568 29-10-2010 17:28:02 14.1 C 42 % 1.4 C
569 29-10-2010 17:40:01 13.5 C 46 % 2.12 C
570 29-10-2010 17:52:01 12.9 C 48 % 2.17 C
571 29-10-2010 18:04:01 12.4 C 51 % 2.56 C
572 29-10-2010 18:16:02 11.9 C 53 % 2.64 C
573 29-10-2010 18:28:02 11.4 C 55 % 2.69 C
574 29-10-2010 18:40:01 10.7 C 60 % 3.26 C
575 29-10-2010 18:52:02 10.4 C 61 % 3.21 C
Sensor: Nr:Datum:Temp:Feuchte:Taupunkt:
Aussen-T/F 576 29-10-2010 19:04:01 10.2 C 62 % 3.25 C
577 29-10-2010 19:16:02 10.1 C 62 % 3.16 C
578 29-10-2010 19:28:02 10 C 62 % 3.07 C
579 29-10-2010 19:40:01 9.9 C 64 % 3.42 C
580 29-10-2010 19:52:02 9.9 C 65 % 3.64 C
581 29-10-2010 20:04:01 9.8 C 66 % 3.76 C
582 29-10-2010 20:16:01 9.8 C 65 % 3.54 C
583 29-10-2010 20:28:02 9.9 C 65 % 3.64 C
584 29-10-2010 20:40:01 9.9 C 66 % 3.86 C
585 29-10-2010 20:52:02 10.1 C 64 % 3.61 C
586 29-10-2010 21:04:01 10.2 C 64 % 3.7 C
587 29-10-2010 21:16:01 10.1 C 64 % 3.61 C
588 29-10-2010 21:28:01 9.9 C 66 % 3.86 C
589 29-10-2010 21:40:02 9.8 C 67 % 3.97 C
590 29-10-2010 21:52:01 9.7 C 68 % 4.09 C
591 29-10-2010 22:04:01 9.8 C 69 % 4.39 C
592 29-10-2010 22:16:02 9.8 C 70 % 4.6 C
593 29-10-2010 22:28:02 9.8 C 70 % 4.6 C
594 29-10-2010 22:40:01 9.9 C 71 % 4.9 C
595 29-10-2010 22:52:01 9.9 C 72 % 5.1 C
596 29-10-2010 23:04:01 10 C 70 % 4.79 C
597 29-10-2010 23:16:02 10.2 C 70 % 4.98 C
598 29-10-2010 23:28:02 10.4 C 69 % 4.97 C
599 29-10-2010 23:40:01 10.7 C 67 % 4.83 C
600 29-10-2010 23:52:02 10.9 C 67 % 5.02 C
Sensor: Nr:Datum:Temp:Feuchte:Taupunkt:
Aussen-T/F 601 30-10-2010 00:04:01 10.8 C 67 % 4.93 C
602 30-10-2010 00:16:02 10.9 C 67 % 5.02 C
603 30-10-2010 00:28:02 11.1 C 66 % 5 C
604 30-10-2010 00:40:01 11.1 C 66 % 5 C
605 30-10-2010 00:52:01 11.1 C 66 % 5 C
606 30-10-2010 01:04:01 11.1 C 66 % 5 C
607 30-10-2010 01:16:02 11.2 C 65 % 4.87 C
608 30-10-2010 01:28:02 11.1 C 66 % 5 C
609 30-10-2010 01:40:01 11.2 C 65 % 4.87 C
610 30-10-2010 01:52:02 11.4 C 64 % 4.84 C
611 30-10-2010 02:04:01 11.6 C 62 % 4.58 C
612 30-10-2010 02:16:02 11.8 C 60 % 4.3 C
613 30-10-2010 02:28:02 11.9 C 58 % 3.91 C
614 30-10-2010 02:40:01 11.8 C 60 % 4.3 C
615 30-10-2010 02:52:02 11.8 C 60 % 4.3 C
616 30-10-2010 03:04:02 11.7 C 61 % 4.44 C
617 30-10-2010 03:16:01 11.7 C 61 % 4.44 C
618 30-10-2010 03:28:01 11.7 C 60 % 4.2 C
619 30-10-2010 03:40:02 11.9 C 59 % 4.15 C
620 30-10-2010 03:52:02 11.8 C 59 % 4.06 C
621 30-10-2010 04:04:01 11.9 C 57 % 3.66 C
622 30-10-2010 04:16:02 11.8 C 58 % 3.82 C
623 30-10-2010 04:28:02 11.7 C 58 % 3.72 C
624 30-10-2010 04:40:01 11.6 C 60 % 4.11 C
625 30-10-2010 04:52:02 11.4 C 62 % 4.39 C
Sensor: Nr:Datum:Temp:Feuchte:Taupunkt:
Aussen-T/F 626 30-10-2010 05:04:01 11 C 62 % 4.01 C
627 30-10-2010 05:16:01 10.8 C 66 % 4.71 C
628 30-10-2010 05:28:01 10.5 C 67 % 4.64 C
629 30-10-2010 05:40:01 10.2 C 68 % 4.57 C
630 30-10-2010 05:52:01 10.1 C 69 % 4.68 C
631 30-10-2010 06:04:01 9.9 C 71 % 4.9 C
632 30-10-2010 06:16:01 9.9 C 73 % 5.29 C
633 30-10-2010 06:28:01 9.8 C 73 % 5.2 C
634 30-10-2010 06:40:02 9.7 C 73 % 5.1 C
635 30-10-2010 06:52:01 9.7 C 73 % 5.1 C
636 30-10-2010 07:04:02 9.6 C 74 % 5.2 C
637 30-10-2010 07:16:01 9.4 C 75 % 5.2 C
638 30-10-2010 07:28:01 9.3 C 75 % 5.1 C
639 30-10-2010 07:40:02 9.2 C 76 % 5.2 C
640 30-10-2010 07:52:01 9 C 77 % 5.19 C
641 30-10-2010 08:04:02 9 C 78 % 5.38 C
642 30-10-2010 08:16:01 8.8 C 79 % 5.36 C
643 30-10-2010 08:28:01 8.7 C 80 % 5.45 C
644 30-10-2010 08:40:01 8.8 C 80 % 5.55 C
645 30-10-2010 08:52:01 9.1 C 80 % 5.84 C
646 30-10-2010 09:04:01 9.1 C 79 % 5.66 C
647 30-10-2010 09:16:02 9.4 C 79 % 5.95 C
648 30-10-2010 09:28:02 9.6 C 79 % 6.14 C
649 30-10-2010 09:40:01 9.7 C 79 % 6.24 C
650 30-10-2010 09:52:01 9.8 C 79 % 6.34 C
Sensor: Nr:Datum:Temp:Feuchte:Taupunkt:
Aussen-T/F 651 30-10-2010 10:04:01 10 C 75 % 5.78 C
652 30-10-2010 10:16:02 10.2 C 75 % 5.97 C
653 30-10-2010 10:28:02 10.5 C 75 % 6.26 C
654 30-10-2010 10:40:01 11.1 C 74 % 6.65 C
655 30-10-2010 10:52:02 11.3 C 72 % 6.44 C
656 30-10-2010 11:04:01 11.7 C 72 % 6.83 C
657 02-11-2010 08:03:09 8.6 C 82 % 5.71 C
658 02-11-2010 08:15:01 8.4 C 82 % 5.51 C
659 02-11-2010 08:15:09 8.9 C 81 % 5.82 C
660 02-11-2010 08:27:01 8.5 C 82 % 5.61 C
661 02-11-2010 08:27:09 9 C 79 % 5.56 C
662 02-11-2010 08:39:02 8.5 C 82 % 5.61 C
663 02-11-2010 08:39:09 9.2 C 77 % 5.38 C
664 02-11-2010 08:51:01 8.6 C 82 % 5.71 C
665 02-11-2010 08:51:42 9.3 C 76 % 5.29 C
666 02-11-2010 09:03:59 9.5 C 76 % 5.49 C
667 02-11-2010 09:15:59 9.7 C 75 % 5.49 C
668 02-11-2010 09:27:26 9.8 C 74 % 5.39 C
669 02-11-2010 09:39:43 10.1 C 72 % 5.29 C
670 02-11-2010 09:51:10 10.4 C 70 % 5.17 C
671 02-11-2010 10:03:10 10.9 C 69 % 5.44 C
672 02-11-2010 10:15:26 10.8 C 68 % 5.14 C
673 02-11-2010 10:27:53 11 C 67 % 5.12 C
674 02-11-2010 10:39:10 11 C 67 % 5.12 C
675 02-11-2010 10:51:10 11.5 C 65 % 5.16 C
Sensor: Nr:Datum:Temp:Feuchte:Taupunkt:
Aussen-T/F 676 02-11-2010 11:03:37 11.8 C 61 % 4.53 C
677 02-11-2010 11:15:54 12.1 C 59 % 4.34 C
678 02-11-2010 11:27:22 11.8 C 61 % 4.53 C
679 02-11-2010 11:39:22 11.7 C 62 % 4.67 C
680 02-11-2010 11:51:38 12 C 61 % 4.72 C
681 02-11-2010 12:03:06 12.2 C 61 % 4.91 C
682 02-11-2010 12:15:06 12.5 C 59 % 4.72 C
683 02-11-2010 12:27:21 12.7 C 59 % 4.9 C
684 02-11-2010 12:39:49 12.8 C 58 % 4.75 C
685 02-11-2010 12:51:06 12.4 C 58 % 4.38 C
686 02-11-2010 13:03:06 12.4 C 58 % 4.38 C
687 02-11-2010 13:15:33 12.7 C 57 % 4.41 C
688 02-11-2010 13:27:49 12.7 C 56 % 4.16 C
689 02-11-2010 13:39:16 12.9 C 57 % 4.6 C
690 02-11-2010 13:51:16 12.9 C 56 % 4.35 C
691 02-11-2010 14:03:33 12.6 C 57 % 4.32 C
692 02-11-2010 14:15:00 12.9 C 56 % 4.35 C
693 02-11-2010 14:27:00 12.7 C 57 % 4.41 C
694 02-11-2010 14:39:16 12.7 C 58 % 4.66 C
695 02-11-2010 14:51:43 13.1 C 56 % 4.53 C
696 02-11-2010 15:03:00 13.2 C 54 % 4.11 C
697 02-11-2010 15:15:00 13 C 55 % 4.18 C
698 02-11-2010 15:27:27 13 C 56 % 4.44 C
699 02-11-2010 15:39:43 12.7 C 59 % 4.9 C
700 02-11-2010 15:51:11 12.7 C 59 % 4.9 C
Sensor: Nr:Datum:Temp:Feuchte:Taupunkt:
Aussen-T/F 701 02-11-2010 16:03:11 12.8 C 58 % 4.75 C
702 02-11-2010 16:15:27 12.4 C 59 % 4.62 C
703 02-11-2010 16:27:54 12.2 C 60 % 4.67 C
704 02-11-2010 16:39:10 12.2 C 59 % 4.43 C
705 02-11-2010 16:51:10 12.1 C 60 % 4.58 C
706 02-11-2010 17:03:38 12.2 C 60 % 4.67 C
707 02-11-2010 17:15:54 11.6 C 63 % 4.81 C
708 02-11-2010 17:27:21 11 C 66 % 4.9 C
709 02-11-2010 17:39:21 11 C 67 % 5.12 C
710 02-11-2010 17:51:37 10.9 C 67 % 5.02 C
711 02-11-2010 18:03:05 11 C 66 % 4.9 C
712 02-11-2010 18:15:05 10.9 C 67 % 5.02 C
713 02-11-2010 18:27:21 11.2 C 66 % 5.09 C
714 02-11-2010 18:39:48 11.4 C 65 % 5.06 C
715 02-11-2010 18:51:05 11.6 C 64 % 5.03 C
716 02-11-2010 19:03:05 11.4 C 64 % 4.84 C
717 02-11-2010 19:15:32 11.5 C 65 % 5.16 C
718 02-11-2010 19:27:48 11.7 C 64 % 5.13 C
719 02-11-2010 19:39:15 11.7 C 64 % 5.13 C
720 02-11-2010 19:51:15 11 C 66 % 4.9 C
721 02-11-2010 20:03:32 10.5 C 70 % 5.27 C
722 02-11-2010 20:15:00 10.7 C 72 % 5.87 C
723 02-11-2010 20:27:00 11.1 C 71 % 6.05 C
724 02-11-2010 20:39:15 11.3 C 69 % 5.83 C
725 02-11-2010 20:51:02 11.4 C 68 % 5.71 C
Sensor: Nr:Datum:Temp:Feuchte:Taupunkt:
Aussen-T/F 726 02-11-2010 21:03:02 11.2 C 69 % 5.73 C
727 02-11-2010 21:15:02 11 C 71 % 5.95 C
728 02-11-2010 21:27:03 10.8 C 73 % 6.16 C
729 02-11-2010 21:39:02 10.9 C 73 % 6.26 C
730 02-11-2010 21:51:02 10.8 C 74 % 6.36 C
731 02-11-2010 22:03:02 10.8 C 75 % 6.55 C
732 02-11-2010 22:15:01 11 C 74 % 6.55 C
733 02-11-2010 22:27:01 11.3 C 73 % 6.64 C
734 02-11-2010 22:39:02 11.2 C 73 % 6.55 C
735 02-11-2010 22:51:02 11.1 C 74 % 6.65 C
736 02-11-2010 23:03:02 11 C 75 % 6.75 C
737 02-11-2010 23:15:02 11.1 C 75 % 6.84 C
738 02-11-2010 23:27:02 11.5 C 74 % 7.03 C
739 02-11-2010 23:39:02 11.2 C 74 % 6.74 C
740 02-11-2010 23:51:02 10.9 C 77 % 7.03 C
741 03-11-2010 00:03:02 10.8 C 78 % 7.12 C
742 03-11-2010 00:15:02 11.3 C 77 % 7.42 C
743 03-11-2010 00:27:02 11.4 C 74 % 6.94 C
744 03-11-2010 00:39:02 11.4 C 73 % 6.74 C
745 03-11-2010 00:51:02 11.7 C 73 % 7.03 C
746 03-11-2010 01:03:02 10.9 C 76 % 6.84 C
747 03-11-2010 01:15:02 11.4 C 74 % 6.94 C
748 03-11-2010 01:27:02 11 C 74 % 6.55 C
749 03-11-2010 01:39:02 10.5 C 75 % 6.26 C
750 03-11-2010 01:51:02 10.6 C 78 % 6.93 C
Sensor: Nr:Datum:Temp:Feuchte:Taupunkt:
Aussen-T/F 751 03-11-2010 02:03:02 11.4 C 75 % 7.13 C
752 03-11-2010 02:15:01 11.8 C 72 % 6.92 C
753 03-11-2010 02:27:01 12 C 71 % 6.91 C
754 03-11-2010 02:39:02 11.9 C 72 % 7.02 C
755 03-11-2010 02:52:03 11.3 C 72 % 6.44 C
756 03-11-2010 03:04:03 11.8 C 72 % 6.92 C
757 03-11-2010 03:16:04 12.1 C 68 % 6.38 C
758 03-11-2010 03:28:04 12.1 C 67 % 6.17 C
759 03-11-2010 03:40:02 12.1 C 68 % 6.38 C
760 03-11-2010 03:52:02 12.2 C 68 % 6.48 C
761 03-11-2010 04:04:02 12.2 C 68 % 6.48 C
762 03-11-2010 04:16:02 12.2 C 69 % 6.69 C
763 03-11-2010 04:28:02 12.6 C 69 % 7.07 C
764 03-11-2010 04:40:02 12.5 C 68 % 6.76 C
765 03-11-2010 04:52:02 12.7 C 67 % 6.74 C
766 03-11-2010 05:04:03 12.8 C 67 % 6.83 C
767 03-11-2010 05:16:02 12.7 C 67 % 6.74 C
768 03-11-2010 05:28:02 12.7 C 67 % 6.74 C
769 03-11-2010 05:40:02 12.8 C 67 % 6.83 C
770 03-11-2010 05:52:01 12.6 C 68 % 6.86 C
771 03-11-2010 06:04:01 12.7 C 68 % 6.95 C
772 03-11-2010 06:16:02 12.6 C 69 % 7.07 C
773 03-11-2010 06:28:02 12.7 C 68 % 6.95 C
774 03-11-2010 06:40:01 12.6 C 69 % 7.07 C
775 03-11-2010 06:52:01 12.7 C 69 % 7.17 C
Sensor: Nr:Datum:Temp:Feuchte:Taupunkt:
Aussen-T/F 776 03-11-2010 07:04:01 12.7 C 69 % 7.17 C
777 03-11-2010 07:16:02 12.6 C 69 % 7.07 C
778 03-11-2010 07:28:02 12.8 C 69 % 7.26 C
779 03-11-2010 07:40:01 12.9 C 68 % 7.14 C
780 03-11-2010 07:52:02 12.8 C 68 % 7.05 C
781 03-11-2010 08:04:02 13 C 67 % 7.02 C
782 03-11-2010 08:16:02 13.2 C 66 % 7 C
783 03-11-2010 08:28:02 13.3 C 65 % 6.87 C
784 03-11-2010 08:40:01 13.4 C 65 % 6.96 C
785 03-11-2010 08:52:02 13.5 C 65 % 7.06 C
786 03-11-2010 09:04:01 13.6 C 65 % 7.15 C
787 03-11-2010 09:16:01 13.7 C 65 % 7.25 C
788 03-11-2010 09:28:01 13.7 C 64 % 7.02 C
789 03-11-2010 09:40:02 14 C 63 % 7.08 C
790 03-11-2010 09:52:02 13.9 C 64 % 7.21 C
791 03-11-2010 10:04:03 14 C 63 % 7.08 C
792 03-11-2010 10:16:02 14.2 C 62 % 7.03 C
793 03-11-2010 10:28:02 14.2 C 62 % 7.03 C
794 03-11-2010 10:40:01 14.3 C 61 % 6.89 C
795 03-11-2010 10:52:02 14.3 C 61 % 6.89 C
796 03-11-2010 11:04:01 14.4 C 61 % 6.98 C
797 03-11-2010 11:16:02 14.4 C 61 % 6.98 C
798 03-11-2010 11:28:02 14.6 C 62 % 7.41 C
799 03-11-2010 11:40:01 14.4 C 62 % 7.22 C
800 03-11-2010 11:52:02 14.3 C 63 % 7.36 C
Sensor: Nr:Datum:Temp:Feuchte:Taupunkt:
Aussen-T/F 801 03-11-2010 12:04:02 14.1 C 63 % 7.17 C
802 03-11-2010 12:16:02 14.1 C 64 % 7.4 C
803 03-11-2010 12:28:02 14 C 64 % 7.31 C
804 03-11-2010 12:40:02 13.8 C 65 % 7.34 C
805 03-11-2010 12:52:02 13.7 C 66 % 7.47 C
806 03-11-2010 13:04:02 13.6 C 66 % 7.38 C
807 03-11-2010 13:16:01 13.5 C 67 % 7.5 C
808 03-11-2010 13:28:01 13.6 C 67 % 7.6 C
809 03-11-2010 13:40:02 13.5 C 67 % 7.5 C
810 03-11-2010 13:52:02 13.5 C 67 % 7.5 C
811 03-11-2010 14:04:02 13.5 C 68 % 7.72 C
812 03-11-2010 14:16:01 13.7 C 67 % 7.69 C
813 03-11-2010 14:28:01 13.6 C 67 % 7.6 C
814 03-11-2010 14:40:02 13.7 C 67 % 7.69 C
815 03-11-2010 14:52:02 13.8 C 67 % 7.79 C
816 03-11-2010 15:04:02 13.8 C 67 % 7.79 C
817 03-11-2010 15:16:02 13.8 C 68 % 8 C
818 03-11-2010 15:28:02 13.8 C 68 % 8 C
819 03-11-2010 15:40:02 13.8 C 68 % 8 C
820 03-11-2010 15:52:02 13.7 C 68 % 7.91 C
821 03-11-2010 16:04:02 13.7 C 69 % 8.12 C
822 03-11-2010 16:16:02 13.7 C 69 % 8.12 C
823 03-11-2010 16:28:02 13.4 C 69 % 7.84 C
824 03-11-2010 16:40:02 13.4 C 70 % 8.05 C
825 03-11-2010 16:52:01 13.1 C 70 % 7.76 C
Sensor: Nr:Datum:Temp:Feuchte:Taupunkt:
Aussen-T/F 826 03-11-2010 17:04:01 13.1 C 73 % 8.38 C
827 03-11-2010 17:16:02 13 C 72 % 8.08 C
828 03-11-2010 17:28:02 13 C 72 % 8.08 C
829 03-11-2010 17:40:01 13.1 C 71 % 7.97 C
830 03-11-2010 17:52:02 13.1 C 72 % 8.17 C
831 03-11-2010 18:04:02 12.8 C 74 % 8.29 C
832 03-11-2010 18:16:03 12.7 C 75 % 8.39 C
833 03-11-2010 18:28:03 12.5 C 75 % 8.19 C
834 03-11-2010 18:40:02 12.6 C 75 % 8.29 C
835 03-11-2010 18:52:02 12.7 C 75 % 8.39 C
836 03-11-2010 19:04:02 12.7 C 75 % 8.39 C
837 03-11-2010 19:16:02 12.8 C 74 % 8.29 C
838 03-11-2010 19:28:02 13 C 72 % 8.08 C
839 03-11-2010 19:40:02 13.3 C 72 % 8.36 C
840 03-11-2010 19:52:02 13 C 72 % 8.08 C
841 03-11-2010 20:04:01 13.2 C 71 % 8.06 C
842 03-11-2010 20:16:02 13.3 C 72 % 8.36 C
843 03-11-2010 20:28:02 13.4 C 71 % 8.26 C
844 03-11-2010 20:40:02 13.5 C 70 % 8.14 C
845 03-11-2010 20:52:01 13.5 C 69 % 7.93 C
846 03-11-2010 21:04:02 13.5 C 70 % 8.14 C
847 03-11-2010 21:16:01 13.5 C 70 % 8.14 C
848 03-11-2010 21:28:01 13.6 C 69 % 8.03 C
849 03-11-2010 21:40:02 13.3 C 70 % 7.95 C
850 03-11-2010 21:53:23 13.8 C 69 % 8.22 C
Sensor: Nr:Datum:Temp:Feuchte:Taupunkt:
Aussen-T/F 851 03-11-2010 22:05:23 13.9 C 68 % 8.1 C
852 03-11-2010 22:17:23 14 C 67 % 7.98 C
853 03-11-2010 22:29:23 14.2 C 67 % 8.17 C
854 03-11-2010 22:41:23 14.2 C 67 % 8.17 C
855 03-11-2010 22:53:23 14.2 C 67 % 8.17 C
856 03-11-2010 23:05:23 14.2 C 67 % 8.17 C
857 03-11-2010 23:17:23 14.2 C 68 % 8.39 C
858 03-11-2010 23:29:23 14.2 C 69 % 8.6 C
859 03-11-2010 23:41:23 14.2 C 70 % 8.81 C
860 03-11-2010 23:53:23 14.2 C 70 % 8.81 C
861 04-11-2010 00:05:23 14.2 C 71 % 9.02 C
862 04-11-2010 00:17:23 14.2 C 71 % 9.02 C
863 04-11-2010 00:29:24 14.1 C 72 % 9.13 C
864 04-11-2010 00:41:24 14.4 C 72 % 9.42 C
865 04-11-2010 00:53:24 14.6 C 71 % 9.41 C
866 04-11-2010 01:05:24 14.7 C 72 % 9.71 C
867 04-11-2010 01:17:24 14.7 C 72 % 9.71 C
868 04-11-2010 01:29:24 14.8 C 71 % 9.6 C
869 04-11-2010 01:41:24 14.8 C 72 % 9.81 C
870 04-11-2010 01:53:24 14.7 C 72 % 9.71 C
871 04-11-2010 02:05:24 14.8 C 72 % 9.81 C
872 04-11-2010 02:17:24 14.9 C 72 % 9.9 C
873 04-11-2010 02:29:24 15 C 70 % 9.58 C
874 04-11-2010 02:41:24 15.1 C 70 % 9.67 C
875 04-11-2010 02:53:24 15 C 70 % 9.58 C
Sensor: Nr:Datum:Temp:Feuchte:Taupunkt:
Aussen-T/F 876 04-11-2010 03:05:24 15.1 C 70 % 9.67 C
877 04-11-2010 03:17:24 15.2 C 70 % 9.77 C
878 04-11-2010 03:29:24 15.1 C 71 % 9.89 C
879 04-11-2010 03:41:24 15.2 C 70 % 9.77 C
880 04-11-2010 03:53:24 15.2 C 71 % 9.98 C
881 04-11-2010 04:05:24 15.2 C 71 % 9.98 C
882 04-11-2010 04:17:24 15.1 C 72 % 10.09 C
883 04-11-2010 04:29:24 15.2 C 72 % 10.19 C
884 04-11-2010 04:41:25 15.3 C 71 % 10.08 C
885 04-11-2010 04:53:25 15.3 C 72 % 10.29 C
886 04-11-2010 05:05:25 15.4 C 71 % 10.17 C
887 04-11-2010 05:17:25 15.5 C 71 % 10.27 C
888 04-11-2010 05:29:25 15.6 C 71 % 10.37 C
889 04-11-2010 05:41:25 15.6 C 71 % 10.37 C
890 04-11-2010 05:53:25 15.6 C 71 % 10.37 C
891 04-11-2010 06:05:25 15.7 C 71 % 10.46 C
892 04-11-2010 06:17:25 15.7 C 72 % 10.67 C
893 04-11-2010 06:29:25 15.6 C 72 % 10.57 C
894 04-11-2010 06:41:25 15.8 C 72 % 10.77 C
895 04-11-2010 06:53:25 15.7 C 72 % 10.67 C
896 04-11-2010 07:05:25 15.7 C 72 % 10.67 C
897 04-11-2010 07:17:03 15.8 C 71 % 10.56 C
898 04-11-2010 07:29:03 16.1 C 70 % 10.63 C
899 04-11-2010 07:41:02 16 C 69 % 10.32 C
900 04-11-2010 07:53:02 16 C 69 % 10.32 C
Sensor: Nr:Datum:Temp:Feuchte:Taupunkt:
Aussen-T/F 901 04-11-2010 08:05:01 16.1 C 69 % 10.42 C
902 04-11-2010 08:17:02 16.1 C 69 % 10.42 C
903 04-11-2010 08:29:03 16.2 C 69 % 10.51 C
904 04-11-2010 08:41:01 16.2 C 68 % 10.29 C
905 04-11-2010 08:53:02 16.4 C 67 % 10.26 C
906 04-11-2010 09:05:02 16.6 C 65 % 10 C
907 04-11-2010 09:17:02 16.6 C 64 % 9.77 C
908 04-11-2010 09:29:02 16.6 C 64 % 9.77 C
909 04-11-2010 09:41:02 16.6 C 64 % 9.77 C
910 04-11-2010 09:53:02 16.8 C 63 % 9.72 C
911 04-11-2010 10:05:02 17 C 62 % 9.67 C
912 04-11-2010 10:17:01 17.1 C 61 % 9.53 C
913 04-11-2010 10:29:01 17.3 C 60 % 9.47 C
914 04-11-2010 10:41:02 17.5 C 59 % 9.41 C
915 04-11-2010 10:53:02 17.3 C 59 % 9.22 C
916 04-11-2010 11:05:02 17.5 C 58 % 9.15 C
917 04-11-2010 11:17:01 17.7 C 57 % 9.08 C
918 04-11-2010 11:29:01 17.8 C 56 % 8.91 C
919 04-11-2010 11:41:02 18 C 54 % 8.56 C
920 04-11-2010 11:53:02 18.1 C 53 % 8.38 C
921 04-11-2010 12:05:02 18.3 C 52 % 8.28 C
922 04-11-2010 12:17:02 18.5 C 52 % 8.47 C
923 04-11-2010 12:29:02 18.5 C 52 % 8.47 C
924 04-11-2010 12:41:02 18.3 C 52 % 8.28 C
925 04-11-2010 12:53:02 18.6 C 51 % 8.27 C
Sensor: Nr:Datum:Temp:Feuchte:Taupunkt:
Aussen-T/F 926 04-11-2010 13:05:02 18.7 C 51 % 8.37 C
927 04-11-2010 13:17:02 18.5 C 52 % 8.47 C
928 04-11-2010 13:29:02 18.5 C 52 % 8.47 C
929 04-11-2010 13:41:01 18.5 C 52 % 8.47 C
930 04-11-2010 13:53:02 18.5 C 51 % 8.18 C
931 04-11-2010 14:05:01 18.3 C 51 % 8 C
932 04-11-2010 14:17:02 18.3 C 51 % 8 C
933 04-11-2010 14:29:02 18.5 C 51 % 8.18 C
934 04-11-2010 14:41:02 18.6 C 50 % 7.98 C
935 04-11-2010 14:53:02 18.5 C 51 % 8.18 C
936 04-11-2010 15:05:02 18.4 C 51 % 8.09 C
937 04-11-2010 15:17:02 18.4 C 52 % 8.38 C
938 04-11-2010 15:29:02 18.4 C 52 % 8.38 C
939 04-11-2010 15:41:02 18.1 C 52 % 8.1 C
940 04-11-2010 15:53:02 17.9 C 54 % 8.47 C
941 04-11-2010 16:05:02 17.9 C 55 % 8.74 C
942 04-11-2010 16:17:01 17.7 C 56 % 8.82 C
943 04-11-2010 16:29:01 17.5 C 57 % 8.9 C
944 04-11-2010 16:41:02 17.4 C 57 % 8.8 C
945 04-11-2010 16:53:02 17.1 C 57 % 8.52 C
946 04-11-2010 17:05:02 17.1 C 58 % 8.78 C
947 04-11-2010 17:17:01 16.8 C 59 % 8.75 C
948 04-11-2010 17:29:01 16.9 C 59 % 8.84 C
949 04-11-2010 17:41:02 16.8 C 59 % 8.75 C
950 04-11-2010 17:53:01 17 C 58 % 8.69 C
Sensor: Nr:Datum:Temp:Feuchte:Taupunkt:
Aussen-T/F 951 04-11-2010 18:05:02 16.7 C 59 % 8.66 C
952 04-11-2010 18:17:02 16.8 C 59 % 8.75 C
953 04-11-2010 18:29:02 16.8 C 59 % 8.75 C
954 04-11-2010 18:41:01 16.8 C 59 % 8.75 C
955 04-11-2010 18:53:02 16.8 C 59 % 8.75 C
956 04-11-2010 19:05:02 16.9 C 59 % 8.84 C
957 04-11-2010 19:17:02 16.9 C 59 % 8.84 C
958 04-11-2010 19:29:02 16.9 C 59 % 8.84 C
959 04-11-2010 19:41:01 16.9 C 59 % 8.84 C
960 04-11-2010 19:53:01 17 C 58 % 8.69 C
961 04-11-2010 20:05:02 16.5 C 59 % 8.47 C
962 04-11-2010 20:17:02 16.3 C 58 % 8.03 C
963 04-11-2010 20:29:02 16.1 C 59 % 8.09 C
964 04-11-2010 20:41:01 15.9 C 60 % 8.15 C
965 04-11-2010 20:53:01 15.8 C 60 % 8.06 C
966 04-11-2010 21:05:02 15.8 C 60 % 8.06 C
967 04-11-2010 21:17:01 15.9 C 60 % 8.15 C
968 04-11-2010 21:29:01 15.8 C 60 % 8.06 C
969 04-11-2010 21:41:02 15.7 C 60 % 7.97 C
970 04-11-2010 21:53:02 15.5 C 60 % 7.78 C
971 04-11-2010 22:05:02 15.4 C 60 % 7.68 C
972 04-11-2010 22:18:04 15.4 C 60 % 7.68 C
973 04-11-2010 22:30:04 15.4 C 60 % 7.68 C
974 04-11-2010 22:42:04 15.4 C 60 % 7.68 C
975 04-11-2010 22:54:04 15.3 C 60 % 7.59 C
Sensor: Nr:Datum:Temp:Feuchte:Taupunkt:
Aussen-T/F 976 04-11-2010 23:06:04 15.4 C 60 % 7.68 C
977 04-11-2010 23:18:04 15.3 C 60 % 7.59 C
978 04-11-2010 23:30:04 15.4 C 60 % 7.68 C
979 04-11-2010 23:42:04 15.4 C 60 % 7.68 C
980 04-11-2010 23:54:05 15.5 C 60 % 7.78 C
981 05-11-2010 00:06:05 15.5 C 60 % 7.78 C
982 05-11-2010 00:18:05 15.4 C 60 % 7.68 C
983 05-11-2010 00:30:05 15.3 C 60 % 7.59 C
984 05-11-2010 00:42:05 15.2 C 61 % 7.74 C
985 05-11-2010 00:54:05 15.3 C 60 % 7.59 C
986 05-11-2010 01:06:05 15.2 C 60 % 7.5 C
987 05-11-2010 01:18:05 15.2 C 58 % 7 C
988 05-11-2010 01:30:05 15.2 C 57 % 6.75 C
989 05-11-2010 01:42:05 15.1 C 58 % 6.91 C
990 05-11-2010 01:54:05 15 C 58 % 6.81 C
991 05-11-2010 02:06:05 14.9 C 59 % 6.97 C
992 05-11-2010 02:18:05 14.9 C 58 % 6.72 C
993 05-11-2010 02:30:05 14.7 C 59 % 6.78 C
994 05-11-2010 02:42:05 14.7 C 59 % 6.78 C
995 05-11-2010 02:54:05 14.5 C 60 % 6.84 C
996 05-11-2010 03:06:05 14.5 C 60 % 6.84 C
997 05-11-2010 03:18:05 14.6 C 59 % 6.69 C
998 05-11-2010 03:30:05 14.4 C 60 % 6.74 C
999 05-11-2010 03:42:05 14.4 C 59 % 6.5 C
1000 05-11-2010 03:54:05 14.4 C 59 % 6.5 C
Sensor: Nr:Datum:Temp:Feuchte:Taupunkt:
Aussen-T/F 1001 05-11-2010 04:06:05 14.4 C 59 % 6.5 C
1002 05-11-2010 04:18:05 14.2 C 60 % 6.56 C
1003 05-11-2010 04:30:06 14.1 C 61 % 6.7 C
1004 05-11-2010 04:42:06 14.1 C 61 % 6.7 C
1005 05-11-2010 04:54:06 14.2 C 61 % 6.8 C
1006 05-11-2010 05:06:06 14.1 C 60 % 6.46 C
1007 05-11-2010 05:18:06 14 C 60 % 6.37 C
1008 05-11-2010 05:30:06 14.3 C 59 % 6.41 C
1009 05-11-2010 05:42:06 14.2 C 58 % 6.06 C
1010 05-11-2010 05:54:06 14.1 C 58 % 5.97 C
1011 05-11-2010 06:06:06 14 C 58 % 5.88 C
1012 05-11-2010 06:18:06 13.9 C 60 % 6.27 C
1013 05-11-2010 06:30:06 13.8 C 60 % 6.18 C
1014 05-11-2010 06:42:06 13.8 C 60 % 6.18 C
1015 05-11-2010 06:54:02 13.6 C 61 % 6.23 C
1016 05-11-2010 07:06:02 13.5 C 60 % 5.9 C
1017 05-11-2010 07:18:02 13.3 C 61 % 5.95 C
1018 05-11-2010 07:30:02 13.5 C 59 % 5.65 C
1019 05-11-2010 07:42:02 13.5 C 59 % 5.65 C
1020 05-11-2010 07:54:02 13.5 C 59 % 5.65 C
1021 05-11-2010 08:06:02 13.5 C 58 % 5.41 C
1022 05-11-2010 08:18:02 13.7 C 56 % 5.09 C
1023 05-11-2010 08:30:02 14 C 54 % 4.85 C
1024 05-11-2010 08:42:02 14.1 C 54 % 4.94 C
1025 05-11-2010 08:54:02 14.1 C 54 % 4.94 C
Sensor: Nr:Datum:Temp:Feuchte:Taupunkt:
Aussen-T/F 1026 05-11-2010 09:06:02 14.2 C 54 % 5.04 C
1027 05-11-2010 09:18:01 14.4 C 54 % 5.22 C
1028 05-11-2010 09:30:01 14.6 C 54 % 5.41 C
1029 05-11-2010 09:42:02 14.7 C 54 % 5.5 C
1030 05-11-2010 09:54:02 14.7 C 54 % 5.5 C
1031 05-11-2010 10:06:02 14.8 C 54 % 5.59 C
1032 05-11-2010 10:18:02 14.9 C 54 % 5.69 C
1033 05-11-2010 10:30:02 15 C 53 % 5.51 C
1034 05-11-2010 10:42:02 15 C 54 % 5.78 C
1035 05-11-2010 10:54:01 14.8 C 55 % 5.86 C
1036 05-11-2010 11:06:01 14.7 C 56 % 6.02 C
1037 05-11-2010 11:18:01 15 C 54 % 5.78 C
1038 05-11-2010 11:30:01 15.6 C 53 % 6.06 C
1039 05-11-2010 11:42:02 15.5 C 53 % 5.97 C
1040 05-11-2010 11:54:02 15.3 C 53 % 5.79 C
1041 05-11-2010 12:06:01 15.4 C 53 % 5.88 C
1042 05-11-2010 12:18:02 15 C 55 % 6.04 C
1043 05-11-2010 12:30:02 15.1 C 55 % 6.14 C
1044 05-11-2010 12:42:02 15.2 C 55 % 6.23 C
1045 05-11-2010 12:54:02 15 C 56 % 6.3 C
1046 05-11-2010 13:06:01 15 C 55 % 6.04 C
1047 05-11-2010 13:18:01 15 C 55 % 6.04 C
1048 05-11-2010 13:30:01 15.2 C 55 % 6.23 C
1049 05-11-2010 13:42:01 15.1 C 55 % 6.14 C
1050 05-11-2010 13:54:02 15.2 C 55 % 6.23 C
Sensor: Nr:Datum:Temp:Feuchte:Taupunkt:
Aussen-T/F 1051 05-11-2010 14:06:02 14.9 C 57 % 6.47 C
1052 05-11-2010 14:18:02 14.7 C 59 % 6.78 C
1053 05-11-2010 14:30:02 14.8 C 59 % 6.87 C
1054 05-11-2010 14:42:01 14.8 C 58 % 6.63 C
1055 05-11-2010 14:54:01 14.8 C 59 % 6.87 C
1056 05-11-2010 15:06:02 14.7 C 59 % 6.78 C
1057 05-11-2010 15:18:02 14.7 C 60 % 7.03 C
1058 05-11-2010 15:30:02 14.7 C 59 % 6.78 C
1059 05-11-2010 15:42:02 14.4 C 61 % 6.98 C
1060 05-11-2010 15:54:01 14.5 C 60 % 6.84 C
1061 05-11-2010 16:06:02 14.6 C 60 % 6.93 C
1062 05-11-2010 16:18:01 14.6 C 60 % 6.93 C
1063 05-11-2010 16:30:01 14.6 C 60 % 6.93 C
1064 05-11-2010 16:42:02 14.5 C 60 % 6.84 C
1065 05-11-2010 16:54:01 14.5 C 60 % 6.84 C
1066 05-11-2010 17:06:02 14.5 C 61 % 7.08 C
1067 05-11-2010 17:18:01 14.6 C 60 % 6.93 C
1068 05-11-2010 17:30:01 14.7 C 60 % 7.03 C
1069 05-11-2010 17:42:02 14.7 C 60 % 7.03 C
1070 05-11-2010 17:54:02 14.7 C 60 % 7.03 C
1071 05-11-2010 18:06:02 14.7 C 60 % 7.03 C
1072 05-11-2010 18:18:02 14.7 C 60 % 7.03 C
1073 05-11-2010 18:30:02 14.8 C 60 % 7.12 C
1074 05-11-2010 18:42:02 14.8 C 60 % 7.12 C
1075 05-11-2010 18:54:02 14.8 C 60 % 7.12 C
Sensor: Nr:Datum:Temp:Feuchte:Taupunkt:
Aussen-T/F 1076 05-11-2010 19:06:02 14.6 C 60 % 6.93 C
1077 05-11-2010 19:18:02 14.4 C 61 % 6.98 C
1078 05-11-2010 19:30:02 14.2 C 62 % 7.03 C
1079 05-11-2010 19:42:02 14.3 C 62 % 7.13 C
1080 05-11-2010 19:54:01 14.3 C 62 % 7.13 C
1081 05-11-2010 20:06:02 14.3 C 62 % 7.13 C
1082 05-11-2010 20:18:01 14.4 C 61 % 6.98 C
1083 05-11-2010 20:30:01 14.5 C 61 % 7.08 C
1084 05-11-2010 20:42:02 14.5 C 61 % 7.08 C
1085 05-11-2010 20:54:02 14.5 C 61 % 7.08 C
1086 05-11-2010 21:06:02 14.4 C 61 % 6.98 C
1087 05-11-2010 21:18:02 14.2 C 62 % 7.03 C
1088 05-11-2010 21:30:02 14.3 C 62 % 7.13 C
1089 05-11-2010 21:42:02 14.1 C 63 % 7.17 C
1090 05-11-2010 21:54:02 14.4 C 62 % 7.22 C
1091 05-11-2010 22:06:02 14.2 C 62 % 7.03 C
1092 05-11-2010 22:18:01 14.2 C 62 % 7.03 C
1093 05-11-2010 22:30:01 14.1 C 62 % 6.94 C
1094 05-11-2010 22:42:02 13.9 C 64 % 7.21 C
1095 05-11-2010 22:54:02 13.7 C 64 % 7.02 C
1096 05-11-2010 23:06:02 13.6 C 65 % 7.15 C
1097 05-11-2010 23:18:02 14 C 63 % 7.08 C
1098 05-11-2010 23:30:02 14 C 63 % 7.08 C
1099 05-11-2010 23:42:02 14.1 C 62 % 6.94 C
1100 05-11-2010 23:54:02 14 C 62 % 6.84 C
Sensor: Nr:Datum:Temp:Feuchte:Taupunkt:
Aussen-T/F 1101 06-11-2010 00:06:01 13.9 C 64 % 7.21 C
1102 06-11-2010 00:18:01 14.1 C 62 % 6.94 C
1103 06-11-2010 00:30:01 14 C 63 % 7.08 C
1104 06-11-2010 00:42:02 14.1 C 62 % 6.94 C
1105 06-11-2010 00:54:02 14.1 C 62 % 6.94 C
1106 06-11-2010 01:06:02 14 C 63 % 7.08 C
1107 06-11-2010 01:18:02 14.1 C 63 % 7.17 C
1108 06-11-2010 01:30:02 14.1 C 62 % 6.94 C
1109 06-11-2010 01:42:02 14 C 63 % 7.08 C
1110 06-11-2010 01:54:01 13.9 C 64 % 7.21 C
1111 06-11-2010 02:06:02 13.9 C 64 % 7.21 C
1112 06-11-2010 02:18:01 13.7 C 65 % 7.25 C
1113 06-11-2010 02:30:01 13.3 C 66 % 7.09 C
1114 06-11-2010 02:42:02 13.1 C 67 % 7.12 C
1115 06-11-2010 02:55:03 12.9 C 69 % 7.36 C
1116 06-11-2010 03:07:03 12.9 C 70 % 7.57 C
1117 06-11-2010 03:19:03 13 C 70 % 7.66 C
1118 06-11-2010 03:31:03 13 C 70 % 7.66 C
1119 06-11-2010 03:43:03 12.8 C 72 % 7.88 C
1120 06-11-2010 03:55:03 12.8 C 72 % 7.88 C
1121 06-11-2010 04:07:02 12.7 C 73 % 7.99 C
1122 06-11-2010 04:19:02 12.7 C 73 % 7.99 C
1123 06-11-2010 04:31:02 12.7 C 73 % 7.99 C
1124 06-11-2010 04:43:02 12.9 C 72 % 7.98 C
1125 06-11-2010 04:55:02 12.9 C 72 % 7.98 C
Sensor: Nr:Datum:Temp:Feuchte:Taupunkt:
Aussen-T/F 1126 06-11-2010 05:07:02 13 C 71 % 7.87 C
1127 06-11-2010 05:19:03 13 C 71 % 7.87 C
1128 06-11-2010 05:31:02 13.1 C 70 % 7.76 C
1129 06-11-2010 05:43:02 13.2 C 69 % 7.64 C
1130 06-11-2010 05:55:02 13.3 C 69 % 7.74 C
1131 06-11-2010 06:07:02 13.4 C 68 % 7.62 C
1132 06-11-2010 06:19:02 13.4 C 68 % 7.62 C
1133 06-11-2010 06:31:02 13.4 C 68 % 7.62 C
1134 06-11-2010 06:43:02 13.5 C 67 % 7.5 C
1135 06-11-2010 06:55:02 13.6 C 66 % 7.38 C
1136 06-11-2010 07:07:03 13.4 C 66 % 7.19 C
1137 06-11-2010 07:19:02 13.5 C 65 % 7.06 C
1138 06-11-2010 07:31:02 13.5 C 65 % 7.06 C
1139 06-11-2010 07:43:02 13.5 C 64 % 6.83 C
1140 06-11-2010 07:55:02 13.5 C 64 % 6.83 C
1141 06-11-2010 08:07:01 13.4 C 64 % 6.74 C
1142 06-11-2010 08:19:01 13.5 C 64 % 6.83 C
1143 06-11-2010 08:31:02 13.4 C 64 % 6.74 C
1144 06-11-2010 08:43:02 13.2 C 66 % 7 C
1145 06-11-2010 08:55:02 13.2 C 66 % 7 C
1146 06-11-2010 09:07:02 13.2 C 67 % 7.21 C
1147 06-11-2010 09:19:02 13 C 68 % 7.24 C
1148 06-11-2010 09:31:01 12.6 C 68 % 6.86 C
1149 06-11-2010 09:43:01 10.7 C 74 % 6.26 C
1150 06-11-2010 09:55:02 10.1 C 79 % 6.63 C
Sensor: Nr:Datum:Temp:Feuchte:Taupunkt:
Aussen-T/F 1151 06-11-2010 10:07:01 10 C 82 % 7.07 C
1152 06-11-2010 10:19:01 10.1 C 83 % 7.35 C
1153 06-11-2010 10:31:01 10.2 C 84 % 7.62 C
1154 06-11-2010 10:43:01 10.2 C 84 % 7.62 C
1155 06-11-2010 10:55:01 10.4 C 84 % 7.82 C
1156 06-11-2010 11:07:02 10.6 C 84 % 8.01 C
1157 06-11-2010 11:19:02 10.6 C 84 % 8.01 C
1158 06-11-2010 11:31:02 10.5 C 84 % 7.91 C
1159 06-11-2010 11:43:02 10.7 C 84 % 8.11 C
1160 06-11-2010 11:55:01 10.5 C 84 % 7.91 C
1161 06-11-2010 12:07:02 10 C 84 % 7.43 C
1162 06-11-2010 12:19:01 9.8 C 83 % 7.05 C
1163 06-11-2010 12:31:02 9.8 C 83 % 7.05 C
1164 06-11-2010 12:43:02 9.8 C 83 % 7.05 C
1165 06-11-2010 12:55:02 9.5 C 81 % 6.41 C
1166 06-11-2010 13:07:02 9.2 C 81 % 6.11 C
1167 06-11-2010 13:19:02 8.9 C 83 % 6.17 C
1168 06-11-2010 13:31:02 9 C 84 % 6.45 C
1169 06-11-2010 13:43:02 9.2 C 86 % 6.98 C
1170 06-11-2010 13:55:02 9.1 C 87 % 7.05 C
1171 06-11-2010 14:07:02 9.1 C 87 % 7.05 C
1172 06-11-2010 14:19:02 9 C 87 % 6.96 C
1173 06-11-2010 14:31:02 9 C 87 % 6.96 C
1174 06-11-2010 14:43:03 8.8 C 88 % 6.93 C
1175 06-11-2010 14:55:02 8.7 C 88 % 6.83 C
Sensor: Nr:Datum:Temp:Feuchte:Taupunkt:
Aussen-T/F 1176 06-11-2010 15:07:02 8.8 C 89 % 7.09 C
1177 06-11-2010 15:19:01 8.7 C 89 % 6.99 C
1178 06-11-2010 15:31:02 8.7 C 89 % 6.99 C
1179 06-11-2010 15:43:02 8.5 C 89 % 6.79 C
1180 06-11-2010 15:55:02 8.5 C 89 % 6.79 C
1181 06-11-2010 16:07:03 8.4 C 89 % 6.7 C
1182 06-11-2010 16:19:02 8.3 C 90 % 6.76 C
1183 06-11-2010 16:31:02 8.2 C 90 % 6.66 C
1184 06-11-2010 16:43:02 8.2 C 90 % 6.66 C
1185 06-11-2010 16:55:02 7.9 C 91 % 6.52 C
1186 06-11-2010 17:07:02 7.9 C 91 % 6.52 C
1187 06-11-2010 17:19:02 8.1 C 91 % 6.72 C
1188 06-11-2010 17:31:02 7.9 C 92 % 6.68 C
1189 06-11-2010 17:43:02 7.8 C 92 % 6.58 C
1190 06-11-2010 17:55:02 7.5 C 92 % 6.29 C
1191 06-11-2010 18:07:01 7.6 C 92 % 6.39 C
1192 06-11-2010 18:19:02 7.3 C 92 % 6.09 C
1193 06-11-2010 18:31:01 7.5 C 92 % 6.29 C
1194 06-11-2010 18:43:01 7.4 C 92 % 6.19 C
1195 06-11-2010 18:55:02 7.4 C 92 % 6.19 C
1196 06-11-2010 19:07:01 7.6 C 93 % 6.54 C
1197 06-11-2010 19:19:02 7.3 C 93 % 6.25 C
1198 06-11-2010 19:31:01 7.4 C 93 % 6.34 C
1199 06-11-2010 19:43:01 7.3 C 93 % 6.25 C
1200 06-11-2010 19:55:01 7.5 C 93 % 6.44 C
Sensor: Nr:Datum:Temp:Feuchte:Taupunkt:
Aussen-T/F 1201 06-11-2010 20:07:01 7.3 C 93 % 6.25 C
1202 06-11-2010 20:19:02 7.3 C 93 % 6.25 C
1203 06-11-2010 20:31:01 7.1 C 93 % 6.05 C
1204 06-11-2010 20:43:01 7.2 C 93 % 6.15 C
1205 06-11-2010 20:55:01 7.1 C 93 % 6.05 C
1206 06-11-2010 21:07:01 7.3 C 93 % 6.25 C
1207 06-11-2010 21:19:01 7.2 C 93 % 6.15 C
1208 06-11-2010 21:31:01 7.2 C 93 % 6.15 C
1209 06-11-2010 21:43:01 7.2 C 93 % 6.15 C
1210 06-11-2010 21:55:01 7.4 C 93 % 6.34 C
1211 06-11-2010 22:07:02 7.5 C 93 % 6.44 C
1212 06-11-2010 22:19:01 7.5 C 93 % 6.44 C
1213 06-11-2010 22:32:02 7.4 C 93 % 6.34 C
1214 06-11-2010 22:44:02 7.5 C 93 % 6.44 C
1215 06-11-2010 22:56:02 7.5 C 93 % 6.44 C
1216 06-11-2010 23:08:02 7.5 C 93 % 6.44 C
1217 06-11-2010 23:20:02 7.3 C 93 % 6.25 C
1218 06-11-2010 23:32:03 7.4 C 93 % 6.34 C
1219 06-11-2010 23:44:03 7.3 C 93 % 6.25 C
1220 06-11-2010 23:56:03 7.3 C 93 % 6.25 C
1221 07-11-2010 00:08:03 7.2 C 93 % 6.15 C
1222 07-11-2010 00:20:03 7.2 C 93 % 6.15 C
1223 07-11-2010 00:32:03 7.2 C 93 % 6.15 C
1224 07-11-2010 00:44:03 7.3 C 93 % 6.25 C
1225 07-11-2010 00:56:03 7.2 C 93 % 6.15 C
Sensor: Nr:Datum:Temp:Feuchte:Taupunkt:
Aussen-T/F 1226 07-11-2010 01:08:03 7.3 C 93 % 6.25 C
1227 07-11-2010 01:20:03 7.3 C 93 % 6.25 C
1228 07-11-2010 01:32:03 7.2 C 93 % 6.15 C
1229 07-11-2010 01:44:03 7.1 C 93 % 6.05 C
1230 07-11-2010 01:56:03 7 C 93 % 5.95 C
1231 07-11-2010 02:08:03 6.7 C 94 % 5.8 C
1232 07-11-2010 02:20:03 6.7 C 94 % 5.8 C
1233 07-11-2010 02:32:03 7 C 93 % 5.95 C
1234 07-11-2010 02:44:03 7.2 C 94 % 6.3 C
1235 07-11-2010 02:56:03 7.3 C 93 % 6.25 C
1236 07-11-2010 03:08:03 7.3 C 93 % 6.25 C
1237 07-11-2010 03:20:03 7.3 C 93 % 6.25 C
1238 07-11-2010 03:32:04 7.3 C 94 % 6.4 C
1239 07-11-2010 03:44:04 7.3 C 94 % 6.4 C
1240 07-11-2010 03:56:04 7.3 C 94 % 6.4 C
1241 07-11-2010 04:08:04 7.3 C 94 % 6.4 C
1242 07-11-2010 04:20:04 7.2 C 94 % 6.3 C
1243 07-11-2010 04:32:04 7.2 C 94 % 6.3 C
1244 07-11-2010 04:44:04 7.2 C 93 % 6.15 C
1245 07-11-2010 04:56:04 7 C 93 % 5.95 C
1246 07-11-2010 05:08:04 6.9 C 94 % 6 C
1247 07-11-2010 05:20:04 6.8 C 94 % 5.9 C
1248 07-11-2010 05:32:04 6.9 C 94 % 6 C
1249 07-11-2010 05:44:04 6.8 C 94 % 5.9 C
1250 07-11-2010 05:56:04 6.6 C 94 % 5.71 C
Sensor: Nr:Datum:Temp:Feuchte:Taupunkt:
Aussen-T/F 1251 07-11-2010 06:08:04 6.4 C 94 % 5.51 C
1252 07-11-2010 06:20:04 6.3 C 94 % 5.41 C
1253 07-11-2010 06:32:04 6.4 C 94 % 5.51 C
1254 07-11-2010 06:44:04 6.7 C 94 % 5.8 C
1255 07-11-2010 06:56:04 6.6 C 94 % 5.71 C
1256 07-11-2010 07:08:04 6.4 C 94 % 5.51 C
1257 07-11-2010 07:20:04 6.7 C 94 % 5.8 C
1258 07-11-2010 07:32:04 6.7 C 94 % 5.8 C
1259 07-11-2010 07:44:05 6.8 C 94 % 5.9 C
1260 07-11-2010 07:56:05 6.9 C 94 % 6 C
1261 07-11-2010 08:08:01 7 C 93 % 5.95 C
1262 07-11-2010 08:20:02 7.1 C 93 % 6.05 C
1263 07-11-2010 08:32:01 7.2 C 93 % 6.15 C
1264 07-11-2010 08:44:01 7.2 C 93 % 6.15 C
1265 07-11-2010 08:56:01 7.3 C 93 % 6.25 C
1266 07-11-2010 09:08:01 7.4 C 94 % 6.5 C
1267 07-11-2010 09:20:02 7.4 C 94 % 6.5 C
1268 07-11-2010 09:32:01 7.5 C 94 % 6.6 C
1269 07-11-2010 09:44:01 7.4 C 93 % 6.34 C
1270 07-11-2010 09:56:01 7.6 C 93 % 6.54 C
1271 07-11-2010 10:08:02 7.8 C 94 % 6.9 C
1272 07-11-2010 10:20:01 7.7 C 94 % 6.8 C
1273 07-11-2010 10:32:02 7.9 C 94 % 7 C
1274 07-11-2010 10:44:02 7.8 C 94 % 6.9 C
1275 07-11-2010 10:56:02 7.9 C 94 % 7 C
Sensor: Nr:Datum:Temp:Feuchte:Taupunkt:
Aussen-T/F 1276 07-11-2010 11:08:01 7.9 C 93 % 6.84 C
1277 07-11-2010 11:20:02 8 C 93 % 6.94 C
1278 07-11-2010 11:32:02 8 C 92 % 6.78 C
1279 07-11-2010 11:44:02 8 C 92 % 6.78 C
1280 07-11-2010 11:56:02 8.4 C 92 % 7.18 C
1281 07-11-2010 12:08:01 8.5 C 92 % 7.28 C
1282 07-11-2010 12:20:02 9 C 91 % 7.61 C
1283 07-11-2010 12:32:02 8.9 C 91 % 7.51 C
1284 07-11-2010 12:44:02 8.6 C 91 % 7.22 C
1285 07-11-2010 12:56:02 8.7 C 89 % 6.99 C
1286 07-11-2010 13:08:02 8.8 C 89 % 7.09 C
1287 07-11-2010 13:20:02 8.6 C 88 % 6.73 C
1288 07-11-2010 13:32:02 8.4 C 87 % 6.37 C
1289 07-11-2010 13:44:02 8.4 C 88 % 6.53 C
1290 07-11-2010 13:56:02 8.2 C 88 % 6.33 C
1291 07-11-2010 14:08:02 8.2 C 88 % 6.33 C
1292 07-11-2010 14:20:02 8.2 C 88 % 6.33 C
1293 07-11-2010 14:32:02 8.2 C 89 % 6.5 C
1294 07-11-2010 14:44:02 8.4 C 89 % 6.7 C
1295 07-11-2010 14:56:02 8.1 C 89 % 6.4 C
1296 07-11-2010 15:08:02 7.7 C 89 % 6 C
1297 07-11-2010 15:20:02 7.5 C 89 % 5.81 C
1298 07-11-2010 15:32:02 7.6 C 90 % 6.07 C
1299 07-11-2010 15:44:02 7.5 C 90 % 5.97 C
1300 07-11-2010 15:56:02 7.2 C 90 % 5.67 C
Sensor: Nr:Datum:Temp:Feuchte:Taupunkt:
Aussen-T/F 1301 07-11-2010 16:08:01 7.1 C 90 % 5.57 C
1302 07-11-2010 16:20:01 6.8 C 91 % 5.44 C
1303 07-11-2010 16:32:02 6.7 C 91 % 5.34 C
1304 07-11-2010 16:44:02 6.7 C 91 % 5.34 C
1305 07-11-2010 16:56:02 6.8 C 92 % 5.59 C
1306 07-11-2010 17:08:02 6.8 C 92 % 5.59 C
1307 07-11-2010 17:20:02 6.7 C 92 % 5.49 C
1308 07-11-2010 17:32:02 6.8 C 92 % 5.59 C
1309 07-11-2010 17:44:02 6.7 C 92 % 5.49 C
1310 07-11-2010 17:56:02 6.8 C 92 % 5.59 C
1311 07-11-2010 18:08:01 6.5 C 92 % 5.3 C
1312 07-11-2010 18:20:02 6.7 C 92 % 5.49 C
1313 07-11-2010 18:32:01 6.8 C 92 % 5.59 C
1314 07-11-2010 18:44:01 6.7 C 92 % 5.49 C
1315 07-11-2010 18:56:02 6.2 C 92 % 5 C
1316 07-11-2010 19:08:01 6 C 92 % 4.8 C
1317 07-11-2010 19:20:02 5.9 C 93 % 4.86 C
1318 07-11-2010 19:32:01 5.7 C 93 % 4.66 C
1319 07-11-2010 19:44:01 5.7 C 93 % 4.66 C
1320 07-11-2010 19:56:02 5.3 C 93 % 4.26 C
1321 07-11-2010 20:08:01 5.2 C 93 % 4.16 C
1322 07-11-2010 20:20:02 5.2 C 93 % 4.16 C
1323 07-11-2010 20:32:01 5.2 C 93 % 4.16 C
1324 07-11-2010 20:44:01 5.2 C 93 % 4.16 C
1325 07-11-2010 20:56:01 5.1 C 93 % 4.06 C
Sensor: Nr:Datum:Temp:Feuchte:Taupunkt:
Aussen-T/F 1326 07-11-2010 21:08:01 5.1 C 93 % 4.06 C
1327 07-11-2010 21:20:01 5.1 C 93 % 4.06 C
1328 07-11-2010 21:32:01 5 C 93 % 3.96 C
1329 07-11-2010 21:44:01 4.9 C 93 % 3.87 C
1330 07-11-2010 21:56:01 4.8 C 94 % 3.92 C
1331 07-11-2010 22:08:02 4.8 C 94 % 3.92 C
1332 07-11-2010 22:21:03 5 C 93 % 3.96 C
1333 07-11-2010 22:33:03 5 C 93 % 3.96 C
1334 07-11-2010 22:45:03 4.9 C 94 % 4.02 C
1335 07-11-2010 22:57:03 4.8 C 94 % 3.92 C
1336 07-11-2010 23:09:03 4.7 C 94 % 3.82 C
1337 07-11-2010 23:21:03 4.7 C 94 % 3.82 C
1338 07-11-2010 23:33:03 4.7 C 94 % 3.82 C
1339 07-11-2010 23:45:03 4.6 C 94 % 3.72 C
1340 07-11-2010 23:57:03 4.5 C 93 % 3.47 C
1341 08-11-2010 00:09:03 4.4 C 93 % 3.37 C
1342 08-11-2010 00:21:03 4.1 C 93 % 3.07 C
1343 08-11-2010 00:33:03 3.9 C 94 % 3.02 C
1344 08-11-2010 00:45:03 3.8 C 94 % 2.93 C
1345 08-11-2010 00:57:04 4 C 93 % 2.97 C
1346 08-11-2010 01:09:04 4.1 C 93 % 3.07 C
1347 08-11-2010 01:21:04 4.3 C 93 % 3.27 C
1348 08-11-2010 01:33:04 4.3 C 93 % 3.27 C
1349 08-11-2010 01:45:04 4.1 C 93 % 3.07 C
1350 08-11-2010 01:57:04 3.8 C 94 % 2.93 C
Sensor: Nr:Datum:Temp:Feuchte:Taupunkt:
Aussen-T/F 1351 08-11-2010 02:09:04 3.5 C 94 % 2.63 C
1352 08-11-2010 02:21:04 3.9 C 94 % 3.02 C
1353 08-11-2010 02:33:04 4.1 C 93 % 3.07 C
1354 08-11-2010 02:45:04 4.3 C 93 % 3.27 C
1355 08-11-2010 02:57:04 4.4 C 94 % 3.52 C
1356 08-11-2010 03:09:04 4.5 C 94 % 3.62 C
1357 08-11-2010 03:21:04 4.5 C 94 % 3.62 C
1358 08-11-2010 03:33:04 4.5 C 94 % 3.62 C
1359 08-11-2010 03:45:04 4.4 C 94 % 3.52 C
1360 08-11-2010 03:57:04 4.4 C 94 % 3.52 C
1361 08-11-2010 04:09:04 4.4 C 94 % 3.52 C
1362 08-11-2010 04:21:04 4.4 C 94 % 3.52 C
1363 08-11-2010 04:33:04 4.4 C 94 % 3.52 C
1364 08-11-2010 04:45:04 4.4 C 94 % 3.52 C
1365 08-11-2010 04:57:04 4.4 C 94 % 3.52 C
1366 08-11-2010 05:09:05 4.5 C 94 % 3.62 C
1367 08-11-2010 05:21:05 4.5 C 94 % 3.62 C
1368 08-11-2010 05:33:05 4.6 C 94 % 3.72 C
1369 08-11-2010 05:45:05 4.7 C 94 % 3.82 C
1370 08-11-2010 05:57:05 4.7 C 94 % 3.82 C
1371 08-11-2010 06:09:05 4.8 C 94 % 3.92 C
1372 08-11-2010 06:21:05 4.8 C 94 % 3.92 C
1373 08-11-2010 06:33:05 4.9 C 94 % 4.02 C
1374 08-11-2010 06:45:05 4.9 C 94 % 4.02 C
1375 08-11-2010 06:57:05 4.9 C 94 % 4.02 C
Sensor: Nr:Datum:Temp:Feuchte:Taupunkt:
Aussen-T/F 1376 08-11-2010 07:09:05 4.8 C 94 % 3.92 C
1377 08-11-2010 07:21:03 4.4 C 94 % 3.52 C
1378 08-11-2010 07:33:02 4.6 C 94 % 3.72 C
1379 08-11-2010 07:45:01 4.9 C 94 % 4.02 C
1380 08-11-2010 07:57:01 5 C 93 % 3.96 C
1381 08-11-2010 08:09:02 4.9 C 94 % 4.02 C
1382 08-11-2010 08:21:01 5 C 93 % 3.96 C
1383 08-11-2010 08:33:02 4.9 C 94 % 4.02 C
1384 08-11-2010 08:45:02 4.9 C 94 % 4.02 C
1385 08-11-2010 08:57:02 5.1 C 93 % 4.06 C
1386 08-11-2010 09:09:02 5.4 C 93 % 4.36 C
1387 08-11-2010 09:21:02 5.6 C 93 % 4.56 C
1388 08-11-2010 09:33:02 6 C 92 % 4.8 C
1389 08-11-2010 09:45:02 6 C 91 % 4.65 C
1390 08-11-2010 09:57:02 6.2 C 89 % 4.53 C
1391 08-11-2010 10:09:02 7.1 C 88 % 5.25 C
1392 08-11-2010 10:21:02 6.9 C 85 % 4.56 C
1393 08-11-2010 10:33:02 7 C 83 % 4.32 C
1394 08-11-2010 10:45:01 7.2 C 81 % 4.16 C
1395 08-11-2010 10:57:01 7.2 C 80 % 3.99 C
1396 08-11-2010 11:09:02 7.5 C 76 % 3.55 C
1397 08-11-2010 11:21:01 7.6 C 73 % 3.08 C
1398 08-11-2010 11:33:02 7.1 C 71 % 2.21 C
1399 08-11-2010 11:45:02 7.2 C 72 % 2.5 C
1400 08-11-2010 11:57:02 6.9 C 73 % 2.4 C
Sensor: Nr:Datum:Temp:Feuchte:Taupunkt:
Aussen-T/F 1401 08-11-2010 12:09:02 7.4 C 71 % 2.5 C
1402 08-11-2010 12:21:02 8 C 64 % 1.62 C
1403 08-11-2010 12:33:02 6.3 C 68 % 0.84 C
1404 08-11-2010 12:45:02 6.1 C 72 % 1.44 C
1405 08-11-2010 12:57:02 6.1 C 72 % 1.44 C
1406 08-11-2010 13:09:02 6.4 C 71 % 1.54 C
1407 08-11-2010 13:21:02 7.4 C 67 % 1.69 C
1408 08-11-2010 13:33:03 8 C 64 % 1.62 C
1409 08-11-2010 13:45:02 7.4 C 61 % 0.38 C
1410 08-11-2010 13:57:03 7 C 64 % 0.67 C
1411 08-11-2010 14:09:01 7.1 C 62 % 0.33 C
1412 08-11-2010 14:21:02 6.7 C 63 % 0.17 C
1413 08-11-2010 14:33:01 7.1 C 60 % -0.13 C
1414 08-11-2010 14:45:02 6.8 C 60 % -0.41 C
1415 08-11-2010 14:57:02 6.7 C 63 % 0.17 C
1416 08-11-2010 15:09:01 6.1 C 64 % -0.19 C
1417 08-11-2010 15:21:02 6.6 C 60 % -0.6 C
1418 08-11-2010 15:33:01 6.1 C 61 % -0.84 C
1419 08-11-2010 15:45:02 4.8 C 71 % 0 C
1420 08-11-2010 15:57:02 4.4 C 74 % 0.18 C
1421 08-11-2010 16:09:02 3.7 C 79 % 0.4 C
1422 08-11-2010 16:21:02 3.4 C 80 % 0.29 C
1423 08-11-2010 16:33:02 2.9 C 82 % 0.14 C
1424 08-11-2010 16:45:02 2.6 C 84 % 0.18 C
1425 08-11-2010 16:57:02 2.3 C 85 % 0.04 C
Sensor: Nr:Datum:Temp:Feuchte:Taupunkt:
Aussen-T/F 1426 08-11-2010 17:09:02 2.5 C 86 % 0.4 C
1427 08-11-2010 17:21:02 2.3 C 86 % 0.21 C
1428 08-11-2010 17:33:02 2 C 87 % 0.07 C
1429 08-11-2010 17:45:02 2 C 87 % 0.07 C
1430 08-11-2010 17:57:02 1.6 C 88 % -0.17 C
1431 08-11-2010 18:09:02 1.6 C 89 % -0.01 C
1432 08-11-2010 18:21:02 1.7 C 89 % 0.09 C
1433 08-11-2010 18:33:02 1.5 C 89 % -0.11 C
1434 08-11-2010 18:45:01 1.4 C 90 % -0.06 C
1435 08-11-2010 18:57:01 1.1 C 90 % -0.35 C
1436 08-11-2010 19:09:02 1.6 C 90 % 0.14 C
1437 08-11-2010 19:21:02 2.1 C 90 % 0.64 C
1438 08-11-2010 19:33:02 2.2 C 91 % 0.89 C
1439 08-11-2010 19:45:01 2.6 C 91 % 1.28 C
1440 08-11-2010 19:57:01 2.8 C 90 % 1.33 C
1441 08-11-2010 20:09:02 3.2 C 89 % 1.57 C
1442 08-11-2010 20:21:01 3.4 C 89 % 1.76 C
1443 08-11-2010 20:33:02 3.5 C 88 % 1.7 C
1444 08-11-2010 20:45:02 3.6 C 88 % 1.8 C
1445 08-11-2010 20:57:02 3.8 C 87 % 1.84 C
1446 08-11-2010 21:09:02 3.9 C 87 % 1.94 C
1447 08-11-2010 21:21:03 3.9 C 88 % 2.1 C
1448 08-11-2010 21:33:02 3.9 C 88 % 2.1 C
1449 08-11-2010 21:45:03 3.9 C 88 % 2.1 C
1450 08-11-2010 21:57:03 3.9 C 89 % 2.26 C
Sensor: Nr:Datum:Temp:Feuchte:Taupunkt:
Aussen-T/F 1451 08-11-2010 22:09:02 3.9 C 89 % 2.26 C
1452 08-11-2010 22:21:02 4 C 88 % 2.2 C
1453 08-11-2010 22:33:02 4.2 C 89 % 2.55 C
1454 08-11-2010 22:45:02 4.5 C 89 % 2.85 C
1455 08-11-2010 22:57:02 4.5 C 88 % 2.69 C
1456 08-11-2010 23:10:05 4.6 C 86 % 2.47 C
1457 08-11-2010 23:22:05 4.5 C 86 % 2.37 C
1458 08-11-2010 23:34:05 4.4 C 85 % 2.11 C
1459 08-11-2010 23:46:05 4.4 C 86 % 2.27 C
1460 08-11-2010 23:58:05 4.3 C 86 % 2.17 C
1461 09-11-2010 00:10:05 4.3 C 86 % 2.17 C
1462 09-11-2010 00:22:05 4.1 C 87 % 2.14 C
1463 09-11-2010 00:34:05 4.1 C 88 % 2.3 C
1464 09-11-2010 00:46:05 4.4 C 88 % 2.59 C
1465 09-11-2010 00:58:06 4.3 C 88 % 2.49 C
1466 09-11-2010 01:10:06 4.1 C 89 % 2.45 C
1467 09-11-2010 01:22:06 4.2 C 89 % 2.55 C
1468 09-11-2010 01:34:06 4.3 C 89 % 2.65 C
1469 09-11-2010 01:46:06 4.3 C 89 % 2.65 C
1470 09-11-2010 01:58:06 4.1 C 89 % 2.45 C
1471 09-11-2010 02:10:06 4.1 C 89 % 2.45 C
1472 09-11-2010 02:22:06 4.1 C 89 % 2.45 C
1473 09-11-2010 02:34:06 4.1 C 90 % 2.61 C
1474 09-11-2010 02:46:06 4.3 C 90 % 2.81 C
1475 09-11-2010 02:58:06 4.4 C 91 % 3.06 C
Sensor: Nr:Datum:Temp:Feuchte:Taupunkt:
Aussen-T/F 1476 09-11-2010 03:10:06 4.3 C 91 % 2.96 C
1477 09-11-2010 03:22:06 4.5 C 91 % 3.16 C
1478 09-11-2010 03:34:06 4.4 C 91 % 3.06 C
1479 09-11-2010 03:46:06 4.4 C 91 % 3.06 C
1480 09-11-2010 03:58:06 4.7 C 91 % 3.36 C
1481 09-11-2010 04:10:06 4.3 C 91 % 2.96 C
1482 09-11-2010 04:22:06 4.3 C 91 % 2.96 C
1483 09-11-2010 04:34:06 4.6 C 91 % 3.26 C
1484 09-11-2010 04:46:06 4.5 C 91 % 3.16 C
1485 09-11-2010 04:58:06 4.5 C 91 % 3.16 C
1486 09-11-2010 05:10:07 4.7 C 91 % 3.36 C
1487 09-11-2010 05:22:07 4.7 C 91 % 3.36 C
1488 09-11-2010 05:34:07 4.7 C 91 % 3.36 C
1489 09-11-2010 05:46:07 4.8 C 91 % 3.46 C
1490 09-11-2010 05:58:07 4.8 C 91 % 3.46 C
1491 09-11-2010 06:10:07 5 C 90 % 3.5 C
1492 09-11-2010 06:22:07 5.1 C 90 % 3.6 C
1493 09-11-2010 06:34:07 5.1 C 90 % 3.6 C
1494 09-11-2010 06:46:07 5.1 C 90 % 3.6 C
1495 09-11-2010 06:58:07 5.2 C 90 % 3.7 C
1496 09-11-2010 07:10:07 5.3 C 90 % 3.8 C
1497 09-11-2010 07:22:04 5.4 C 90 % 3.89 C
1498 09-11-2010 07:34:04 5.6 C 89 % 3.93 C
1499 09-11-2010 07:46:01 5.7 C 87 % 3.71 C
1500 09-11-2010 07:58:01 5.9 C 86 % 3.74 C
Sensor: Nr:Datum:Temp:Feuchte:Taupunkt:
Aussen-T/F 1501 09-11-2010 08:10:02 6.1 C 83 % 3.44 C
1502 09-11-2010 08:22:02 6.2 C 83 % 3.53 C
1503 09-11-2010 08:34:02 6.5 C 82 % 3.66 C
1504 09-11-2010 08:46:01 6.5 C 80 % 3.31 C
1505 09-11-2010 08:58:01 6.8 C 80 % 3.6 C
1506 09-11-2010 09:10:02 7 C 78 % 3.43 C
1507 09-11-2010 09:22:02 7 C 78 % 3.43 C
1508 09-11-2010 09:34:02 6.7 C 80 % 3.5 C
1509 09-11-2010 09:46:02 6.5 C 80 % 3.31 C
1510 09-11-2010 09:58:02 7.3 C 80 % 4.09 C
1511 09-11-2010 10:10:01 7.1 C 78 % 3.53 C
1512 09-11-2010 10:22:02 6.6 C 81 % 3.58 C
1513 09-11-2010 10:34:01 7.6 C 82 % 4.73 C
1514 09-11-2010 10:46:02 9 C 71 % 4.03 C
1515 09-11-2010 10:58:02 9.2 C 69 % 3.82 C
1516 09-11-2010 11:10:01 9.1 C 68 % 3.52 C
1517 09-11-2010 11:22:02 9.4 C 69 % 4.01 C
1518 09-11-2010 11:34:01 9.2 C 69 % 3.82 C
1519 09-11-2010 11:46:03 8.7 C 74 % 4.33 C
1520 09-11-2010 11:58:03 9.4 C 73 % 4.81 C
1521 09-11-2010 12:10:02 9.2 C 72 % 4.42 C
1522 09-11-2010 12:22:02 9.8 C 70 % 4.6 C
1523 09-11-2010 12:34:02 9.6 C 69 % 4.2 C
1524 09-11-2010 12:46:02 9.4 C 71 % 4.42 C
1525 09-11-2010 12:58:02 9.6 C 71 % 4.61 C
Sensor: Nr:Datum:Temp:Feuchte:Taupunkt:
Aussen-T/F 1526 09-11-2010 13:10:01 9.9 C 69 % 4.49 C
1527 09-11-2010 13:22:02 10 C 67 % 4.16 C
1528 09-11-2010 13:34:02 9.2 C 70 % 4.02 C
1529 09-11-2010 13:46:02 9.7 C 73 % 5.1 C
1530 09-11-2010 13:58:02 9.5 C 73 % 4.91 C
1531 09-11-2010 14:10:03 9.1 C 75 % 4.91 C
1532 09-11-2010 14:22:02 9 C 76 % 5 C
1533 09-11-2010 14:34:02 8.8 C 79 % 5.36 C
1534 09-11-2010 14:46:01 8.7 C 80 % 5.45 C
1535 09-11-2010 14:58:01 8.7 C 82 % 5.8 C
1536 09-11-2010 15:10:02 8.6 C 82 % 5.71 C
1537 09-11-2010 15:22:01 8.5 C 82 % 5.61 C
1538 09-11-2010 15:34:01 8.4 C 83 % 5.69 C
1539 09-11-2010 15:46:01 8.4 C 84 % 5.86 C
1540 09-11-2010 15:58:01 8.2 C 85 % 5.83 C
1541 09-11-2010 16:10:02 8.1 C 86 % 5.9 C
1542 09-11-2010 16:22:01 8 C 86 % 5.81 C
1543 09-11-2010 16:34:02 7.9 C 88 % 6.04 C
1544 09-11-2010 16:46:02 7.8 C 88 % 5.94 C
1545 09-11-2010 16:58:02 7.8 C 89 % 6.1 C
1546 09-11-2010 17:10:02 7.7 C 89 % 6 C
1547 09-11-2010 17:22:02 7.5 C 89 % 5.81 C
1548 09-11-2010 17:34:02 7.2 C 89 % 5.51 C
1549 09-11-2010 17:46:02 7.1 C 89 % 5.41 C
1550 09-11-2010 17:58:02 7 C 90 % 5.48 C
Sensor: Nr:Datum:Temp:Feuchte:Taupunkt:
Aussen-T/F 1551 09-11-2010 18:10:03 6.8 C 90 % 5.28 C
1552 09-11-2010 18:22:02 6.7 C 90 % 5.18 C
1553 09-11-2010 18:34:02 6.3 C 90 % 4.78 C
1554 09-11-2010 18:46:01 6.4 C 91 % 5.04 C
1555 09-11-2010 18:58:01 7 C 90 % 5.48 C
1556 09-11-2010 19:10:02 7 C 91 % 5.63 C
1557 09-11-2010 19:22:01 7 C 91 % 5.63 C
1558 09-11-2010 19:34:01 6.7 C 91 % 5.34 C
1559 09-11-2010 19:46:01 6.9 C 92 % 5.69 C
1560 09-11-2010 19:58:01 6.7 C 92 % 5.49 C
1561 09-11-2010 20:10:02 6.7 C 92 % 5.49 C
1562 09-11-2010 20:22:01 6.7 C 92 % 5.49 C
1563 09-11-2010 20:34:01 6.7 C 92 % 5.49 C
1564 09-11-2010 20:46:01 6.9 C 92 % 5.69 C
1565 09-11-2010 20:58:01 6.9 C 92 % 5.69 C
1566 09-11-2010 21:10:02 6.9 C 92 % 5.69 C
1567 09-11-2010 21:22:01 6.9 C 92 % 5.69 C
1568 09-11-2010 21:34:01 6.9 C 92 % 5.69 C
1569 09-11-2010 21:46:01 6.8 C 92 % 5.59 C
1570 09-11-2010 21:58:01 6.7 C 92 % 5.49 C
1571 09-11-2010 22:10:02 6.7 C 92 % 5.49 C
1572 09-11-2010 22:23:03 6.7 C 92 % 5.49 C
1573 09-11-2010 22:35:03 6.7 C 92 % 5.49 C
1574 09-11-2010 22:47:03 6.9 C 92 % 5.69 C
1575 09-11-2010 22:59:03 6.9 C 92 % 5.69 C
Sensor: Nr:Datum:Temp:Feuchte:Taupunkt:
Aussen-T/F 1576 09-11-2010 23:11:03 6.9 C 92 % 5.69 C
1577 09-11-2010 23:23:03 6.9 C 92 % 5.69 C
1578 09-11-2010 23:35:03 6.9 C 92 % 5.69 C
1579 09-11-2010 23:47:03 6.8 C 92 % 5.59 C
1580 09-11-2010 23:59:03 6.7 C 92 % 5.49 C
1581 10-11-2010 00:11:03 6.6 C 92 % 5.4 C
1582 10-11-2010 00:23:03 6.4 C 92 % 5.2 C
1583 10-11-2010 00:35:03 6.3 C 92 % 5.1 C
1584 10-11-2010 00:47:03 6.7 C 92 % 5.49 C
1585 10-11-2010 00:59:03 6.8 C 92 % 5.59 C
1586 10-11-2010 01:11:03 6.9 C 92 % 5.69 C
1587 10-11-2010 01:23:03 6.9 C 93 % 5.85 C
1588 10-11-2010 01:35:03 7 C 92 % 5.79 C
1589 10-11-2010 01:47:04 6.9 C 93 % 5.85 C
1590 10-11-2010 01:59:04 6.9 C 93 % 5.85 C
1591 10-11-2010 02:11:04 6.9 C 93 % 5.85 C
1592 10-11-2010 02:23:04 6.9 C 93 % 5.85 C
1593 10-11-2010 02:35:04 6.8 C 93 % 5.75 C
1594 10-11-2010 02:47:04 6.9 C 93 % 5.85 C
1595 10-11-2010 02:59:04 7 C 92 % 5.79 C
1596 10-11-2010 03:11:04 7.1 C 92 % 5.89 C
1597 10-11-2010 03:23:04 7.1 C 92 % 5.89 C
1598 10-11-2010 03:35:04 7 C 92 % 5.79 C
1599 10-11-2010 03:47:04 7.2 C 92 % 5.99 C
1600 10-11-2010 03:59:04 7.1 C 92 % 5.89 C
Sensor: Nr:Datum:Temp:Feuchte:Taupunkt:
Aussen-T/F 1601 10-11-2010 04:11:04 7 C 92 % 5.79 C
1602 10-11-2010 04:23:04 7 C 92 % 5.79 C
1603 10-11-2010 04:35:04 6.8 C 93 % 5.75 C
1604 10-11-2010 04:47:04 6.8 C 93 % 5.75 C
1605 10-11-2010 04:59:04 6.8 C 93 % 5.75 C
1606 10-11-2010 05:11:04 6.8 C 93 % 5.75 C
1607 10-11-2010 05:23:04 6.7 C 93 % 5.65 C
1608 10-11-2010 05:35:04 6.9 C 93 % 5.85 C
1609 10-11-2010 05:47:05 7 C 92 % 5.79 C
1610 10-11-2010 05:59:05 7.1 C 92 % 5.89 C
1611 10-11-2010 06:11:05 7.1 C 92 % 5.89 C
1612 10-11-2010 06:23:05 7 C 92 % 5.79 C
1613 10-11-2010 06:35:05 6.9 C 93 % 5.85 C
1614 10-11-2010 06:47:05 6.8 C 93 % 5.75 C
1615 10-11-2010 06:59:05 6.3 C 93 % 5.25 C
1616 10-11-2010 07:11:05 6.1 C 93 % 5.06 C
1617 10-11-2010 07:23:05 6.1 C 93 % 5.06 C
1618 10-11-2010 07:35:05 6.7 C 92 % 5.49 C
1619 10-11-2010 07:47:03 6.3 C 92 % 5.1 C
1620 10-11-2010 07:59:03 6.5 C 93 % 5.45 C
1621 10-11-2010 08:11:02 6.6 C 93 % 5.55 C
1622 10-11-2010 08:23:03 6.6 C 93 % 5.55 C
1623 10-11-2010 08:35:02 6.7 C 93 % 5.65 C
1624 10-11-2010 08:47:02 6.7 C 92 % 5.49 C
1625 10-11-2010 08:59:02 7 C 92 % 5.79 C
Sensor: Nr:Datum:Temp:Feuchte:Taupunkt:
Aussen-T/F 1626 10-11-2010 09:11:02 7.3 C 92 % 6.09 C
1627 10-11-2010 09:23:02 8.2 C 91 % 6.82 C
1628 10-11-2010 09:35:03 8.3 C 91 % 6.92 C
1629 10-11-2010 09:47:02 8.6 C 90 % 7.06 C
1630 10-11-2010 09:59:03 8.7 C 87 % 6.66 C
1631 10-11-2010 10:11:01 9 C 83 % 6.27 C
1632 10-11-2010 10:23:02 9.5 C 79 % 6.05 C
1633 10-11-2010 10:35:02 9.6 C 76 % 5.58 C
1634 10-11-2010 10:47:02 9.8 C 71 % 4.8 C
1635 10-11-2010 10:59:02 10.1 C 69 % 4.68 C
1636 10-11-2010 11:11:03 9.6 C 70 % 4.41 C
1637 10-11-2010 11:23:02 9.6 C 71 % 4.61 C
1638 10-11-2010 11:35:02 9.5 C 71 % 4.51 C
1639 10-11-2010 11:47:01 9.6 C 71 % 4.61 C
1640 10-11-2010 11:59:01 9.9 C 70 % 4.69 C
1641 10-11-2010 12:11:02 9.8 C 70 % 4.6 C
1642 10-11-2010 12:23:01 10.1 C 68 % 4.47 C
1643 10-11-2010 12:35:01 9.8 C 70 % 4.6 C
1644 10-11-2010 12:47:01 10.4 C 68 % 4.76 C
1645 10-11-2010 12:59:01 10.8 C 65 % 4.49 C
1646 10-11-2010 13:11:02 10.9 C 65 % 4.59 C
1647 10-11-2010 13:23:01 11.2 C 61 % 3.97 C
1648 10-11-2010 13:35:01 11.2 C 61 % 3.97 C
1649 10-11-2010 13:47:01 11.2 C 59 % 3.5 C
1650 10-11-2010 13:59:01 10.9 C 60 % 3.45 C
Sensor: Nr:Datum:Temp:Feuchte:Taupunkt:
Aussen-T/F 1651 10-11-2010 14:11:01 10.5 C 61 % 3.31 C
1652 10-11-2010 14:23:02 10.5 C 62 % 3.54 C
1653 10-11-2010 14:35:01 10.5 C 62 % 3.54 C
1654 10-11-2010 14:47:02 10.6 C 62 % 3.63 C
1655 10-11-2010 14:59:02 10.5 C 63 % 3.77 C
1656 10-11-2010 15:11:01 10.2 C 66 % 4.14 C
1657 10-11-2010 15:23:02 7.9 C 77 % 4.12 C
1658 10-11-2010 15:35:01 7.4 C 81 % 4.36 C
1659 10-11-2010 15:47:02 7.1 C 83 % 4.41 C
1660 10-11-2010 15:59:02 6.7 C 84 % 4.19 C
1661 10-11-2010 16:11:02 6.5 C 83 % 3.83 C
1662 10-11-2010 16:23:02 6.1 C 84 % 3.61 C
1663 10-11-2010 16:35:02 6.3 C 84 % 3.8 C
1664 10-11-2010 16:47:02 6.1 C 84 % 3.61 C
1665 10-11-2010 16:59:02 6.2 C 84 % 3.7 C
1666 10-11-2010 17:11:02 6.3 C 81 % 3.29 C
1667 10-11-2010 17:23:02 6.1 C 79 % 2.74 C
1668 10-11-2010 17:35:01 5.9 C 81 % 2.9 C
1669 10-11-2010 17:47:02 5.7 C 80 % 2.53 C
1670 10-11-2010 17:59:02 5.7 C 81 % 2.7 C
1671 10-11-2010 18:11:01 5.4 C 80 % 2.23 C
1672 10-11-2010 18:23:02 5.3 C 82 % 2.48 C
1673 10-11-2010 18:35:01 5.2 C 82 % 2.39 C
1674 10-11-2010 18:47:02 5.2 C 83 % 2.56 C
1675 10-11-2010 18:59:03 5 C 84 % 2.53 C
Sensor: Nr:Datum:Temp:Feuchte:Taupunkt:
Aussen-T/F 1676 10-11-2010 19:11:02 5.1 C 83 % 2.46 C
1677 10-11-2010 19:23:02 5 C 83 % 2.36 C
1678 10-11-2010 19:35:02 5.3 C 82 % 2.48 C
1679 10-11-2010 19:47:01 5.3 C 81 % 2.31 C
1680 10-11-2010 19:59:01 5.3 C 80 % 2.14 C
1681 10-11-2010 20:11:02 5.2 C 80 % 2.04 C
1682 10-11-2010 20:23:01 5.4 C 79 % 2.06 C
1683 10-11-2010 20:35:02 5.5 C 78 % 1.98 C
1684 10-11-2010 20:47:02 5.3 C 80 % 2.14 C
1685 10-11-2010 20:59:02 5.3 C 79 % 1.96 C
1686 10-11-2010 21:11:02 5 C 81 % 2.02 C
1687 10-11-2010 21:23:02 4.8 C 84 % 2.33 C
1688 10-11-2010 21:35:02 4.6 C 85 % 2.3 C
1689 10-11-2010 21:47:02 4.1 C 85 % 1.81 C
1690 10-11-2010 21:59:02 3.8 C 86 % 1.68 C
1691 10-11-2010 22:11:02 4.1 C 86 % 1.97 C
1692 10-11-2010 22:24:03 4.3 C 86 % 2.17 C
1693 10-11-2010 22:36:04 4.9 C 85 % 2.6 C
1694 10-11-2010 22:48:04 4.9 C 82 % 2.09 C
1695 10-11-2010 23:00:04 4.5 C 81 % 1.53 C
1696 10-11-2010 23:12:04 4.5 C 82 % 1.7 C
1697 10-11-2010 23:24:04 4.2 C 83 % 1.58 C
1698 10-11-2010 23:36:04 4.1 C 83 % 1.48 C
1699 10-11-2010 23:48:04 4.2 C 83 % 1.58 C
1700 11-11-2010 00:00:04 4.5 C 82 % 1.7 C
Sensor: Nr:Datum:Temp:Feuchte:Taupunkt:
Aussen-T/F 1701 11-11-2010 00:12:04 4.8 C 79 % 1.47 C
1702 11-11-2010 00:24:04 4.8 C 78 % 1.3 C
1703 11-11-2010 00:36:04 4.5 C 79 % 1.18 C
1704 11-11-2010 00:48:04 4.4 C 82 % 1.6 C
1705 11-11-2010 01:00:04 4.4 C 83 % 1.77 C
1706 11-11-2010 01:12:04 4.5 C 83 % 1.87 C
1707 11-11-2010 01:24:04 4.5 C 83 % 1.87 C
1708 11-11-2010 01:36:04 4.6 C 83 % 1.97 C
1709 11-11-2010 01:48:04 4.5 C 82 % 1.7 C
1710 11-11-2010 02:00:04 5 C 81 % 2.02 C
1711 11-11-2010 02:12:04 5 C 80 % 1.84 C
1712 11-11-2010 02:24:04 4.9 C 80 % 1.75 C
1713 11-11-2010 02:36:04 5.1 C 79 % 1.77 C
1714 11-11-2010 02:48:04 5.1 C 78 % 1.59 C
1715 11-11-2010 03:00:05 5.2 C 77 % 1.51 C
1716 11-11-2010 03:12:05 5.2 C 77 % 1.51 C
1717 11-11-2010 03:24:05 5.2 C 76 % 1.32 C
1718 11-11-2010 03:36:05 4.4 C 78 % 0.91 C
1719 11-11-2010 03:48:05 4.2 C 81 % 1.24 C
1720 11-11-2010 04:00:05 4.6 C 80 % 1.46 C
1721 11-11-2010 04:12:05 4.1 C 80 % 0.97 C
1722 11-11-2010 04:24:05 4.2 C 81 % 1.24 C
1723 11-11-2010 04:36:05 4.5 C 81 % 1.53 C
1724 11-11-2010 04:48:05 4.1 C 82 % 1.31 C
1725 11-11-2010 05:00:05 3.8 C 83 % 1.19 C
Sensor: Nr:Datum:Temp:Feuchte:Taupunkt:
Aussen-T/F 1726 11-11-2010 05:12:05 4 C 83 % 1.38 C
1727 11-11-2010 05:24:05 3.7 C 82 % 0.92 C
1728 11-11-2010 05:36:05 4.6 C 79 % 1.28 C
1729 11-11-2010 05:48:05 4.5 C 79 % 1.18 C
1730 11-11-2010 06:00:05 4.2 C 78 % 0.71 C
1731 11-11-2010 06:12:05 3.5 C 80 % 0.38 C
1732 11-11-2010 06:24:05 3.6 C 82 % 0.82 C
1733 11-11-2010 06:36:05 3.7 C 81 % 0.75 C
1734 11-11-2010 06:48:05 3.5 C 81 % 0.55 C
1735 11-11-2010 07:00:05 3.1 C 81 % 0.16 C
1736 11-11-2010 07:12:05 3.1 C 82 % 0.33 C
1737 11-11-2010 07:24:03 3.6 C 82 % 0.82 C
1738 11-11-2010 07:36:03 4 C 80 % 0.87 C
1739 11-11-2010 07:48:01 4 C 78 % 0.52 C
1740 11-11-2010 08:00:01 3.3 C 78 % -0.16 C
1741 11-11-2010 08:12:02 2.5 C 82 % -0.25 C
1742 11-11-2010 08:24:01 2 C 83 % -0.58 C
1743 11-11-2010 08:36:02 2.1 C 85 % -0.15 C
1744 11-11-2010 08:48:02 1.7 C 87 % -0.23 C
1745 11-11-2010 09:00:02 2.2 C 87 % 0.27 C
1746 11-11-2010 09:12:02 3.1 C 88 % 1.31 C
1747 11-11-2010 09:24:02 4 C 87 % 2.04 C
1748 11-11-2010 09:36:02 4.5 C 84 % 2.04 C
1749 11-11-2010 09:48:02 4.5 C 79 % 1.18 C
1750 11-11-2010 10:00:02 4.7 C 74 % 0.47 C
Sensor: Nr:Datum:Temp:Feuchte:Taupunkt:
Aussen-T/F 1751 11-11-2010 10:12:02 5 C 70 % 0 C
1752 11-11-2010 10:24:02 5.5 C 66 % -0.33 C
1753 11-11-2010 10:36:02 6.2 C 60 % -0.97 C
1754 11-11-2010 10:48:02 6.5 C 55 % -1.87 C
1755 11-11-2010 11:00:02 6.7 C 51 % -2.71 C
1756 11-11-2010 11:12:02 6.9 C 50 % -2.79 C
1757 11-11-2010 11:24:02 7 C 48 % -3.24 C
1758 11-11-2010 11:36:02 7.1 C 48 % -3.15 C
1759 11-11-2010 11:48:03 7 C 48 % -3.24 C
1760 11-11-2010 12:00:03 7.2 C 50 % -2.51 C
1761 11-11-2010 12:12:03 7.2 C 49 % -2.78 C
1762 11-11-2010 12:24:03 7.4 C 50 % -2.33 C
1763 11-11-2010 12:36:04 7.6 C 50 % -2.14 C
1764 11-11-2010 12:48:04 7.9 C 50 % -1.86 C
1765 11-11-2010 13:00:04 7.9 C 50 % -1.86 C
1766 11-11-2010 13:12:04 7.7 C 51 % -1.78 C
1767 11-11-2010 13:24:04 7.7 C 52 % -1.52 C
1768 11-11-2010 13:36:04 7.6 C 51 % -1.87 C
1769 11-11-2010 13:48:04 7.6 C 52 % -1.61 C
1770 11-11-2010 14:00:04 7.4 C 53 % -1.54 C
1771 11-11-2010 14:12:04 7.4 C 54 % -1.28 C
1772 11-11-2010 14:24:04 7.3 C 54 % -1.38 C
1773 11-11-2010 14:36:04 7.3 C 53 % -1.63 C
1774 11-11-2010 14:48:04 7.4 C 53 % -1.54 C
1775 11-11-2010 15:00:04 7.3 C 54 % -1.38 C
Sensor: Nr:Datum:Temp:Feuchte:Taupunkt:
Aussen-T/F 1776 11-11-2010 15:12:04 7.3 C 55 % -1.13 C
1777 11-11-2010 15:24:04 7 C 56 % -1.16 C
1778 11-11-2010 15:36:04 6.4 C 60 % -0.78 C
1779 11-11-2010 15:48:04 6 C 66 % 0.14 C
1780 11-11-2010 16:00:04 5.7 C 69 % 0.47 C
1781 11-11-2010 16:12:04 5.7 C 71 % 0.86 C
1782 11-11-2010 16:24:04 5.6 C 72 % 0.96 C
1783 11-11-2010 16:36:04 5.3 C 73 % 0.86 C
1784 11-11-2010 16:48:04 5.4 C 76 % 1.52 C
1785 11-11-2010 17:00:05 5 C 78 % 1.49 C
1786 11-11-2010 17:12:05 5 C 80 % 1.84 C
1787 11-11-2010 17:24:05 5.4 C 79 % 2.06 C
1788 11-11-2010 17:36:05 5.6 C 79 % 2.25 C
1789 11-11-2010 17:48:05 5.4 C 80 % 2.23 C
1790 11-11-2010 18:00:05 5.5 C 81 % 2.51 C
1791 11-11-2010 18:12:05 5.5 C 82 % 2.68 C
1792 11-11-2010 18:24:05 5.6 C 83 % 2.95 C
1793 11-11-2010 18:36:05 5.7 C 84 % 3.21 C
1794 11-11-2010 18:48:01 5.9 C 84 % 3.41 C
1795 11-11-2010 19:00:01 5.9 C 85 % 3.58 C
1796 11-11-2010 19:12:02 5.9 C 86 % 3.74 C
1797 11-11-2010 19:24:02 6.2 C 86 % 4.04 C
1798 11-11-2010 19:36:01 6.5 C 85 % 4.17 C
1799 11-11-2010 19:48:02 6.6 C 84 % 4.1 C
1800 11-11-2010 20:00:02 7 C 82 % 4.14 C
Sensor: Nr:Datum:Temp:Feuchte:Taupunkt:
Aussen-T/F 1801 11-11-2010 20:12:01 7.2 C 80 % 3.99 C
1802 11-11-2010 20:24:02 7.6 C 79 % 4.2 C
1803 11-11-2010 20:36:01 7.7 C 79 % 4.3 C
1804 11-11-2010 20:48:03 8 C 76 % 4.04 C
1805 11-11-2010 21:00:03 7.9 C 78 % 4.31 C
1806 11-11-2010 21:12:02 8.4 C 76 % 4.42 C
1807 11-11-2010 21:24:02 8.5 C 77 % 4.71 C
1808 11-11-2010 21:36:02 8.7 C 77 % 4.9 C
1809 11-11-2010 21:48:02 8.7 C 78 % 5.08 C
1810 11-11-2010 22:00:02 8.5 C 80 % 5.25 C
1811 11-11-2010 22:12:02 8.7 C 82 % 5.8 C
1812 11-11-2010 22:24:02 9 C 83 % 6.27 C
1813 11-11-2010 22:36:01 10.2 C 79 % 6.73 C
1814 11-11-2010 22:48:02 10.3 C 77 % 6.45 C
1815 11-11-2010 23:00:02 10 C 79 % 6.53 C
1816 11-11-2010 23:12:01 9.9 C 83 % 7.15 C
1817 11-11-2010 23:24:02 9.7 C 84 % 7.13 C
1818 11-11-2010 23:36:01 9.6 C 85 % 7.21 C
1819 11-11-2010 23:48:02 9.7 C 84 % 7.13 C
1820 12-11-2010 00:00:02 10 C 80 % 6.71 C
1821 12-11-2010 00:12:02 9.7 C 76 % 5.68 C
1822 12-11-2010 00:24:02 9.6 C 74 % 5.2 C
1823 12-11-2010 00:36:02 10 C 68 % 4.38 C
1824 12-11-2010 00:48:01 9.4 C 71 % 4.42 C
1825 12-11-2010 01:00:01 9.5 C 70 % 4.31 C
Sensor: Nr:Datum:Temp:Feuchte:Taupunkt:
Aussen-T/F 1826 12-11-2010 01:12:02 9.3 C 68 % 3.71 C
1827 12-11-2010 01:24:01 10 C 64 % 3.51 C
1828 12-11-2010 01:36:02 10.2 C 60 % 2.79 C
1829 12-11-2010 01:48:01 10.2 C 57 % 2.07 C
1830 12-11-2010 02:00:01 9.7 C 59 % 2.09 C
1831 12-11-2010 02:12:02 9.4 C 62 % 2.5 C
1832 12-11-2010 02:24:01 10.2 C 60 % 2.79 C
1833 12-11-2010 02:36:02 10.2 C 61 % 3.03 C
1834 12-11-2010 02:49:03 9.9 C 60 % 2.51 C
1835 12-11-2010 03:01:03 9.6 C 63 % 2.91 C
1836 12-11-2010 03:13:04 9.6 C 64 % 3.14 C
1837 12-11-2010 03:25:04 9.3 C 64 % 2.85 C
1838 12-11-2010 03:37:02 9.6 C 64 % 3.14 C
1839 12-11-2010 03:49:02 9.9 C 62 % 2.97 C
1840 12-11-2010 04:01:02 9.9 C 61 % 2.74 C
1841 12-11-2010 04:13:02 10.1 C 58 % 2.22 C
1842 12-11-2010 04:25:01 9.8 C 60 % 2.42 C
1843 12-11-2010 04:37:02 9.5 C 61 % 2.37 C
1844 12-11-2010 04:49:02 9.7 C 62 % 2.78 C
1845 12-11-2010 05:01:02 9.9 C 62 % 2.97 C
1846 12-11-2010 05:13:02 9.5 C 63 % 2.82 C
1847 12-11-2010 05:25:02 9.8 C 63 % 3.1 C
1848 12-11-2010 05:37:02 10.2 C 60 % 2.79 C
1849 12-11-2010 05:49:01 10.3 C 60 % 2.89 C
1850 12-11-2010 06:01:02 10.6 C 58 % 2.69 C
Sensor: Nr:Datum:Temp:Feuchte:Taupunkt:
Aussen-T/F 1851 12-11-2010 06:13:02 10.7 C 58 % 2.79 C
1852 12-11-2010 06:25:02 10.6 C 59 % 2.93 C
1853 12-11-2010 06:37:01 10.6 C 60 % 3.17 C
1854 12-11-2010 06:49:02 10.6 C 60 % 3.17 C
1855 12-11-2010 07:01:01 10.7 C 60 % 3.26 C
1856 12-11-2010 07:13:01 10.5 C 60 % 3.08 C
1857 12-11-2010 07:25:02 10.7 C 59 % 3.03 C
1858 12-11-2010 07:37:01 10.5 C 59 % 2.84 C
1859 12-11-2010 07:49:02 10.7 C 59 % 3.03 C
1860 12-11-2010 08:01:01 10.7 C 59 % 3.03 C
1861 12-11-2010 08:13:01 10.6 C 60 % 3.17 C
1862 12-11-2010 08:25:02 10.8 C 59 % 3.12 C
1863 12-11-2010 08:37:02 10.7 C 59 % 3.03 C
1864 12-11-2010 08:49:01 10.7 C 59 % 3.03 C
1865 12-11-2010 09:01:02 10.7 C 59 % 3.03 C
1866 12-11-2010 09:13:02 11 C 58 % 3.07 C
1867 12-11-2010 09:25:01 10.8 C 59 % 3.12 C
1868 12-11-2010 09:37:01 10.8 C 60 % 3.36 C
1869 12-11-2010 09:49:01 10.9 C 59 % 3.21 C
1870 12-11-2010 10:01:02 10.1 C 64 % 3.61 C
1871 12-11-2010 10:13:02 10.5 C 63 % 3.77 C
1872 12-11-2010 10:25:01 10.8 C 63 % 4.05 C
1873 12-11-2010 10:37:01 11 C 61 % 3.78 C
1874 12-11-2010 10:49:01 11.1 C 60 % 3.64 C
1875 12-11-2010 11:01:02 11.2 C 60 % 3.73 C
Sensor: Nr:Datum:Temp:Feuchte:Taupunkt:
Aussen-T/F 1876 12-11-2010 11:13:02 11.1 C 61 % 3.87 C
1877 12-11-2010 11:25:01 11.4 C 60 % 3.92 C
1878 12-11-2010 11:37:01 11.6 C 58 % 3.63 C
1879 12-11-2010 11:49:01 11.8 C 57 % 3.57 C
1880 12-11-2010 12:01:01 11.9 C 56 % 3.41 C
1881 12-11-2010 12:13:01 12.1 C 54 % 3.09 C
1882 12-11-2010 12:25:02 12.1 C 54 % 3.09 C
1883 12-11-2010 12:37:01 11.7 C 56 % 3.23 C
1884 12-11-2010 12:49:02 11.6 C 63 % 4.81 C
1885 12-11-2010 13:01:02 11.7 C 60 % 4.2 C
1886 12-11-2010 13:13:02 12 C 58 % 4 C
1887 12-11-2010 13:25:02 11.8 C 58 % 3.82 C
1888 12-11-2010 13:37:01 11.4 C 62 % 4.39 C
1889 12-11-2010 13:49:02 11.3 C 64 % 4.75 C
1890 12-11-2010 14:01:01 11.7 C 62 % 4.67 C
1891 12-11-2010 14:13:01 11.6 C 63 % 4.81 C
1892 12-11-2010 14:25:02 11.6 C 63 % 4.81 C
1893 12-11-2010 14:37:02 11.6 C 63 % 4.81 C
1894 12-11-2010 14:49:02 11.5 C 64 % 4.94 C
1895 12-11-2010 15:01:02 11.5 C 64 % 4.94 C
1896 12-11-2010 15:13:02 11.5 C 64 % 4.94 C
1897 12-11-2010 15:25:02 11.5 C 63 % 4.71 C
1898 12-11-2010 15:37:02 11.8 C 62 % 4.77 C
1899 12-11-2010 15:49:01 11.7 C 63 % 4.9 C
1900 12-11-2010 16:01:02 11.7 C 63 % 4.9 C
Sensor: Nr:Datum:Temp:Feuchte:Taupunkt:
Aussen-T/F 1901 12-11-2010 16:13:02 11.5 C 63 % 4.71 C
1902 12-11-2010 16:25:01 11.5 C 66 % 5.38 C
1903 12-11-2010 16:37:02 11.7 C 66 % 5.57 C
1904 12-11-2010 16:49:02 11.3 C 67 % 5.4 C
1905 12-11-2010 17:01:02 11.1 C 69 % 5.64 C
1906 12-11-2010 17:13:03 11 C 71 % 5.95 C
1907 12-11-2010 17:25:01 11.3 C 72 % 6.44 C
1908 12-11-2010 17:37:02 11.2 C 72 % 6.35 C
1909 12-11-2010 17:49:01 11.2 C 72 % 6.35 C
1910 12-11-2010 18:01:02 10.8 C 75 % 6.55 C
1911 12-11-2010 18:13:02 10.6 C 78 % 6.93 C
1912 12-11-2010 18:25:02 10.5 C 81 % 7.38 C
1913 12-11-2010 18:37:02 10.3 C 82 % 7.37 C
1914 12-11-2010 18:49:02 10.2 C 83 % 7.45 C
1915 12-11-2010 19:01:02 10.5 C 84 % 7.91 C
1916 12-11-2010 19:13:02 10.2 C 85 % 7.79 C
1917 12-11-2010 19:25:02 10.3 C 86 % 8.06 C
1918 12-11-2010 19:37:01 10.6 C 86 % 8.36 C
1919 12-11-2010 19:49:02 11 C 86 % 8.75 C
1920 12-11-2010 20:01:02 11.3 C 85 % 8.87 C
1921 12-11-2010 20:13:02 11.6 C 85 % 9.17 C
1922 12-11-2010 20:25:02 11.5 C 84 % 8.89 C
1923 12-11-2010 20:37:02 11.5 C 85 % 9.07 C
1924 12-11-2010 20:49:01 11.7 C 85 % 9.27 C
1925 12-11-2010 21:01:02 11.9 C 86 % 9.64 C
Sensor: Nr:Datum:Temp:Feuchte:Taupunkt:
Aussen-T/F 1926 12-11-2010 21:13:02 11.8 C 86 % 9.54 C
1927 12-11-2010 21:25:02 11.8 C 87 % 9.71 C
1928 12-11-2010 21:37:02 12.5 C 86 % 10.22 C
1929 12-11-2010 21:49:02 12.8 C 86 % 10.52 C
1930 12-11-2010 22:01:02 12.8 C 84 % 10.17 C
1931 12-11-2010 22:13:02 13.2 C 82 % 10.2 C
1932 12-11-2010 22:25:02 13.4 C 80 % 10.02 C
1933 12-11-2010 22:37:02 13.4 C 77 % 9.45 C
1934 12-11-2010 22:49:02 13.7 C 76 % 9.55 C
1935 12-11-2010 23:01:02 13.7 C 74 % 9.15 C
1936 12-11-2010 23:13:02 13.8 C 74 % 9.25 C
1937 12-11-2010 23:25:02 13.8 C 73 % 9.05 C
1938 12-11-2010 23:37:02 14 C 71 % 8.83 C
1939 12-11-2010 23:49:02 14.1 C 71 % 8.93 C
1940 13-11-2010 00:01:02 14 C 72 % 9.04 C
1941 13-11-2010 00:13:02 13.9 C 73 % 9.15 C
1942 13-11-2010 00:25:02 13.8 C 75 % 9.45 C
1943 13-11-2010 00:37:03 13.6 C 76 % 9.45 C
1944 13-11-2010 00:49:02 13.8 C 75 % 9.45 C
1945 13-11-2010 01:01:02 13.8 C 76 % 9.65 C
1946 13-11-2010 01:13:02 13.8 C 77 % 9.84 C
1947 13-11-2010 01:25:02 14 C 75 % 9.64 C
1948 13-11-2010 01:37:02 14 C 74 % 9.44 C
1949 13-11-2010 01:49:02 13.7 C 77 % 9.75 C
1950 13-11-2010 02:01:02 13.8 C 78 % 10.03 C
Sensor: Nr:Datum:Temp:Feuchte:Taupunkt:
Aussen-T/F 1951 13-11-2010 02:13:02 13.6 C 78 % 9.84 C
1952 13-11-2010 02:25:02 14 C 77 % 10.04 C
1953 13-11-2010 02:37:02 13.9 C 78 % 10.13 C
1954 13-11-2010 02:49:01 13.6 C 79 % 10.03 C
1955 13-11-2010 03:01:01 13.9 C 79 % 10.32 C
1956 13-11-2010 03:13:01 14 C 78 % 10.23 C
1957 13-11-2010 03:25:02 14.2 C 76 % 10.03 C
1958 13-11-2010 03:37:01 14.5 C 74 % 9.93 C
1959 13-11-2010 03:49:01 14.4 C 75 % 10.03 C
1960 13-11-2010 04:01:02 14.3 C 75 % 9.93 C
1961 13-11-2010 04:13:02 14.3 C 75 % 9.93 C
1962 13-11-2010 04:25:01 13.9 C 77 % 9.94 C
1963 13-11-2010 04:37:01 13.9 C 78 % 10.13 C
1964 13-11-2010 04:49:01 14.3 C 75 % 9.93 C
1965 13-11-2010 05:01:01 14.5 C 74 % 9.93 C
1966 13-11-2010 05:13:01 14.4 C 74 % 9.83 C
1967 13-11-2010 05:25:01 14.4 C 73 % 9.63 C
1968 13-11-2010 05:37:01 14.6 C 73 % 9.82 C
1969 13-11-2010 05:49:01 14.6 C 72 % 9.61 C
1970 13-11-2010 06:01:01 14.5 C 72 % 9.52 C
1971 13-11-2010 06:13:01 14.7 C 72 % 9.71 C
1972 13-11-2010 06:25:02 14.6 C 73 % 9.82 C
1973 13-11-2010 06:37:01 14.7 C 72 % 9.71 C
1974 13-11-2010 06:49:02 14.6 C 72 % 9.61 C
1975 13-11-2010 07:01:01 14.7 C 72 % 9.71 C
Sensor: Nr:Datum:Temp:Feuchte:Taupunkt:
Aussen-T/F 1976 13-11-2010 07:13:01 14.8 C 71 % 9.6 C
1977 13-11-2010 07:25:01 14.7 C 71 % 9.5 C
1978 13-11-2010 07:37:01 14.7 C 71 % 9.5 C
1979 13-11-2010 07:49:01 14.7 C 72 % 9.71 C
1980 13-11-2010 08:01:01 14.6 C 72 % 9.61 C
1981 13-11-2010 08:13:01 14.7 C 72 % 9.71 C
1982 13-11-2010 08:25:01 14.9 C 70 % 9.48 C
1983 13-11-2010 08:37:02 14.7 C 71 % 9.5 C
1984 13-11-2010 08:49:01 14.7 C 72 % 9.71 C
1985 13-11-2010 09:01:02 14.2 C 74 % 9.64 C
1986 13-11-2010 09:13:02 14.1 C 76 % 9.94 C
1987 13-11-2010 09:25:01 14.2 C 75 % 9.84 C
1988 13-11-2010 09:37:01 14.2 C 75 % 9.84 C
1989 13-11-2010 09:49:01 14.2 C 75 % 9.84 C
1990 13-11-2010 10:01:02 14 C 75 % 9.64 C
1991 13-11-2010 10:13:02 14 C 77 % 10.04 C
1992 13-11-2010 10:25:01 14.2 C 76 % 10.03 C
1993 13-11-2010 10:37:01 14.6 C 74 % 10.02 C
1994 13-11-2010 10:49:01 14.8 C 73 % 10.01 C
1995 13-11-2010 11:01:01 14.7 C 72 % 9.71 C
1996 13-11-2010 11:13:01 14.8 C 72 % 9.81 C
1997 13-11-2010 11:25:02 14.6 C 72 % 9.61 C
1998 13-11-2010 11:37:01 14.7 C 72 % 9.71 C
1999 13-11-2010 11:49:02 15 C 68 % 9.15 C
2000 13-11-2010 12:01:01 15.2 C 67 % 9.12 C
Sensor: Nr:Datum:Temp:Feuchte:Taupunkt:
Aussen-T/F 2001 13-11-2010 12:13:01 14.8 C 69 % 9.17 C
2002 13-11-2010 12:25:02 14.6 C 71 % 9.41 C
2003 13-11-2010 12:37:01 14.7 C 71 % 9.5 C
2004 13-11-2010 12:49:02 14.7 C 71 % 9.5 C
2005 13-11-2010 13:01:01 14.5 C 72 % 9.52 C
2006 13-11-2010 13:13:01 14.8 C 70 % 9.39 C
2007 13-11-2010 13:25:01 15.1 C 68 % 9.24 C
2008 13-11-2010 13:37:02 14.9 C 69 % 9.27 C
2009 13-11-2010 13:49:01 14.5 C 71 % 9.31 C
2010 13-11-2010 14:01:02 14.7 C 70 % 9.29 C
2011 13-11-2010 14:13:02 14.8 C 68 % 8.96 C
2012 13-11-2010 14:25:01 14.9 C 68 % 9.05 C
2013 13-11-2010 14:37:02 14.8 C 68 % 8.96 C
2014 13-11-2010 14:49:01 14.7 C 69 % 9.08 C
2015 13-11-2010 15:01:02 14.8 C 68 % 8.96 C
2016 13-11-2010 15:13:02 14.7 C 68 % 8.86 C
2017 13-11-2010 15:25:01 14.7 C 68 % 8.86 C
2018 13-11-2010 15:37:02 15 C 66 % 8.71 C
2019 13-11-2010 15:49:01 14.9 C 67 % 8.83 C
2020 13-11-2010 16:01:01 14.7 C 68 % 8.86 C
2021 13-11-2010 16:13:01 14.6 C 70 % 9.2 C
2022 13-11-2010 16:25:02 14.7 C 69 % 9.08 C
2023 13-11-2010 16:37:01 14.7 C 69 % 9.08 C
2024 13-11-2010 16:49:02 14.7 C 69 % 9.08 C
2025 13-11-2010 17:01:01 14.6 C 69 % 8.98 C
Sensor: Nr:Datum:Temp:Feuchte:Taupunkt:
Aussen-T/F 2026 13-11-2010 17:13:01 14.3 C 71 % 9.12 C
2027 13-11-2010 17:25:01 14 C 73 % 9.24 C
2028 13-11-2010 17:37:01 14 C 73 % 9.24 C
2029 13-11-2010 17:49:01 14.4 C 71 % 9.21 C
2030 13-11-2010 18:01:01 14.7 C 70 % 9.29 C
2031 13-11-2010 18:13:01 14.5 C 70 % 9.1 C
2032 13-11-2010 18:25:01 14.5 C 70 % 9.1 C
2033 13-11-2010 18:37:02 14.7 C 69 % 9.08 C
2034 13-11-2010 18:49:01 15 C 67 % 8.93 C
2035 13-11-2010 19:01:02 14.7 C 68 % 8.86 C
2036 13-11-2010 19:13:02 14.8 C 68 % 8.96 C
2037 13-11-2010 19:25:01 14.9 C 67 % 8.83 C
2038 13-11-2010 19:37:02 15.1 C 66 % 8.8 C
2039 13-11-2010 19:49:01 15.2 C 64 % 8.44 C
2040 13-11-2010 20:01:02 15.3 C 63 % 8.31 C
2041 13-11-2010 20:13:02 15.2 C 63 % 8.21 C
2042 13-11-2010 20:25:01 15.1 C 64 % 8.35 C
2043 13-11-2010 20:37:02 14.8 C 66 % 8.52 C
2044 13-11-2010 20:49:01 14.6 C 67 % 8.55 C
2045 13-11-2010 21:01:02 14.4 C 69 % 8.79 C
2046 13-11-2010 21:13:02 14.3 C 68 % 8.48 C
2047 13-11-2010 21:25:01 14.5 C 68 % 8.67 C
2048 13-11-2010 21:37:01 14.5 C 67 % 8.45 C
2049 13-11-2010 21:49:01 14.9 C 65 % 8.39 C
2050 13-11-2010 22:01:02 14.8 C 65 % 8.29 C
Sensor: Nr:Datum:Temp:Feuchte:Taupunkt:
Aussen-T/F 2051 13-11-2010 22:13:02 14.8 C 65 % 8.29 C
2052 13-11-2010 22:25:01 15.1 C 62 % 7.88 C
2053 13-11-2010 22:37:02 14.8 C 64 % 8.06 C
2054 13-11-2010 22:49:01 14.8 C 63 % 7.83 C
2055 13-11-2010 23:02:07 14.7 C 64 % 7.97 C
2056 13-11-2010 23:14:07 15.2 C 61 % 7.74 C
2057 13-11-2010 23:26:07 14.8 C 64 % 8.06 C
2058 13-11-2010 23:38:07 14.6 C 64 % 7.87 C
2059 13-11-2010 23:50:07 14.4 C 66 % 8.14 C
2060 14-11-2010 00:02:07 14.9 C 63 % 7.93 C
2061 14-11-2010 00:14:07 15.6 C 61 % 8.11 C
2062 14-11-2010 00:26:07 15.2 C 61 % 7.74 C
2063 14-11-2010 00:38:07 14.9 C 64 % 8.16 C
2064 14-11-2010 00:50:07 14.8 C 64 % 8.06 C
2065 14-11-2010 01:02:07 15.2 C 61 % 7.74 C
2066 14-11-2010 01:14:07 15.2 C 62 % 7.98 C
2067 14-11-2010 01:26:07 14.2 C 67 % 8.17 C
2068 14-11-2010 01:38:08 13.4 C 73 % 8.66 C
2069 14-11-2010 01:50:08 13.2 C 75 % 8.87 C
2070 14-11-2010 02:02:08 13.2 C 77 % 9.26 C
2071 14-11-2010 02:14:08 13.2 C 76 % 9.07 C
2072 14-11-2010 02:26:08 13.7 C 74 % 9.15 C
2073 14-11-2010 02:38:08 13.9 C 72 % 8.94 C
2074 14-11-2010 02:50:08 13.9 C 71 % 8.73 C
2075 14-11-2010 03:02:08 14.7 C 67 % 8.64 C
Sensor: Nr:Datum:Temp:Feuchte:Taupunkt:
Aussen-T/F 2076 14-11-2010 03:14:08 14.5 C 67 % 8.45 C
2077 14-11-2010 03:26:08 14.4 C 68 % 8.58 C
2078 14-11-2010 03:38:08 14.2 C 68 % 8.39 C
2079 14-11-2010 03:50:08 14 C 70 % 8.62 C
2080 14-11-2010 04:02:08 14 C 70 % 8.62 C
2081 14-11-2010 04:14:08 14 C 70 % 8.62 C
2082 14-11-2010 04:26:08 14.1 C 69 % 8.5 C
2083 14-11-2010 04:38:08 14.1 C 68 % 8.29 C
2084 14-11-2010 04:50:08 13.9 C 70 % 8.53 C
2085 14-11-2010 05:02:08 14 C 71 % 8.83 C
2086 14-11-2010 05:14:08 13.8 C 71 % 8.64 C
2087 14-11-2010 05:26:08 14.1 C 70 % 8.72 C
2088 14-11-2010 05:38:08 14 C 69 % 8.41 C
2089 14-11-2010 05:50:08 13.6 C 72 % 8.65 C
2090 14-11-2010 06:02:09 13.7 C 72 % 8.75 C
2091 14-11-2010 06:14:09 13.8 C 70 % 8.43 C
2092 14-11-2010 06:26:09 13.6 C 70 % 8.24 C
2093 14-11-2010 06:38:09 13.2 C 72 % 8.27 C
2094 14-11-2010 06:50:09 12.8 C 75 % 8.48 C
2095 14-11-2010 07:02:09 12.4 C 74 % 7.9 C
2096 14-11-2010 07:14:09 11.9 C 77 % 8 C
2097 14-11-2010 07:26:09 11.5 C 78 % 7.8 C
2098 14-11-2010 07:38:09 11.6 C 76 % 7.52 C
2099 14-11-2010 07:50:09 12.2 C 72 % 7.31 C
2100 14-11-2010 08:02:09 11.9 C 72 % 7.02 C
Sensor: Nr:Datum:Temp:Feuchte:Taupunkt:
Aussen-T/F 2101 14-11-2010 08:14:09 11.9 C 71 % 6.82 C
2102 14-11-2010 08:26:09 12.7 C 68 % 6.95 C
2103 14-11-2010 08:38:06 13 C 66 % 6.8 C
2104 14-11-2010 08:50:02 13.8 C 62 % 6.65 C
2105 14-11-2010 09:02:02 14.1 C 60 % 6.46 C
2106 14-11-2010 09:14:02 14.3 C 59 % 6.41 C
2107 14-11-2010 09:26:02 14.7 C 57 % 6.28 C
2108 14-11-2010 09:38:02 14.3 C 59 % 6.41 C
2109 14-11-2010 09:50:02 14 C 60 % 6.37 C
2110 14-11-2010 10:02:02 13.8 C 63 % 6.89 C
2111 14-11-2010 10:14:02 14.5 C 59 % 6.59 C
2112 14-11-2010 10:26:02 15 C 55 % 6.04 C
2113 14-11-2010 10:38:02 15.9 C 52 % 6.07 C
2114 14-11-2010 10:50:02 15.9 C 52 % 6.07 C
2115 14-11-2010 11:02:02 15.9 C 53 % 6.34 C
2116 14-11-2010 11:14:03 15.5 C 53 % 5.97 C
2117 14-11-2010 11:26:02 15.2 C 56 % 6.49 C
2118 14-11-2010 11:38:02 15 C 57 % 6.56 C
2119 14-11-2010 11:50:02 15.6 C 55 % 6.6 C
2120 14-11-2010 12:02:02 15.9 C 55 % 6.88 C
2121 14-11-2010 12:14:02 15.8 C 55 % 6.79 C
2122 14-11-2010 12:26:03 16 C 53 % 6.44 C
2123 14-11-2010 12:38:02 16.4 C 53 % 6.81 C
2124 14-11-2010 12:50:03 16.7 C 53 % 7.08 C
2125 14-11-2010 13:02:02 16.7 C 53 % 7.08 C
Sensor: Nr:Datum:Temp:Feuchte:Taupunkt:
Aussen-T/F 2126 14-11-2010 13:14:02 17.5 C 49 % 6.68 C
2127 14-11-2010 13:26:02 17.8 C 49 % 6.95 C
2128 14-11-2010 13:38:02 17.6 C 50 % 7.06 C
2129 14-11-2010 13:50:02 17.7 C 49 % 6.86 C
2130 14-11-2010 14:02:01 17.5 C 48 % 6.38 C
2131 14-11-2010 14:14:01 17.5 C 50 % 6.97 C
2132 14-11-2010 14:26:02 17.6 C 48 % 6.47 C
2133 14-11-2010 14:38:03 17.8 C 47 % 6.35 C
2134 14-11-2010 14:50:03 17.8 C 48 % 6.65 C
2135 14-11-2010 15:02:03 18 C 45 % 5.9 C
2136 14-11-2010 15:14:03 18 C 46 % 6.22 C
2137 14-11-2010 15:26:02 17.6 C 48 % 6.47 C
2138 14-11-2010 15:38:03 17.6 C 48 % 6.47 C
2139 14-11-2010 15:50:02 17.3 C 49 % 6.5 C
2140 14-11-2010 16:02:02 17.2 C 48 % 6.11 C
2141 14-11-2010 16:14:02 16.6 C 51 % 6.43 C
2142 14-11-2010 16:26:02 15.7 C 55 % 6.69 C
2143 14-11-2010 16:38:02 15.1 C 59 % 7.16 C
2144 14-11-2010 16:50:02 14 C 72 % 9.04 C
2145 14-11-2010 17:02:02 13.8 C 74 % 9.25 C
2146 14-11-2010 17:14:02 15.3 C 65 % 8.77 C
2147 14-11-2010 17:26:02 15.5 C 59 % 7.53 C
2148 14-11-2010 17:38:02 14.7 C 61 % 7.27 C
2149 14-11-2010 17:50:02 14.4 C 63 % 7.45 C
2150 14-11-2010 18:02:02 14.1 C 64 % 7.4 C
Sensor: Nr:Datum:Temp:Feuchte:Taupunkt:
Aussen-T/F 2151 14-11-2010 18:14:03 14.1 C 65 % 7.63 C
2152 14-11-2010 18:26:02 13.9 C 68 % 8.1 C
2153 14-11-2010 18:38:02 14.3 C 67 % 8.26 C
2154 14-11-2010 18:50:02 14.4 C 65 % 7.91 C
2155 14-11-2010 19:02:03 14 C 66 % 7.76 C
2156 14-11-2010 19:14:03 13.7 C 68 % 7.91 C
2157 14-11-2010 19:26:02 14 C 66 % 7.76 C
2158 14-11-2010 19:38:02 14.3 C 63 % 7.36 C
2159 14-11-2010 19:50:01 13.8 C 65 % 7.34 C
2160 14-11-2010 20:02:02 13.8 C 66 % 7.57 C
2161 14-11-2010 20:14:02 13.5 C 68 % 7.72 C
2162 14-11-2010 20:26:01 14.5 C 62 % 7.32 C
2163 14-11-2010 20:38:02 14.2 C 61 % 6.8 C
2164 14-11-2010 20:50:02 14.1 C 61 % 6.7 C
2165 14-11-2010 21:02:02 14.2 C 61 % 6.8 C
2166 14-11-2010 21:14:03 14 C 61 % 6.61 C
2167 14-11-2010 21:26:01 13.7 C 62 % 6.56 C
2168 14-11-2010 21:38:02 13.8 C 60 % 6.18 C
2169 14-11-2010 21:50:01 13.9 C 59 % 6.03 C
2170 14-11-2010 22:02:02 14 C 58 % 5.88 C
2171 14-11-2010 22:14:02 13.7 C 60 % 6.09 C
2172 14-11-2010 22:26:02 13.8 C 60 % 6.18 C
2173 14-11-2010 22:39:05 13.7 C 60 % 6.09 C
2174 14-11-2010 22:51:05 13.7 C 60 % 6.09 C
2175 14-11-2010 23:03:05 13.7 C 60 % 6.09 C
Sensor: Nr:Datum:Temp:Feuchte:Taupunkt:
Aussen-T/F 2176 14-11-2010 23:15:05 13.5 C 59 % 5.65 C
2177 14-11-2010 23:27:05 13.5 C 59 % 5.65 C
2178 14-11-2010 23:39:05 13.1 C 60 % 5.52 C
2179 14-11-2010 23:51:05 13.3 C 60 % 5.71 C
2180 15-11-2010 00:03:05 13.1 C 61 % 5.76 C
2181 15-11-2010 00:15:05 13 C 61 % 5.66 C
2182 15-11-2010 00:27:06 12.6 C 63 % 5.75 C
2183 15-11-2010 00:39:06 13 C 62 % 5.9 C
2184 15-11-2010 00:51:06 12.7 C 63 % 5.85 C
2185 15-11-2010 01:03:06 12.7 C 62 % 5.62 C
2186 15-11-2010 01:15:06 12.5 C 62 % 5.43 C
2187 15-11-2010 01:27:06 12.1 C 63 % 5.28 C
2188 15-11-2010 01:39:06 11.9 C 66 % 5.76 C
2189 15-11-2010 01:51:06 11.9 C 67 % 5.98 C
2190 15-11-2010 02:03:06 11.8 C 67 % 5.88 C
2191 15-11-2010 02:15:06 12 C 64 % 5.41 C
2192 15-11-2010 02:27:06 11.9 C 64 % 5.32 C
2193 15-11-2010 02:39:06 11.7 C 66 % 5.57 C
2194 15-11-2010 02:51:06 11.5 C 68 % 5.81 C
2195 15-11-2010 03:03:06 11.3 C 68 % 5.62 C
2196 15-11-2010 03:15:06 11.1 C 69 % 5.64 C
2197 15-11-2010 03:27:06 10.8 C 71 % 5.76 C
2198 15-11-2010 03:39:06 10.7 C 72 % 5.87 C
2199 15-11-2010 03:51:06 10.6 C 73 % 5.97 C
2200 15-11-2010 04:03:06 10.5 C 72 % 5.67 C
Sensor: Nr:Datum:Temp:Feuchte:Taupunkt:
Aussen-T/F 2201 15-11-2010 04:15:06 10.3 C 73 % 5.68 C
2202 15-11-2010 04:27:06 10.2 C 73 % 5.58 C
2203 15-11-2010 04:39:07 10.2 C 73 % 5.58 C
2204 15-11-2010 04:51:07 10 C 73 % 5.39 C
2205 15-11-2010 05:03:07 10.2 C 68 % 4.57 C
2206 15-11-2010 05:15:07 10.2 C 69 % 4.78 C
2207 15-11-2010 05:27:07 9.8 C 71 % 4.8 C
2208 15-11-2010 05:39:07 9.6 C 72 % 4.81 C
2209 15-11-2010 05:51:07 9.8 C 69 % 4.39 C
2210 15-11-2010 06:03:07 9.6 C 70 % 4.41 C
2211 15-11-2010 06:15:07 9.5 C 68 % 3.9 C
2212 15-11-2010 06:27:07 9.4 C 68 % 3.8 C
2213 15-11-2010 06:39:07 9.1 C 70 % 3.93 C
2214 15-11-2010 06:51:07 9.1 C 72 % 4.33 C
2215 15-11-2010 07:03:07 9.1 C 72 % 4.33 C
2216 15-11-2010 07:15:03 8.9 C 74 % 4.53 C
2217 15-11-2010 07:27:03 8.6 C 74 % 4.24 C
2218 15-11-2010 07:39:03 8.9 C 76 % 4.91 C
2219 15-11-2010 07:51:01 9.3 C 69 % 3.91 C
2220 15-11-2010 08:03:02 9.5 C 68 % 3.9 C
2221 15-11-2010 08:15:02 9.2 C 69 % 3.82 C
2222 15-11-2010 08:27:02 9 C 71 % 4.03 C
2223 15-11-2010 08:39:01 8.8 C 74 % 4.43 C
2224 15-11-2010 08:51:03 9 C 72 % 4.23 C
2225 15-11-2010 09:03:02 9.1 C 71 % 4.13 C
Sensor: Nr:Datum:Temp:Feuchte:Taupunkt:
Aussen-T/F 2226 15-11-2010 09:15:02 9.1 C 69 % 3.72 C
2227 15-11-2010 09:27:03 9.1 C 68 % 3.52 C
2228 15-11-2010 09:39:02 9.2 C 67 % 3.4 C
2229 15-11-2010 09:51:02 9.3 C 66 % 3.28 C
2230 15-11-2010 10:03:02 9.3 C 65 % 3.07 C
2231 15-11-2010 10:15:02 9.4 C 64 % 2.95 C
2232 15-11-2010 10:27:03 9.8 C 65 % 3.54 C
2233 15-11-2010 10:39:01 10.2 C 61 % 3.03 C
2234 15-11-2010 10:51:02 10.4 C 61 % 3.21 C
2235 15-11-2010 11:03:01 10.4 C 61 % 3.21 C
2236 15-11-2010 11:15:01 10.4 C 60 % 2.98 C
2237 15-11-2010 11:27:01 10.3 C 60 % 2.89 C
2238 15-11-2010 11:39:02 10 C 59 % 2.37 C
2239 15-11-2010 11:51:02 10.4 C 60 % 2.98 C
2240 15-11-2010 12:03:01 10.4 C 59 % 2.74 C
2241 15-11-2010 12:15:02 10.8 C 57 % 2.63 C
2242 15-11-2010 12:27:02 10.9 C 55 % 2.23 C
2243 15-11-2010 12:39:02 11.2 C 55 % 2.51 C
2244 15-11-2010 12:51:01 10.9 C 55 % 2.23 C
2245 15-11-2010 13:03:02 10.8 C 56 % 2.39 C
2246 15-11-2010 13:15:01 10.5 C 58 % 2.6 C
2247 15-11-2010 13:27:01 10.4 C 59 % 2.74 C
2248 15-11-2010 13:39:01 10.3 C 59 % 2.65 C
2249 15-11-2010 13:51:02 10.4 C 58 % 2.5 C
2250 15-11-2010 14:03:02 10.3 C 57 % 2.17 C
Sensor: Nr:Datum:Temp:Feuchte:Taupunkt:
Aussen-T/F 2251 15-11-2010 14:15:01 10.4 C 57 % 2.26 C
2252 15-11-2010 14:27:01 10.2 C 58 % 2.32 C
2253 15-11-2010 14:39:02 10.2 C 58 % 2.32 C
2254 15-11-2010 14:51:02 10.1 C 58 % 2.22 C
2255 15-11-2010 15:03:02 10 C 58 % 2.13 C
2256 15-11-2010 15:15:01 9.9 C 60 % 2.51 C
2257 15-11-2010 15:27:01 9.7 C 60 % 2.32 C
2258 15-11-2010 15:39:02 9.5 C 61 % 2.37 C
2259 15-11-2010 15:51:01 9.3 C 62 % 2.4 C
2260 15-11-2010 16:03:02 9.3 C 62 % 2.4 C
2261 15-11-2010 16:15:02 9.2 C 64 % 2.76 C
2262 15-11-2010 16:27:02 8.9 C 65 % 2.69 C
2263 15-11-2010 16:39:02 8.8 C 66 % 2.81 C
2264 15-11-2010 16:51:02 8.6 C 67 % 2.83 C
2265 15-11-2010 17:03:02 8.4 C 68 % 2.85 C
2266 15-11-2010 17:15:43 8.2 C 69 % 2.86 C
2267 15-11-2010 17:27:43 8.2 C 69 % 2.86 C
2268 15-11-2010 17:39:01 8.1 C 70 % 2.97 C
2269 15-11-2010 17:51:02 7.9 C 72 % 3.17 C
2270 15-11-2010 18:03:02 7.8 C 73 % 3.27 C
2271 15-11-2010 18:15:01 8.2 C 70 % 3.06 C
2272 15-11-2010 18:27:01 8.3 C 70 % 3.16 C
2273 15-11-2010 18:39:02 8.2 C 70 % 3.06 C
2274 15-11-2010 18:51:02 8.2 C 70 % 3.06 C
2275 15-11-2010 19:03:02 8.2 C 69 % 2.86 C
Sensor: Nr:Datum:Temp:Feuchte:Taupunkt:
Aussen-T/F 2276 15-11-2010 19:15:01 8.1 C 71 % 3.17 C
2277 15-11-2010 19:27:01 8 C 71 % 3.07 C
2278 15-11-2010 19:39:02 7.9 C 72 % 3.17 C
2279 15-11-2010 19:51:02 7.7 C 73 % 3.18 C
2280 15-11-2010 20:03:02 7.7 C 73 % 3.18 C
2281 15-11-2010 20:15:02 7.8 C 74 % 3.46 C
2282 15-11-2010 20:27:02 7.6 C 74 % 3.27 C
2283 15-11-2010 20:39:02 7.4 C 74 % 3.08 C
2284 15-11-2010 20:51:01 7.5 C 74 % 3.17 C
2285 15-11-2010 21:03:02 7.3 C 75 % 3.17 C
2286 15-11-2010 21:15:02 7.1 C 76 % 3.16 C
2287 15-11-2010 21:27:02 7.1 C 77 % 3.35 C
2288 15-11-2010 21:39:02 7.1 C 76 % 3.16 C
2289 15-11-2010 21:51:02 7.2 C 75 % 3.07 C
2290 15-11-2010 22:03:02 7.1 C 76 % 3.16 C
2291 15-11-2010 22:15:02 7 C 76 % 3.07 C
2292 15-11-2010 22:27:02 6.8 C 78 % 3.24 C
2293 15-11-2010 22:39:02 6.8 C 79 % 3.42 C
2294 15-11-2010 22:51:02 7 C 78 % 3.43 C
2295 15-11-2010 23:03:02 6.8 C 78 % 3.24 C
2296 15-11-2010 23:15:02 6.8 C 79 % 3.42 C
2297 15-11-2010 23:27:02 6.7 C 79 % 3.32 C
2298 15-11-2010 23:39:01 6.8 C 79 % 3.42 C
2299 15-11-2010 23:51:02 6.3 C 80 % 3.11 C
2300 16-11-2010 00:03:01 6.1 C 81 % 3.09 C
Sensor: Nr:Datum:Temp:Feuchte:Taupunkt:
Aussen-T/F 2301 16-11-2010 00:15:02 6 C 82 % 3.17 C
2302 16-11-2010 00:27:02 6 C 83 % 3.34 C
2303 16-11-2010 00:39:01 5.7 C 83 % 3.04 C
2304 16-11-2010 00:51:01 5.6 C 84 % 3.12 C
2305 16-11-2010 01:03:01 5.5 C 84 % 3.02 C
2306 16-11-2010 01:15:02 5.4 C 85 % 3.09 C
2307 16-11-2010 01:27:02 5.2 C 85 % 2.89 C
2308 16-11-2010 01:39:01 5 C 85 % 2.69 C
2309 16-11-2010 01:51:02 4.9 C 87 % 2.92 C
2310 16-11-2010 02:03:01 5.2 C 87 % 3.22 C
2311 16-11-2010 02:15:01 5.3 C 87 % 3.32 C
2312 16-11-2010 02:27:01 5.4 C 87 % 3.41 C
2313 16-11-2010 02:39:01 5.7 C 87 % 3.71 C
2314 16-11-2010 02:52:04 5.8 C 87 % 3.81 C
2315 16-11-2010 03:04:04 5.9 C 87 % 3.91 C
2316 16-11-2010 03:16:04 6.1 C 86 % 3.94 C
2317 16-11-2010 03:28:04 5.9 C 87 % 3.91 C
2318 16-11-2010 03:40:02 5.8 C 86 % 3.64 C
2319 16-11-2010 03:52:02 5.6 C 86 % 3.45 C
2320 16-11-2010 04:04:02 5.3 C 85 % 2.99 C
2321 16-11-2010 04:16:02 5 C 86 % 2.86 C
2322 16-11-2010 04:28:02 5.1 C 87 % 3.12 C
2323 16-11-2010 04:40:02 5.2 C 87 % 3.22 C
2324 16-11-2010 04:52:02 5.5 C 88 % 3.67 C
2325 16-11-2010 05:04:01 5.3 C 87 % 3.32 C
Sensor: Nr:Datum:Temp:Feuchte:Taupunkt:
Aussen-T/F 2326 16-11-2010 05:16:02 5.2 C 87 % 3.22 C
2327 16-11-2010 05:28:02 5.7 C 87 % 3.71 C
2328 16-11-2010 05:40:02 5.7 C 86 % 3.55 C
2329 16-11-2010 05:52:02 5.6 C 85 % 3.28 C
2330 16-11-2010 06:04:02 5.2 C 84 % 2.72 C
2331 16-11-2010 06:16:02 5.1 C 85 % 2.79 C
2332 16-11-2010 06:28:02 5.2 C 85 % 2.89 C
2333 16-11-2010 06:40:03 5.3 C 85 % 2.99 C
2334 16-11-2010 06:52:02 5.3 C 84 % 2.82 C
2335 16-11-2010 07:04:01 5.2 C 84 % 2.72 C
2336 16-11-2010 07:16:02 5.2 C 84 % 2.72 C
2337 16-11-2010 07:28:03 5.2 C 84 % 2.72 C
2338 16-11-2010 07:40:01 5.1 C 84 % 2.63 C
2339 16-11-2010 07:52:01 5.2 C 85 % 2.89 C
2340 16-11-2010 08:04:01 5.3 C 84 % 2.82 C
2341 16-11-2010 08:16:02 5.4 C 84 % 2.92 C
2342 16-11-2010 08:28:02 5.4 C 83 % 2.75 C
2343 16-11-2010 08:40:01 5.4 C 83 % 2.75 C
2344 16-11-2010 08:52:03 5.6 C 83 % 2.95 C
2345 16-11-2010 09:04:02 5.7 C 82 % 2.87 C
2346 16-11-2010 09:16:02 5.8 C 82 % 2.97 C
2347 16-11-2010 09:28:02 5.9 C 81 % 2.9 C
2348 16-11-2010 09:40:02 6 C 80 % 2.82 C
2349 16-11-2010 09:52:02 6 C 79 % 2.64 C
2350 16-11-2010 10:04:01 5.9 C 79 % 2.54 C
Sensor: Nr:Datum:Temp:Feuchte:Taupunkt:
Aussen-T/F 2351 16-11-2010 10:16:02 6.2 C 79 % 2.84 C
2352 16-11-2010 10:28:02 6.2 C 78 % 2.66 C
2353 16-11-2010 10:40:01 6.7 C 77 % 2.96 C
2354 16-11-2010 10:52:02 6.3 C 76 % 2.39 C
2355 16-11-2010 11:04:02 6.4 C 76 % 2.49 C
2356 16-11-2010 11:16:02 6.3 C 76 % 2.39 C
2357 16-11-2010 11:28:02 6.8 C 75 % 2.69 C
2358 16-11-2010 11:40:02 6.4 C 74 % 2.11 C
2359 16-11-2010 11:52:02 6.9 C 74 % 2.6 C
2360 16-11-2010 12:04:02 7.4 C 71 % 2.5 C
2361 16-11-2010 12:16:01 7.5 C 69 % 2.19 C
2362 16-11-2010 12:28:01 7.4 C 69 % 2.1 C
2363 16-11-2010 12:40:02 7.1 C 70 % 2.01 C
2364 16-11-2010 12:52:02 7.3 C 70 % 2.2 C
2365 16-11-2010 13:04:02 7.4 C 70 % 2.3 C
2366 16-11-2010 13:16:01 7.5 C 70 % 2.39 C
2367 16-11-2010 13:28:01 7.7 C 69 % 2.38 C
2368 16-11-2010 13:40:01 7.3 C 69 % 2 C
2369 16-11-2010 13:52:02 7.8 C 70 % 2.68 C
2370 16-11-2010 14:04:01 7.8 C 69 % 2.48 C
2371 16-11-2010 14:16:02 7.6 C 69 % 2.29 C
2372 16-11-2010 14:28:02 7.8 C 68 % 2.27 C
2373 16-11-2010 14:40:02 7.6 C 67 % 1.88 C
2374 16-11-2010 14:52:01 7.6 C 68 % 2.08 C
2375 16-11-2010 15:04:02 7.5 C 69 % 2.19 C
Sensor: Nr:Datum:Temp:Feuchte:Taupunkt:
Aussen-T/F 2376 16-11-2010 15:16:03 7.3 C 69 % 2 C
2377 16-11-2010 15:28:03 7.2 C 70 % 2.11 C
2378 16-11-2010 15:40:01 7.1 C 71 % 2.21 C
2379 16-11-2010 15:52:01 7.1 C 71 % 2.21 C
2380 16-11-2010 16:04:02 7.1 C 71 % 2.21 C
2381 16-11-2010 16:16:01 7.1 C 71 % 2.21 C
2382 16-11-2010 16:28:01 7.1 C 71 % 2.21 C
2383 16-11-2010 16:40:01 7.1 C 71 % 2.21 C
2384 16-11-2010 16:52:02 7 C 71 % 2.11 C
2385 16-11-2010 17:04:02 6.9 C 73 % 2.4 C
2386 16-11-2010 17:16:02 6.9 C 74 % 2.6 C
2387 16-11-2010 17:28:02 6.8 C 74 % 2.5 C
2388 16-11-2010 17:40:02 6.8 C 74 % 2.5 C
2389 16-11-2010 17:52:02 6.6 C 74 % 2.31 C
2390 16-11-2010 18:04:02 6.5 C 75 % 2.4 C
2391 16-11-2010 18:16:02 6 C 76 % 2.1 C
2392 16-11-2010 18:28:02 6.2 C 78 % 2.66 C
2393 16-11-2010 18:40:02 6.2 C 78 % 2.66 C
2394 16-11-2010 18:52:02 6.2 C 78 % 2.66 C
2395 16-11-2010 19:04:02 6.2 C 78 % 2.66 C
2396 16-11-2010 19:16:02 5.9 C 79 % 2.54 C
2397 16-11-2010 19:28:03 5.9 C 80 % 2.72 C
2398 16-11-2010 19:40:01 5.8 C 80 % 2.62 C
2399 16-11-2010 19:52:02 5.8 C 81 % 2.8 C
2400 16-11-2010 20:04:01 5.7 C 81 % 2.7 C
Sensor: Nr:Datum:Temp:Feuchte:Taupunkt:
Aussen-T/F 2401 16-11-2010 20:16:02 5.6 C 81 % 2.6 C
2402 16-11-2010 20:28:03 5.5 C 81 % 2.51 C
2403 16-11-2010 20:40:01 5.5 C 81 % 2.51 C
2404 16-11-2010 20:52:02 5.5 C 81 % 2.51 C
2405 16-11-2010 21:04:01 5.4 C 81 % 2.41 C
2406 16-11-2010 21:16:01 5.5 C 81 % 2.51 C
2407 16-11-2010 21:28:01 5.5 C 81 % 2.51 C
2408 16-11-2010 21:40:02 5.4 C 81 % 2.41 C
2409 16-11-2010 21:52:02 5.3 C 81 % 2.31 C
2410 16-11-2010 22:04:02 5.2 C 81 % 2.21 C
2411 16-11-2010 22:16:01 5.2 C 81 % 2.21 C
2412 16-11-2010 22:28:01 5.3 C 82 % 2.48 C
2413 16-11-2010 22:41:04 5.3 C 81 % 2.31 C
2414 16-11-2010 22:53:04 5.2 C 81 % 2.21 C
2415 16-11-2010 23:05:04 5.1 C 82 % 2.29 C
2416 16-11-2010 23:17:04 4.4 C 83 % 1.77 C
2417 16-11-2010 23:29:04 4.4 C 85 % 2.11 C
2418 16-11-2010 23:41:04 4.5 C 86 % 2.37 C
2419 16-11-2010 23:53:04 4.6 C 86 % 2.47 C
2420 17-11-2010 00:05:04 4.7 C 86 % 2.56 C
2421 17-11-2010 00:17:04 4.7 C 86 % 2.56 C
2422 17-11-2010 00:29:04 4.7 C 86 % 2.56 C
2423 17-11-2010 00:41:04 4.8 C 85 % 2.5 C
2424 17-11-2010 00:53:04 5 C 84 % 2.53 C
2425 17-11-2010 01:05:05 5.1 C 83 % 2.46 C
Sensor: Nr:Datum:Temp:Feuchte:Taupunkt:
Aussen-T/F 2426 17-11-2010 01:17:05 5 C 82 % 2.19 C
2427 17-11-2010 01:29:05 5 C 82 % 2.19 C
2428 17-11-2010 01:41:05 5.1 C 82 % 2.29 C
2429 17-11-2010 01:53:05 5.2 C 82 % 2.39 C
2430 17-11-2010 02:05:05 5.1 C 82 % 2.29 C
2431 17-11-2010 02:17:05 5 C 82 % 2.19 C
2432 17-11-2010 02:29:05 5 C 82 % 2.19 C
2433 17-11-2010 02:41:05 5 C 82 % 2.19 C
2434 17-11-2010 02:53:05 4.9 C 83 % 2.26 C
2435 17-11-2010 03:05:05 5 C 83 % 2.36 C
2436 17-11-2010 03:17:05 4.9 C 84 % 2.43 C
2437 17-11-2010 03:29:05 4.9 C 84 % 2.43 C
2438 17-11-2010 03:41:05 4.9 C 84 % 2.43 C
2439 17-11-2010 03:53:05 4.9 C 84 % 2.43 C
2440 17-11-2010 04:05:05 4.9 C 84 % 2.43 C
2441 17-11-2010 04:17:05 4.8 C 84 % 2.33 C
2442 17-11-2010 04:29:05 4.8 C 84 % 2.33 C
2443 17-11-2010 04:41:05 4.7 C 84 % 2.23 C
2444 17-11-2010 04:53:05 4.8 C 85 % 2.5 C
2445 17-11-2010 05:05:06 4.7 C 85 % 2.4 C
2446 17-11-2010 05:17:06 4.7 C 85 % 2.4 C
2447 17-11-2010 05:29:06 4.8 C 86 % 2.66 C
2448 17-11-2010 05:41:06 4.8 C 86 % 2.66 C
2449 17-11-2010 05:53:06 4.7 C 86 % 2.56 C
2450 17-11-2010 06:05:06 4.7 C 86 % 2.56 C
Sensor: Nr:Datum:Temp:Feuchte:Taupunkt:
Aussen-T/F 2451 17-11-2010 06:17:06 4.7 C 86 % 2.56 C
2452 17-11-2010 06:29:06 4.7 C 86 % 2.56 C
2453 17-11-2010 06:41:06 4.7 C 86 % 2.56 C
2454 17-11-2010 06:53:02 4.7 C 86 % 2.56 C
2455 17-11-2010 07:05:02 4.7 C 86 % 2.56 C
2456 17-11-2010 07:17:02 4.7 C 86 % 2.56 C
2457 17-11-2010 07:29:02 4.7 C 86 % 2.56 C
2458 17-11-2010 07:41:01 4.7 C 85 % 2.4 C
2459 17-11-2010 07:53:02 4.8 C 82 % 1.99 C
2460 17-11-2010 08:05:01 4.9 C 78 % 1.39 C
2461 17-11-2010 08:17:01 4.9 C 76 % 1.03 C
2462 17-11-2010 08:29:01 5.1 C 72 % 0.48 C
2463 17-11-2010 08:41:02 5.2 C 71 % 0.38 C
2464 17-11-2010 08:53:02 5.4 C 67 % -0.22 C
2465 17-11-2010 09:05:02 5.5 C 66 % -0.33 C
2466 17-11-2010 09:17:02 5.4 C 67 % -0.22 C
2467 17-11-2010 09:29:02 5.6 C 66 % -0.24 C
2468 17-11-2010 09:41:02 5.6 C 65 % -0.45 C
2469 17-11-2010 09:53:02 5.7 C 65 % -0.35 C
2470 17-11-2010 10:05:02 5.7 C 66 % -0.14 C
2471 17-11-2010 10:17:02 5.7 C 65 % -0.35 C
2472 17-11-2010 10:29:02 5.8 C 65 % -0.26 C
2473 17-11-2010 10:41:02 5.8 C 65 % -0.26 C
2474 17-11-2010 10:53:02 5.9 C 65 % -0.16 C
2475 17-11-2010 11:05:02 6 C 63 % -0.5 C
Sensor: Nr:Datum:Temp:Feuchte:Taupunkt:
Aussen-T/F 2476 17-11-2010 11:17:03 6 C 63 % -0.5 C
2477 17-11-2010 11:29:03 5.9 C 64 % -0.38 C
2478 17-11-2010 11:41:02 6.1 C 63 % -0.4 C
2479 17-11-2010 11:53:02 6.2 C 63 % -0.31 C
2480 17-11-2010 12:05:02 6.4 C 62 % -0.34 C
2481 17-11-2010 12:17:02 6.3 C 61 % -0.65 C
2482 17-11-2010 12:29:02 6.1 C 63 % -0.4 C
2483 17-11-2010 12:41:02 6.3 C 63 % -0.21 C
2484 17-11-2010 12:53:02 6.3 C 62 % -0.43 C
2485 17-11-2010 13:05:02 6.3 C 63 % -0.21 C
2486 17-11-2010 13:17:02 6.7 C 62 % -0.05 C
2487 17-11-2010 13:29:02 6.7 C 61 % -0.28 C
2488 17-11-2010 13:41:01 6.5 C 61 % -0.46 C
2489 17-11-2010 13:53:02 6.5 C 61 % -0.46 C
2490 17-11-2010 14:05:01 6.4 C 62 % -0.34 C
2491 17-11-2010 14:17:01 6.3 C 62 % -0.43 C
2492 17-11-2010 14:29:01 6.1 C 61 % -0.84 C
2493 17-11-2010 14:41:02 6.1 C 62 % -0.62 C
2494 17-11-2010 14:53:02 6 C 63 % -0.5 C
2495 17-11-2010 15:05:02 5.9 C 63 % -0.59 C
2496 17-11-2010 15:17:02 5.9 C 64 % -0.38 C
2497 17-11-2010 15:29:02 5.9 C 65 % -0.16 C
2498 17-11-2010 15:41:02 5.8 C 66 % -0.05 C
2499 17-11-2010 15:53:02 5.8 C 67 % 0.16 C
2500 17-11-2010 16:05:02 5.7 C 67 % 0.06 C
Sensor: Nr:Datum:Temp:Feuchte:Taupunkt:
Aussen-T/F 2501 17-11-2010 16:17:02 5.6 C 68 % 0.17 C
2502 17-11-2010 16:29:02 5.5 C 68 % 0.08 C
2503 17-11-2010 16:41:02 5.5 C 69 % 0.28 C
2504 17-11-2010 16:53:01 5.4 C 69 % 0.18 C
2505 17-11-2010 17:05:01 5.4 C 70 % 0.38 C
2506 17-11-2010 17:17:02 5.3 C 70 % 0.28 C
2507 17-11-2010 17:29:02 5.2 C 71 % 0.38 C
2508 17-11-2010 17:41:01 5.2 C 72 % 0.58 C
2509 17-11-2010 17:53:02 5.2 C 72 % 0.58 C
2510 17-11-2010 18:05:02 5.2 C 72 % 0.58 C
2511 17-11-2010 18:17:03 5.2 C 72 % 0.58 C
2512 17-11-2010 18:29:03 5.2 C 73 % 0.77 C
2513 17-11-2010 18:41:02 5.2 C 72 % 0.58 C
2514 17-11-2010 18:53:01 5.2 C 72 % 0.58 C
2515 17-11-2010 19:05:01 5.3 C 72 % 0.67 C
2516 17-11-2010 19:17:02 5.3 C 72 % 0.67 C
2517 17-11-2010 19:29:02 5.3 C 72 % 0.67 C
2518 17-11-2010 19:41:01 5.3 C 72 % 0.67 C
2519 17-11-2010 19:53:01 5.3 C 72 % 0.67 C
2520 17-11-2010 20:05:01 5.3 C 73 % 0.86 C
2521 17-11-2010 20:17:02 5.3 C 74 % 1.05 C
2522 17-11-2010 20:29:02 5.3 C 74 % 1.05 C
2523 17-11-2010 20:41:56 5.3 C 74 % 1.05 C
2524 17-11-2010 20:53:56 5.3 C 74 % 1.05 C
2525 17-11-2010 21:05:56 5.3 C 75 % 1.24 C
Sensor: Nr:Datum:Temp:Feuchte:Taupunkt:
Aussen-T/F 2526 17-11-2010 21:17:02 5.3 C 74 % 1.05 C
2527 17-11-2010 21:29:02 5.3 C 75 % 1.24 C
2528 17-11-2010 21:41:02 5.2 C 76 % 1.32 C
2529 17-11-2010 21:53:01 5.2 C 77 % 1.51 C
2530 17-11-2010 22:05:01 5.2 C 77 % 1.51 C
2531 17-11-2010 22:17:02 5.1 C 77 % 1.41 C
2532 17-11-2010 22:29:02 5.1 C 78 % 1.59 C
2533 17-11-2010 22:42:03 5 C 79 % 1.67 C
2534 17-11-2010 22:54:03 4.8 C 81 % 1.82 C
2535 17-11-2010 23:06:03 4.6 C 83 % 1.97 C
2536 17-11-2010 23:18:03 4.5 C 84 % 2.04 C
2537 17-11-2010 23:30:03 4.5 C 85 % 2.2 C
2538 17-11-2010 23:42:03 4.5 C 86 % 2.37 C
2539 17-11-2010 23:54:03 4.5 C 86 % 2.37 C
2540 18-11-2010 00:06:03 4.6 C 87 % 2.63 C
2541 18-11-2010 00:18:03 4.7 C 87 % 2.73 C
2542 18-11-2010 00:30:03 4.6 C 87 % 2.63 C
2543 18-11-2010 00:42:03 4.5 C 87 % 2.53 C
2544 18-11-2010 00:54:03 4.4 C 87 % 2.43 C
2545 18-11-2010 01:06:03 4.3 C 88 % 2.49 C
2546 18-11-2010 01:18:04 4.3 C 88 % 2.49 C
2547 18-11-2010 01:30:04 4.3 C 88 % 2.49 C
2548 18-11-2010 01:42:04 4.3 C 88 % 2.49 C
2549 18-11-2010 01:54:04 4.2 C 89 % 2.55 C
2550 18-11-2010 02:06:04 4.2 C 89 % 2.55 C
Sensor: Nr:Datum:Temp:Feuchte:Taupunkt:
Aussen-T/F 2551 18-11-2010 02:18:04 4.3 C 89 % 2.65 C
2552 18-11-2010 02:30:04 4.5 C 89 % 2.85 C
2553 18-11-2010 02:42:04 4.4 C 89 % 2.75 C
2554 18-11-2010 02:54:04 4 C 89 % 2.36 C
2555 18-11-2010 03:06:04 3.9 C 90 % 2.41 C
2556 18-11-2010 03:18:04 4 C 90 % 2.51 C
2557 18-11-2010 03:30:04 4 C 90 % 2.51 C
2558 18-11-2010 03:42:04 4.2 C 90 % 2.71 C
2559 18-11-2010 03:54:04 4.2 C 90 % 2.71 C
2560 18-11-2010 04:06:04 4.2 C 90 % 2.71 C
2561 18-11-2010 04:18:04 4.3 C 91 % 2.96 C
2562 18-11-2010 04:30:04 4.3 C 91 % 2.96 C
2563 18-11-2010 04:42:04 4.3 C 91 % 2.96 C
2564 18-11-2010 04:54:04 4.3 C 91 % 2.96 C
2565 18-11-2010 05:06:04 4.3 C 91 % 2.96 C
2566 18-11-2010 05:18:05 4.4 C 91 % 3.06 C
2567 18-11-2010 05:30:05 4.3 C 91 % 2.96 C
2568 18-11-2010 05:42:05 4.2 C 91 % 2.87 C
2569 18-11-2010 05:54:05 4.2 C 91 % 2.87 C
2570 18-11-2010 06:06:05 4.2 C 91 % 2.87 C
2571 18-11-2010 06:18:05 3.9 C 92 % 2.72 C
2572 18-11-2010 06:30:05 3.9 C 92 % 2.72 C
2573 18-11-2010 06:42:05 3.8 C 92 % 2.62 C
2574 18-11-2010 06:54:05 3.8 C 92 % 2.62 C
2575 18-11-2010 07:06:05 3.8 C 92 % 2.62 C
Sensor: Nr:Datum:Temp:Feuchte:Taupunkt:
Aussen-T/F 2576 18-11-2010 07:18:03 3.9 C 92 % 2.72 C
2577 18-11-2010 07:30:03 4 C 92 % 2.82 C
2578 18-11-2010 07:42:03 4 C 92 % 2.82 C
2579 18-11-2010 07:54:02 4.2 C 92 % 3.02 C
2580 18-11-2010 08:06:02 4.1 C 92 % 2.92 C
2581 18-11-2010 08:18:01 4.2 C 92 % 3.02 C
2582 18-11-2010 08:30:01 4.2 C 92 % 3.02 C
2583 18-11-2010 08:42:02 4.2 C 92 % 3.02 C
2584 18-11-2010 08:54:01 4.4 C 92 % 3.22 C
2585 18-11-2010 09:06:02 4.5 C 92 % 3.32 C
2586 18-11-2010 09:18:01 4.8 C 92 % 3.61 C
2587 18-11-2010 09:30:01 4.8 C 92 % 3.61 C
2588 18-11-2010 09:42:02 5.2 C 91 % 3.85 C
2589 18-11-2010 09:54:01 5.4 C 91 % 4.05 C
2590 18-11-2010 10:06:02 5.4 C 90 % 3.89 C
2591 18-11-2010 10:18:02 5.8 C 89 % 4.13 C
2592 18-11-2010 10:30:02 6 C 86 % 3.84 C
2593 18-11-2010 10:42:01 6.1 C 84 % 3.61 C
2594 18-11-2010 10:54:02 6.5 C 82 % 3.66 C
2595 18-11-2010 11:06:01 6.5 C 81 % 3.48 C
2596 18-11-2010 11:18:01 6.6 C 79 % 3.23 C
2597 18-11-2010 11:30:02 6.8 C 78 % 3.24 C
2598 18-11-2010 11:42:01 7.2 C 77 % 3.45 C
2599 18-11-2010 11:54:02 7.4 C 76 % 3.45 C
2600 18-11-2010 12:06:01 7.4 C 76 % 3.45 C
Sensor: Nr:Datum:Temp:Feuchte:Taupunkt:
Aussen-T/F 2601 18-11-2010 12:18:02 7.6 C 75 % 3.46 C
2602 18-11-2010 12:30:02 7.6 C 74 % 3.27 C
2603 18-11-2010 12:42:02 7.4 C 72 % 2.69 C
2604 18-11-2010 12:54:01 7.7 C 72 % 2.98 C
2605 18-11-2010 13:06:01 8 C 69 % 2.67 C
2606 18-11-2010 13:18:01 8.5 C 68 % 2.94 C
2607 18-11-2010 13:30:01 8.4 C 66 % 2.43 C
2608 18-11-2010 13:42:02 8.3 C 67 % 2.54 C
2609 18-11-2010 13:54:02 8.6 C 67 % 2.83 C
2610 18-11-2010 14:06:02 8.5 C 64 % 2.09 C
2611 18-11-2010 14:18:01 8.2 C 63 % 1.59 C
2612 18-11-2010 14:30:01 8 C 65 % 1.83 C
2613 18-11-2010 14:42:02 8 C 64 % 1.62 C
2614 18-11-2010 14:54:02 8 C 63 % 1.4 C
2615 18-11-2010 15:06:02 7.8 C 65 % 1.64 C
2616 18-11-2010 15:18:01 7.9 C 65 % 1.74 C
2617 18-11-2010 15:30:01 7.8 C 66 % 1.86 C
2618 18-11-2010 15:42:02 7.7 C 67 % 1.97 C
2619 18-11-2010 15:54:01 7.6 C 68 % 2.08 C
2620 18-11-2010 16:06:02 7.3 C 71 % 2.4 C
2621 18-11-2010 16:18:02 7.1 C 74 % 2.79 C
2622 18-11-2010 16:30:02 6.9 C 77 % 3.16 C
2623 18-11-2010 16:42:01 6.8 C 77 % 3.06 C
2624 18-11-2010 16:54:02 6.4 C 76 % 2.49 C
2625 18-11-2010 17:06:01 6 C 78 % 2.46 C
Sensor: Nr:Datum:Temp:Feuchte:Taupunkt:
Aussen-T/F 2626 18-11-2010 17:18:02 6.1 C 80 % 2.92 C
2627 18-11-2010 17:30:02 6.1 C 81 % 3.09 C
2628 18-11-2010 17:42:01 6.2 C 81 % 3.19 C
2629 18-11-2010 17:54:02 6.2 C 81 % 3.19 C
2630 18-11-2010 18:06:02 6.2 C 81 % 3.19 C
2631 18-11-2010 18:18:02 6.2 C 82 % 3.36 C
2632 18-11-2010 18:30:02 6.2 C 82 % 3.36 C
2633 18-11-2010 18:42:02 6.2 C 82 % 3.36 C
2634 18-11-2010 18:54:02 6.2 C 82 % 3.36 C
2635 18-11-2010 19:06:01 6.3 C 82 % 3.46 C
2636 18-11-2010 19:18:02 6.2 C 80 % 3.01 C
2637 18-11-2010 19:30:02 5.8 C 83 % 3.14 C
2638 18-11-2010 19:42:02 5.7 C 85 % 3.38 C
2639 18-11-2010 19:54:02 5.7 C 86 % 3.55 C
2640 18-11-2010 20:06:02 5.6 C 87 % 3.61 C
2641 18-11-2010 20:18:02 5.6 C 88 % 3.77 C
2642 18-11-2010 20:30:02 5.6 C 88 % 3.77 C
2643 18-11-2010 20:42:02 5.6 C 89 % 3.93 C
2644 18-11-2010 20:54:01 5.5 C 89 % 3.84 C
2645 18-11-2010 21:06:02 5.5 C 89 % 3.84 C
2646 18-11-2010 21:18:01 5.5 C 89 % 3.84 C
2647 18-11-2010 21:30:01 5.5 C 89 % 3.84 C
2648 18-11-2010 21:42:01 5.5 C 89 % 3.84 C
2649 18-11-2010 21:54:01 5.6 C 90 % 4.09 C
2650 18-11-2010 22:06:01 5.5 C 90 % 3.99 C
Sensor: Nr:Datum:Temp:Feuchte:Taupunkt:
Aussen-T/F 2651 18-11-2010 22:18:02 5.5 C 90 % 3.99 C
2652 18-11-2010 22:30:02 5.5 C 90 % 3.99 C
2653 18-11-2010 22:42:01 5.5 C 90 % 3.99 C
2654 18-11-2010 22:55:03 5.5 C 90 % 3.99 C
2655 18-11-2010 23:07:03 5.6 C 91 % 4.25 C
2656 18-11-2010 23:19:03 5.6 C 91 % 4.25 C
2657 18-11-2010 23:31:03 5.7 C 91 % 4.35 C
2658 18-11-2010 23:43:03 5.7 C 90 % 4.19 C
2659 18-11-2010 23:55:04 5.6 C 90 % 4.09 C
2660 19-11-2010 00:07:04 5.5 C 90 % 3.99 C
2661 19-11-2010 00:19:04 5.6 C 89 % 3.93 C
2662 19-11-2010 00:31:04 5.7 C 88 % 3.87 C
2663 19-11-2010 00:43:04 5.7 C 88 % 3.87 C
2664 19-11-2010 00:55:04 5.8 C 86 % 3.64 C
2665 19-11-2010 01:07:04 5.8 C 85 % 3.48 C
2666 19-11-2010 01:19:04 5.6 C 85 % 3.28 C
2667 19-11-2010 01:31:04 5.5 C 87 % 3.51 C
2668 19-11-2010 01:43:04 5.5 C 88 % 3.67 C
2669 19-11-2010 01:55:04 5.5 C 88 % 3.67 C
2670 19-11-2010 02:07:04 5.4 C 88 % 3.58 C
2671 19-11-2010 02:19:04 5.4 C 89 % 3.74 C
2672 19-11-2010 02:31:04 5.3 C 89 % 3.64 C
2673 19-11-2010 02:43:04 5.3 C 89 % 3.64 C
2674 19-11-2010 02:55:04 5.3 C 89 % 3.64 C
2675 19-11-2010 03:07:04 5.2 C 88 % 3.38 C
Sensor: Nr:Datum:Temp:Feuchte:Taupunkt:
Aussen-T/F 2676 19-11-2010 03:19:04 5.2 C 89 % 3.54 C
2677 19-11-2010 03:31:04 5.1 C 89 % 3.44 C
2678 19-11-2010 03:43:04 5.1 C 89 % 3.44 C
2679 19-11-2010 03:55:04 5 C 89 % 3.34 C
2680 19-11-2010 04:07:05 5 C 89 % 3.34 C
2681 19-11-2010 04:19:05 5 C 89 % 3.34 C
2682 19-11-2010 04:31:05 5.1 C 89 % 3.44 C
2683 19-11-2010 04:43:05 5.1 C 89 % 3.44 C
2684 19-11-2010 04:55:05 5 C 88 % 3.18 C
2685 19-11-2010 05:07:05 4.9 C 89 % 3.24 C
2686 19-11-2010 05:19:05 4.9 C 89 % 3.24 C
2687 19-11-2010 05:31:05 4.9 C 90 % 3.4 C
2688 19-11-2010 05:43:05 5 C 89 % 3.34 C
2689 19-11-2010 05:55:05 5 C 89 % 3.34 C
2690 19-11-2010 06:07:05 4.9 C 89 % 3.24 C
2691 19-11-2010 06:19:05 4.8 C 89 % 3.14 C
2692 19-11-2010 06:31:05 4.8 C 90 % 3.3 C
2693 19-11-2010 06:43:05 5 C 89 % 3.34 C
2694 19-11-2010 06:55:02 5 C 89 % 3.34 C
2695 19-11-2010 07:07:02 5.1 C 89 % 3.44 C
2696 19-11-2010 07:19:02 5.2 C 89 % 3.54 C
2697 19-11-2010 07:31:02 5.2 C 89 % 3.54 C
2698 19-11-2010 07:43:02 5.1 C 89 % 3.44 C
2699 19-11-2010 07:55:02 5.1 C 89 % 3.44 C
2700 19-11-2010 08:07:01 5.2 C 89 % 3.54 C
Sensor: Nr:Datum:Temp:Feuchte:Taupunkt:
Aussen-T/F 2701 19-11-2010 08:19:02 5.3 C 89 % 3.64 C
2702 19-11-2010 08:31:02 5.4 C 89 % 3.74 C
2703 19-11-2010 08:43:02 5.5 C 89 % 3.84 C
2704 19-11-2010 08:55:02 5.8 C 89 % 4.13 C
2705 19-11-2010 09:07:02 6 C 87 % 4 C
2706 19-11-2010 09:19:02 6.2 C 86 % 4.04 C
2707 19-11-2010 09:31:03 6.4 C 85 % 4.07 C
2708 19-11-2010 09:43:03 6.4 C 83 % 3.73 C
2709 19-11-2010 09:55:02 6.6 C 81 % 3.58 C
2710 19-11-2010 10:07:02 6.9 C 81 % 3.87 C
2711 19-11-2010 10:19:01 7.1 C 79 % 3.71 C
2712 19-11-2010 10:31:02 7.6 C 78 % 4.02 C
2713 19-11-2010 10:43:03 7.9 C 77 % 4.12 C
2714 19-11-2010 10:55:02 8.6 C 74 % 4.24 C
2715 19-11-2010 11:07:02 8.7 C 72 % 3.94 C
2716 19-11-2010 11:19:02 8.9 C 70 % 3.74 C
2717 19-11-2010 11:31:02 8.8 C 69 % 3.44 C
2718 19-11-2010 11:43:02 8.8 C 69 % 3.44 C
2719 19-11-2010 11:55:02 9 C 67 % 3.21 C
2720 19-11-2010 12:07:02 9.2 C 67 % 3.4 C
2721 19-11-2010 12:19:03 9.5 C 65 % 3.26 C
2722 19-11-2010 12:31:02 9.5 C 64 % 3.04 C
2723 19-11-2010 12:43:02 9.4 C 64 % 2.95 C
2724 19-11-2010 12:55:02 10 C 61 % 2.84 C
2725 19-11-2010 13:07:02 10.2 C 61 % 3.03 C
Sensor: Nr:Datum:Temp:Feuchte:Taupunkt:
Aussen-T/F 2726 19-11-2010 13:19:02 9.7 C 63 % 3.01 C
2727 19-11-2010 13:31:02 9.5 C 64 % 3.04 C
2728 19-11-2010 13:43:02 9.5 C 65 % 3.26 C
2729 19-11-2010 13:55:02 9.8 C 62 % 2.88 C
2730 19-11-2010 14:07:01 10.2 C 59 % 2.56 C
2731 19-11-2010 14:19:02 10.1 C 60 % 2.7 C
2732 19-11-2010 14:31:02 9.9 C 61 % 2.74 C
2733 19-11-2010 14:43:02 9.8 C 62 % 2.88 C
2734 19-11-2010 14:55:01 9.7 C 62 % 2.78 C
2735 19-11-2010 15:07:01 9.7 C 63 % 3.01 C
2736 19-11-2010 15:19:01 9.2 C 65 % 2.97 C
2737 19-11-2010 15:31:02 8.6 C 68 % 3.04 C
2738 19-11-2010 15:43:02 7.7 C 74 % 3.37 C
2739 19-11-2010 15:55:02 7.3 C 77 % 3.54 C
2740 19-11-2010 16:07:02 6.9 C 79 % 3.52 C
2741 19-11-2010 16:19:01 6.8 C 80 % 3.6 C
2742 19-11-2010 16:31:02 6.8 C 81 % 3.77 C
2743 19-11-2010 16:43:02 7.2 C 81 % 4.16 C
2744 19-11-2010 16:55:02 7.5 C 80 % 4.28 C
2745 19-11-2010 17:07:02 7.6 C 78 % 4.02 C
2746 19-11-2010 17:19:01 7.6 C 78 % 4.02 C
2747 19-11-2010 17:31:02 7.7 C 78 % 4.11 C
2748 19-11-2010 17:43:02 7.5 C 79 % 4.1 C
2749 19-11-2010 17:55:02 7.5 C 79 % 4.1 C
2750 19-11-2010 18:07:02 7.5 C 80 % 4.28 C
Sensor: Nr:Datum:Temp:Feuchte:Taupunkt:
Aussen-T/F 2751 19-11-2010 18:19:02 7.6 C 79 % 4.2 C
2752 19-11-2010 18:31:02 7.7 C 78 % 4.11 C
2753 19-11-2010 18:43:02 7.8 C 77 % 4.03 C
2754 19-11-2010 18:55:02 7.5 C 78 % 3.92 C
2755 19-11-2010 19:07:02 7.5 C 79 % 4.1 C
2756 19-11-2010 19:19:02 7.3 C 79 % 3.91 C
2757 19-11-2010 19:31:01 7 C 80 % 3.79 C
2758 19-11-2010 19:43:01 6.7 C 82 % 3.85 C
2759 19-11-2010 19:55:02 6.3 C 83 % 3.63 C
2760 19-11-2010 20:07:01 5.9 C 85 % 3.58 C
2761 19-11-2010 20:19:02 5.4 C 86 % 3.25 C
2762 19-11-2010 20:31:01 5 C 86 % 2.86 C
2763 19-11-2010 20:43:01 4.6 C 87 % 2.63 C
2764 19-11-2010 20:55:01 4.6 C 88 % 2.79 C
2765 19-11-2010 21:07:02 4.1 C 88 % 2.3 C
2766 19-11-2010 21:19:02 3.9 C 89 % 2.26 C
2767 19-11-2010 21:31:01 4 C 89 % 2.36 C
2768 19-11-2010 21:43:01 3.8 C 90 % 2.31 C
2769 19-11-2010 21:55:01 3.5 C 90 % 2.02 C
2770 19-11-2010 22:07:01 3.4 C 90 % 1.92 C
2771 19-11-2010 22:19:01 3.4 C 91 % 2.07 C
2772 19-11-2010 22:31:01 4.4 C 91 % 3.06 C
2773 19-11-2010 22:43:01 4.3 C 91 % 2.96 C
2774 19-11-2010 22:55:01 4.1 C 91 % 2.77 C
2775 19-11-2010 23:07:01 4 C 91 % 2.67 C
Sensor: Nr:Datum:Temp:Feuchte:Taupunkt:
Aussen-T/F 2776 19-11-2010 23:19:02 4.3 C 91 % 2.96 C
2777 19-11-2010 23:32:02 4.6 C 92 % 3.42 C
2778 19-11-2010 23:44:02 4.8 C 92 % 3.61 C
2779 19-11-2010 23:56:02 5 C 91 % 3.66 C
2780 20-11-2010 00:08:02 4.7 C 92 % 3.51 C
2781 20-11-2010 00:20:02 3.9 C 92 % 2.72 C
2782 20-11-2010 00:32:02 3.2 C 92 % 2.03 C
2783 20-11-2010 00:44:02 3.8 C 92 % 2.62 C
2784 20-11-2010 00:56:02 4.6 C 92 % 3.42 C
2785 20-11-2010 01:08:02 4.6 C 92 % 3.42 C
2786 20-11-2010 01:20:02 4.9 C 92 % 3.71 C
2787 20-11-2010 01:32:02 4.6 C 92 % 3.42 C
2788 20-11-2010 01:44:02 3.7 C 92 % 2.52 C
2789 20-11-2010 01:56:03 3.1 C 92 % 1.93 C
2790 20-11-2010 02:08:03 2.4 C 92 % 1.24 C
2791 20-11-2010 02:20:03 2.1 C 92 % 0.94 C
2792 20-11-2010 02:32:03 1.7 C 93 % 0.69 C
2793 20-11-2010 02:44:03 2 C 92 % 0.84 C
2794 20-11-2010 02:56:03 1.5 C 93 % 0.49 C
2795 20-11-2010 03:08:03 1.4 C 93 % 0.4 C
2796 20-11-2010 03:20:03 1.2 C 92 % 0.05 C
2797 20-11-2010 03:32:03 1.1 C 92 % -0.05 C
2798 20-11-2010 03:44:03 1.3 C 92 % 0.15 C
2799 20-11-2010 03:56:03 1.7 C 93 % 0.69 C
2800 20-11-2010 04:08:03 2.1 C 92 % 0.94 C
Sensor: Nr:Datum:Temp:Feuchte:Taupunkt:
Aussen-T/F 2801 20-11-2010 04:20:03 2.5 C 93 % 1.49 C
2802 20-11-2010 04:32:03 2.8 C 93 % 1.78 C
2803 20-11-2010 04:44:03 2.8 C 93 % 1.78 C
2804 20-11-2010 04:56:03 3 C 92 % 1.83 C
2805 20-11-2010 05:08:03 3.1 C 92 % 1.93 C
2806 20-11-2010 05:20:03 3.2 C 93 % 2.18 C
2807 20-11-2010 05:32:03 3.4 C 93 % 2.38 C
2808 20-11-2010 05:44:03 3.4 C 93 % 2.38 C
2809 20-11-2010 05:56:03 3.6 C 93 % 2.58 C
2810 20-11-2010 06:08:03 3.6 C 93 % 2.58 C
2811 20-11-2010 06:20:03 3.7 C 93 % 2.68 C
2812 20-11-2010 06:32:04 3.8 C 93 % 2.77 C
2813 20-11-2010 06:44:04 3.8 C 93 % 2.77 C
2814 20-11-2010 06:56:04 3.9 C 93 % 2.87 C
2815 20-11-2010 07:08:04 4 C 93 % 2.97 C
2816 20-11-2010 07:20:04 4 C 93 % 2.97 C
2817 20-11-2010 07:32:04 4.1 C 93 % 3.07 C
2818 20-11-2010 07:44:04 4.1 C 93 % 3.07 C
2819 20-11-2010 07:56:04 4.1 C 93 % 3.07 C
2820 20-11-2010 08:08:02 4.2 C 93 % 3.17 C
2821 20-11-2010 08:20:01 4.3 C 93 % 3.27 C
2822 20-11-2010 08:32:02 4.4 C 93 % 3.37 C
2823 20-11-2010 08:44:02 4.5 C 93 % 3.47 C
2824 20-11-2010 08:56:02 4.6 C 93 % 3.57 C
2825 20-11-2010 09:08:02 4.7 C 93 % 3.67 C
Sensor: Nr:Datum:Temp:Feuchte:Taupunkt:
Aussen-T/F 2826 20-11-2010 09:20:01 4.9 C 93 % 3.87 C
2827 20-11-2010 09:32:02 5 C 92 % 3.81 C
2828 20-11-2010 09:44:02 5.2 C 93 % 4.16 C
2829 20-11-2010 09:56:02 5.4 C 93 % 4.36 C
2830 20-11-2010 10:08:02 5.5 C 92 % 4.31 C
2831 20-11-2010 10:20:02 5.6 C 92 % 4.41 C
2832 20-11-2010 10:32:02 6 C 91 % 4.65 C
2833 20-11-2010 10:44:02 6.5 C 91 % 5.14 C
2834 20-11-2010 10:56:02 6.5 C 90 % 4.98 C
2835 20-11-2010 11:08:01 6.8 C 89 % 5.12 C
2836 20-11-2010 11:20:02 6.9 C 87 % 4.89 C
2837 20-11-2010 11:32:01 7.2 C 85 % 4.85 C
2838 20-11-2010 11:44:01 8 C 82 % 5.12 C
2839 20-11-2010 11:56:02 8.4 C 80 % 5.16 C
2840 20-11-2010 12:08:01 8.8 C 79 % 5.36 C
2841 20-11-2010 12:20:01 8.9 C 78 % 5.28 C
2842 20-11-2010 12:32:02 9.2 C 74 % 4.81 C
2843 20-11-2010 12:44:02 9.3 C 73 % 4.72 C
2844 20-11-2010 12:56:02 9.3 C 72 % 4.52 C
2845 20-11-2010 13:08:02 8.9 C 72 % 4.14 C
2846 20-11-2010 13:20:01 8.7 C 74 % 4.33 C
2847 20-11-2010 13:32:02 8.5 C 74 % 4.14 C
2848 20-11-2010 13:44:03 9.1 C 73 % 4.52 C
2849 20-11-2010 13:56:02 9.2 C 71 % 4.22 C
2850 20-11-2010 14:08:02 9 C 71 % 4.03 C
Sensor: Nr:Datum:Temp:Feuchte:Taupunkt:
Aussen-T/F 2851 20-11-2010 14:20:01 8.9 C 72 % 4.14 C
2852 20-11-2010 14:32:02 8.8 C 73 % 4.24 C
2853 20-11-2010 14:44:02 8.7 C 73 % 4.14 C
2854 20-11-2010 14:56:02 8.5 C 73 % 3.95 C
2855 20-11-2010 15:08:02 8.3 C 73 % 3.75 C
2856 20-11-2010 15:20:02 8.1 C 75 % 3.94 C
2857 20-11-2010 15:32:02 7.9 C 76 % 3.94 C
2858 20-11-2010 15:44:02 7.6 C 77 % 3.83 C
2859 20-11-2010 15:56:02 6.9 C 79 % 3.52 C
2860 20-11-2010 16:08:02 6.2 C 81 % 3.19 C
2861 20-11-2010 16:20:02 5.7 C 83 % 3.04 C
2862 20-11-2010 16:32:01 5.2 C 84 % 2.72 C
2863 20-11-2010 16:44:01 4.8 C 86 % 2.66 C
2864 20-11-2010 16:56:02 4.8 C 88 % 2.99 C
2865 20-11-2010 17:08:01 4.6 C 88 % 2.79 C
2866 20-11-2010 17:20:02 4.6 C 89 % 2.95 C
2867 20-11-2010 17:32:02 4.6 C 89 % 2.95 C
2868 20-11-2010 17:44:02 4.7 C 90 % 3.2 C
2869 20-11-2010 17:56:02 4.5 C 90 % 3.01 C
2870 20-11-2010 18:08:02 4.5 C 90 % 3.01 C
2871 20-11-2010 18:20:02 4.5 C 90 % 3.01 C
2872 20-11-2010 18:32:02 4.4 C 90 % 2.91 C
2873 20-11-2010 18:44:02 4.4 C 91 % 3.06 C
2874 20-11-2010 18:56:01 4.2 C 91 % 2.87 C
2875 20-11-2010 19:08:02 4.4 C 91 % 3.06 C
Sensor: Nr:Datum:Temp:Feuchte:Taupunkt:
Aussen-T/F 2876 20-11-2010 19:20:01 3.9 C 91 % 2.57 C
2877 20-11-2010 19:32:02 3.9 C 91 % 2.57 C
2878 20-11-2010 19:44:02 3.8 C 91 % 2.47 C
2879 20-11-2010 19:56:02 3.6 C 91 % 2.27 C
2880 20-11-2010 20:08:02 3.6 C 91 % 2.27 C
2881 20-11-2010 20:20:02 3.5 C 92 % 2.33 C
2882 20-11-2010 20:32:02 3.4 C 92 % 2.23 C
2883 20-11-2010 20:44:03 3.1 C 91 % 1.78 C
2884 20-11-2010 20:56:02 2.8 C 92 % 1.63 C
2885 20-11-2010 21:08:02 2.8 C 92 % 1.63 C
2886 20-11-2010 21:20:02 2.8 C 92 % 1.63 C
2887 20-11-2010 21:32:02 3.2 C 92 % 2.03 C
2888 20-11-2010 21:44:02 3.6 C 92 % 2.42 C
2889 20-11-2010 21:56:02 3.9 C 92 % 2.72 C
2890 20-11-2010 22:08:03 4.1 C 92 % 2.92 C
2891 20-11-2010 22:20:02 4.3 C 92 % 3.12 C
2892 20-11-2010 22:32:02 4.4 C 92 % 3.22 C
2893 20-11-2010 22:44:02 4.4 C 92 % 3.22 C
2894 20-11-2010 22:56:01 4.4 C 92 % 3.22 C
2895 20-11-2010 23:09:02 4 C 92 % 2.82 C
2896 20-11-2010 23:21:02 4 C 92 % 2.82 C
2897 20-11-2010 23:33:02 4.1 C 92 % 2.92 C
2898 20-11-2010 23:45:02 4.3 C 93 % 3.27 C
2899 20-11-2010 23:57:02 4.2 C 93 % 3.17 C
2900 21-11-2010 00:09:02 4.3 C 92 % 3.12 C
Sensor: Nr:Datum:Temp:Feuchte:Taupunkt:
Aussen-T/F 2901 21-11-2010 00:21:03 4.3 C 92 % 3.12 C
2902 21-11-2010 00:33:03 4.3 C 92 % 3.12 C
2903 21-11-2010 00:45:03 4.3 C 92 % 3.12 C
2904 21-11-2010 00:57:03 4.4 C 91 % 3.06 C
2905 21-11-2010 01:09:03 4.4 C 90 % 2.91 C
2906 21-11-2010 01:21:03 4.5 C 88 % 2.69 C
2907 21-11-2010 01:33:03 4.5 C 87 % 2.53 C
2908 21-11-2010 01:45:03 4.5 C 87 % 2.53 C
2909 21-11-2010 01:57:03 4.5 C 86 % 2.37 C
2910 21-11-2010 02:09:03 4.5 C 85 % 2.2 C
2911 21-11-2010 02:21:03 4.4 C 84 % 1.94 C
2912 21-11-2010 02:33:03 4.4 C 82 % 1.6 C
2913 21-11-2010 02:45:03 4.4 C 82 % 1.6 C
2914 21-11-2010 02:57:03 4.5 C 82 % 1.7 C
2915 21-11-2010 03:09:03 4.5 C 82 % 1.7 C
2916 21-11-2010 03:21:03 4.5 C 81 % 1.53 C
2917 21-11-2010 03:33:03 4.4 C 81 % 1.43 C
2918 21-11-2010 03:45:03 4.5 C 80 % 1.36 C
2919 21-11-2010 03:57:03 4.6 C 78 % 1.1 C
2920 21-11-2010 04:09:03 4.6 C 78 % 1.1 C
2921 21-11-2010 04:21:03 4.6 C 77 % 0.92 C
2922 21-11-2010 04:33:03 4.6 C 76 % 0.74 C
2923 21-11-2010 04:45:04 4.5 C 76 % 0.65 C
2924 21-11-2010 04:57:04 4.5 C 76 % 0.65 C
2925 21-11-2010 05:09:04 4.5 C 76 % 0.65 C
Sensor: Nr:Datum:Temp:Feuchte:Taupunkt:
Aussen-T/F 2926 21-11-2010 05:21:04 4.6 C 75 % 0.56 C
2927 21-11-2010 05:33:04 4.5 C 75 % 0.46 C
2928 21-11-2010 05:45:04 4.5 C 75 % 0.46 C
2929 21-11-2010 05:57:04 4.4 C 75 % 0.37 C
2930 21-11-2010 06:09:04 4.4 C 75 % 0.37 C
2931 21-11-2010 06:21:04 4.5 C 74 % 0.28 C
2932 21-11-2010 06:33:04 4.4 C 75 % 0.37 C
2933 21-11-2010 06:45:04 4.4 C 76 % 0.55 C
2934 21-11-2010 06:57:04 4.3 C 77 % 0.63 C
2935 21-11-2010 07:09:04 4.3 C 77 % 0.63 C
2936 21-11-2010 07:21:04 4.4 C 77 % 0.73 C
2937 21-11-2010 07:33:04 4.4 C 77 % 0.73 C
2938 21-11-2010 07:45:04 4.4 C 78 % 0.91 C
2939 21-11-2010 07:57:04 4.4 C 78 % 0.91 C
2940 21-11-2010 08:09:04 4.5 C 79 % 1.18 C
2941 21-11-2010 08:21:04 4.6 C 79 % 1.28 C
2942 21-11-2010 08:33:04 4.7 C 77 % 1.02 C
2943 21-11-2010 08:45:04 4.8 C 76 % 0.94 C
2944 21-11-2010 08:57:04 4.9 C 75 % 0.85 C
2945 21-11-2010 09:09:05 5.1 C 73 % 0.67 C
2946 21-11-2010 09:21:05 5.1 C 72 % 0.48 C
2947 21-11-2010 09:33:02 5 C 72 % 0.38 C
2948 21-11-2010 09:45:02 4.9 C 72 % 0.29 C
2949 21-11-2010 09:57:02 4.9 C 73 % 0.48 C
2950 21-11-2010 10:09:02 5 C 72 % 0.38 C
Sensor: Nr:Datum:Temp:Feuchte:Taupunkt:
Aussen-T/F 2951 21-11-2010 10:21:02 5.2 C 70 % 0.19 C
2952 21-11-2010 10:33:02 5.4 C 69 % 0.18 C
2953 21-11-2010 10:45:01 5.6 C 68 % 0.17 C
2954 21-11-2010 10:57:01 5.6 C 67 % -0.03 C
2955 21-11-2010 11:09:01 5.6 C 66 % -0.24 C
2956 21-11-2010 11:21:02 5.3 C 67 % -0.32 C
2957 21-11-2010 11:33:01 5.1 C 67 % -0.51 C
2958 21-11-2010 11:45:03 5.2 C 67 % -0.41 C
2959 21-11-2010 11:57:03 5.3 C 67 % -0.32 C
2960 21-11-2010 12:09:02 5.1 C 67 % -0.51 C
2961 21-11-2010 12:21:02 5 C 67 % -0.6 C
2962 21-11-2010 12:33:02 5 C 66 % -0.81 C
2963 21-11-2010 12:45:02 5.1 C 66 % -0.71 C
2964 21-11-2010 12:57:02 5.3 C 65 % -0.73 C
2965 21-11-2010 13:09:02 5.3 C 65 % -0.73 C
2966 21-11-2010 13:21:02 5.1 C 65 % -0.92 C
2967 21-11-2010 13:33:02 5.1 C 65 % -0.92 C
2968 21-11-2010 13:45:02 5.1 C 65 % -0.92 C
2969 21-11-2010 13:57:02 5 C 65 % -1.02 C
2970 21-11-2010 14:09:02 5 C 65 % -1.02 C
2971 21-11-2010 14:21:01 4.9 C 66 % -0.91 C
2972 21-11-2010 14:33:02 4.9 C 66 % -0.91 C
2973 21-11-2010 14:45:02 4.8 C 66 % -1 C
2974 21-11-2010 14:57:02 4.8 C 65 % -1.21 C
2975 21-11-2010 15:09:02 4.6 C 65 % -1.4 C
Sensor: Nr:Datum:Temp:Feuchte:Taupunkt:
Aussen-T/F 2976 21-11-2010 15:21:01 4.5 C 65 % -1.49 C
2977 21-11-2010 15:33:02 4.4 C 65 % -1.59 C
2978 21-11-2010 15:45:02 4.4 C 66 % -1.38 C
2979 21-11-2010 15:57:02 4.3 C 66 % -1.48 C
2980 21-11-2010 16:09:02 4.3 C 66 % -1.48 C
2981 21-11-2010 16:21:02 4.2 C 67 % -1.37 C
2982 21-11-2010 16:33:02 4.2 C 69 % -0.97 C
2983 21-11-2010 16:45:02 4.1 C 69 % -1.06 C
2984 21-11-2010 16:57:02 4 C 70 % -0.96 C
2985 21-11-2010 17:09:02 3.9 C 71 % -0.87 C
2986 21-11-2010 17:21:02 3.9 C 72 % -0.68 C
2987 21-11-2010 17:33:02 4 C 71 % -0.77 C
2988 21-11-2010 17:45:02 4 C 70 % -0.96 C
2989 21-11-2010 17:57:02 4 C 71 % -0.77 C
2990 21-11-2010 18:09:01 4 C 71 % -0.77 C
2991 21-11-2010 18:21:02 4 C 71 % -0.77 C
2992 21-11-2010 18:33:02 4 C 71 % -0.77 C
2993 21-11-2010 18:45:02 3.9 C 73 % -0.49 C
2994 21-11-2010 18:57:02 3.9 C 74 % -0.3 C
2995 21-11-2010 19:09:03 3.9 C 74 % -0.3 C
2996 21-11-2010 19:21:02 4 C 73 % -0.39 C
2997 21-11-2010 19:33:02 4.1 C 72 % -0.48 C
2998 21-11-2010 19:45:02 4.1 C 71 % -0.67 C
2999 21-11-2010 19:57:02 4.2 C 71 % -0.58 C
3000 21-11-2010 20:09:02 4.3 C 71 % -0.48 C
Sensor: Nr:Datum:Temp:Feuchte:Taupunkt:
Aussen-T/F 3001 21-11-2010 20:21:02 4.3 C 71 % -0.48 C
3002 21-11-2010 20:33:02 4.3 C 70 % -0.68 C
3003 21-11-2010 20:45:02 4.3 C 70 % -0.68 C
3004 21-11-2010 20:57:02 4.3 C 69 % -0.87 C
3005 21-11-2010 21:09:03 4.3 C 69 % -0.87 C
3006 21-11-2010 21:21:02 4.3 C 69 % -0.87 C
3007 21-11-2010 21:33:03 4.1 C 70 % -0.87 C
3008 21-11-2010 21:45:02 4 C 71 % -0.77 C
3009 21-11-2010 21:57:03 4.1 C 71 % -0.67 C
3010 21-11-2010 22:09:02 3.9 C 72 % -0.68 C
3011 21-11-2010 22:21:02 3.7 C 74 % -0.49 C
3012 21-11-2010 22:33:01 3.8 C 75 % -0.21 C
3013 21-11-2010 22:45:02 3.7 C 76 % -0.13 C
3014 21-11-2010 22:57:02 3.7 C 75 % -0.31 C
3015 21-11-2010 23:10:04 3.7 C 76 % -0.13 C
3016 21-11-2010 23:22:04 3.7 C 77 % 0.05 C
3017 21-11-2010 23:34:04 3.8 C 77 % 0.15 C
3018 21-11-2010 23:46:04 3.8 C 77 % 0.15 C
3019 21-11-2010 23:58:04 3.8 C 77 % 0.15 C
3020 22-11-2010 00:10:04 3.9 C 78 % 0.42 C
3021 22-11-2010 00:22:04 4.1 C 77 % 0.44 C
3022 22-11-2010 00:34:04 4.1 C 77 % 0.44 C
3023 22-11-2010 00:46:04 4.1 C 77 % 0.44 C
3024 22-11-2010 00:58:04 4.1 C 77 % 0.44 C
3025 22-11-2010 01:10:04 4.1 C 77 % 0.44 C
Sensor: Nr:Datum:Temp:Feuchte:Taupunkt:
Aussen-T/F 3026 22-11-2010 01:22:04 4.1 C 77 % 0.44 C
3027 22-11-2010 01:34:04 4.1 C 77 % 0.44 C
3028 22-11-2010 01:46:04 4.1 C 77 % 0.44 C
3029 22-11-2010 01:58:04 4 C 77 % 0.34 C
3030 22-11-2010 02:10:04 4.1 C 77 % 0.44 C
3031 22-11-2010 02:22:04 4.1 C 77 % 0.44 C
3032 22-11-2010 02:34:04 4.2 C 78 % 0.71 C
3033 22-11-2010 02:46:04 4.2 C 77 % 0.54 C
3034 22-11-2010 02:58:04 4.2 C 78 % 0.71 C
3035 22-11-2010 03:10:04 4.2 C 78 % 0.71 C
3036 22-11-2010 03:22:05 4.3 C 78 % 0.81 C
3037 22-11-2010 03:34:05 4.4 C 78 % 0.91 C
3038 22-11-2010 03:46:05 4.6 C 77 % 0.92 C
3039 22-11-2010 03:58:05 4.8 C 75 % 0.75 C
3040 22-11-2010 04:10:05 4.9 C 74 % 0.67 C
3041 22-11-2010 04:22:05 4.9 C 74 % 0.67 C
3042 22-11-2010 04:34:05 4.9 C 74 % 0.67 C
3043 22-11-2010 04:46:05 4.8 C 75 % 0.75 C
3044 22-11-2010 04:58:05 4.8 C 75 % 0.75 C
3045 22-11-2010 05:10:05 4.9 C 74 % 0.67 C
3046 22-11-2010 05:22:05 4.9 C 74 % 0.67 C
3047 22-11-2010 05:34:05 4.9 C 73 % 0.48 C
3048 22-11-2010 05:46:05 4.9 C 73 % 0.48 C
3049 22-11-2010 05:58:05 4.8 C 73 % 0.38 C
3050 22-11-2010 06:10:05 4.7 C 73 % 0.28 C
Sensor: Nr:Datum:Temp:Feuchte:Taupunkt:
Aussen-T/F 3051 22-11-2010 06:22:05 4.7 C 73 % 0.28 C
3052 22-11-2010 06:34:05 4.7 C 73 % 0.28 C
3053 22-11-2010 06:46:05 4.7 C 73 % 0.28 C
3054 22-11-2010 06:58:05 4.7 C 73 % 0.28 C
3055 22-11-2010 07:10:05 4.7 C 73 % 0.28 C
3056 22-11-2010 07:22:03 4.7 C 72 % 0.09 C
3057 22-11-2010 07:34:04 4.6 C 72 % 0 C
3058 22-11-2010 07:46:02 4.6 C 72 % 0 C
3059 22-11-2010 07:58:02 4.6 C 72 % 0 C
3060 22-11-2010 08:10:02 4.6 C 73 % 0.19 C
3061 22-11-2010 08:22:02 4.6 C 73 % 0.19 C
3062 22-11-2010 08:34:02 4.6 C 72 % 0 C
3063 22-11-2010 08:46:02 4.7 C 72 % 0.09 C
3064 22-11-2010 08:58:02 4.7 C 72 % 0.09 C
3065 22-11-2010 09:10:02 4.7 C 72 % 0.09 C
3066 22-11-2010 09:22:02 4.7 C 72 % 0.09 C
3067 22-11-2010 09:34:02 4.7 C 72 % 0.09 C
3068 22-11-2010 09:46:01 4.8 C 72 % 0.19 C
3069 22-11-2010 09:58:01 4.8 C 72 % 0.19 C
3070 22-11-2010 10:10:02 4.9 C 72 % 0.29 C
3071 22-11-2010 10:22:01 4.9 C 72 % 0.29 C
3072 22-11-2010 10:34:01 4.8 C 72 % 0.19 C
3073 22-11-2010 10:46:01 4.8 C 73 % 0.38 C
3074 22-11-2010 10:58:01 4.7 C 73 % 0.28 C
3075 22-11-2010 11:10:02 4.7 C 73 % 0.28 C
Sensor: Nr:Datum:Temp:Feuchte:Taupunkt:
Aussen-T/F 3076 22-11-2010 11:22:01 4.6 C 74 % 0.38 C
3077 22-11-2010 11:34:01 4.5 C 75 % 0.46 C
3078 22-11-2010 11:46:01 4.3 C 77 % 0.63 C
3079 22-11-2010 11:58:01 4.3 C 78 % 0.81 C
3080 22-11-2010 12:10:01 4.3 C 80 % 1.16 C
3081 22-11-2010 12:22:02 4.2 C 80 % 1.07 C
3082 22-11-2010 12:34:01 4.2 C 81 % 1.24 C
3083 22-11-2010 12:46:02 4.1 C 81 % 1.14 C
3084 22-11-2010 12:58:02 4.2 C 82 % 1.41 C
3085 22-11-2010 13:10:02 4.2 C 83 % 1.58 C
3086 22-11-2010 13:22:02 4.2 C 83 % 1.58 C
3087 22-11-2010 13:34:01 4.2 C 84 % 1.74 C
3088 22-11-2010 13:46:02 4.2 C 83 % 1.58 C
3089 22-11-2010 13:58:02 4.4 C 83 % 1.77 C
3090 22-11-2010 14:10:01 4.5 C 82 % 1.7 C
3091 22-11-2010 14:22:02 4.6 C 80 % 1.46 C
3092 22-11-2010 14:34:02 4.8 C 79 % 1.47 C
3093 22-11-2010 14:46:02 5 C 77 % 1.31 C
3094 22-11-2010 14:58:02 5 C 74 % 0.76 C
3095 22-11-2010 15:10:02 5 C 74 % 0.76 C
3096 22-11-2010 15:22:02 5 C 74 % 0.76 C
3097 22-11-2010 15:34:02 4.9 C 75 % 0.85 C
3098 22-11-2010 15:46:02 4.8 C 75 % 0.75 C
3099 22-11-2010 15:58:02 4.8 C 74 % 0.57 C
3100 22-11-2010 16:10:02 4.6 C 74 % 0.38 C
Sensor: Nr:Datum:Temp:Feuchte:Taupunkt:
Aussen-T/F 3101 22-11-2010 16:22:02 4.5 C 74 % 0.28 C
3102 22-11-2010 16:34:02 4.3 C 75 % 0.27 C
3103 22-11-2010 16:46:02 4.2 C 77 % 0.54 C
3104 22-11-2010 16:58:02 4 C 78 % 0.52 C
3105 22-11-2010 17:10:02 4 C 78 % 0.52 C
3106 22-11-2010 17:22:02 3.9 C 79 % 0.6 C
3107 22-11-2010 17:34:02 4 C 79 % 0.7 C
3108 22-11-2010 17:46:02 4.1 C 78 % 0.62 C
3109 22-11-2010 17:58:02 4.2 C 77 % 0.54 C
3110 22-11-2010 18:10:02 4.2 C 77 % 0.54 C
3111 22-11-2010 18:22:02 4.3 C 77 % 0.63 C
3112 22-11-2010 18:34:01 4.3 C 76 % 0.45 C
3113 22-11-2010 18:46:02 4.3 C 76 % 0.45 C
3114 22-11-2010 18:58:02 4.3 C 76 % 0.45 C
3115 22-11-2010 19:10:01 4.4 C 76 % 0.55 C
3116 22-11-2010 19:22:02 4.4 C 75 % 0.37 C
3117 22-11-2010 19:34:02 4.4 C 75 % 0.37 C
3118 22-11-2010 19:46:02 4.4 C 74 % 0.18 C
3119 22-11-2010 19:58:02 4.3 C 74 % 0.09 C
3120 22-11-2010 20:10:02 4.4 C 74 % 0.18 C
3121 22-11-2010 20:22:02 4.4 C 74 % 0.18 C
3122 22-11-2010 20:34:02 4.4 C 73 % 0 C
3123 22-11-2010 20:46:01 4.4 C 73 % 0 C
3124 22-11-2010 20:58:01 4.5 C 73 % 0.09 C
3125 22-11-2010 21:10:02 4.4 C 73 % 0 C
Sensor: Nr:Datum:Temp:Feuchte:Taupunkt:
Aussen-T/F 3126 22-11-2010 21:22:01 4.4 C 74 % 0.18 C
3127 22-11-2010 21:34:02 4.4 C 74 % 0.18 C
3128 22-11-2010 21:46:01 4.4 C 74 % 0.18 C
3129 22-11-2010 21:58:01 4.4 C 74 % 0.18 C
3130 22-11-2010 22:10:02 4.5 C 74 % 0.28 C
3131 22-11-2010 22:22:02 4.5 C 74 % 0.28 C
3132 22-11-2010 22:34:01 4.5 C 75 % 0.46 C
3133 22-11-2010 22:47:03 4.5 C 74 % 0.28 C
3134 22-11-2010 22:59:03 4.5 C 75 % 0.46 C
3135 22-11-2010 23:11:03 4.4 C 75 % 0.37 C
3136 22-11-2010 23:23:03 4.5 C 75 % 0.46 C
3137 22-11-2010 23:35:03 4.4 C 76 % 0.55 C
3138 22-11-2010 23:47:04 4.3 C 76 % 0.45 C
3139 22-11-2010 23:59:04 4.4 C 76 % 0.55 C
3140 23-11-2010 00:11:04 4.4 C 76 % 0.55 C
3141 23-11-2010 00:23:04 4.4 C 76 % 0.55 C
3142 23-11-2010 00:35:04 4.5 C 75 % 0.46 C
3143 23-11-2010 00:47:04 4.5 C 75 % 0.46 C
3144 23-11-2010 00:59:04 4.4 C 75 % 0.37 C
3145 23-11-2010 01:11:04 4.5 C 75 % 0.46 C
3146 23-11-2010 01:23:04 4.5 C 74 % 0.28 C
3147 23-11-2010 01:35:04 4.5 C 74 % 0.28 C
3148 23-11-2010 01:47:04 4.4 C 74 % 0.18 C
3149 23-11-2010 01:59:04 4.4 C 73 % 0 C
3150 23-11-2010 02:11:04 4.3 C 73 % -0.1 C
Sensor: Nr:Datum:Temp:Feuchte:Taupunkt:
Aussen-T/F 3151 23-11-2010 02:23:04 4.3 C 74 % 0.09 C
3152 23-11-2010 02:35:04 4.3 C 71 % -0.48 C
3153 23-11-2010 02:47:04 4.2 C 70 % -0.77 C
3154 23-11-2010 02:59:04 4.2 C 69 % -0.97 C
3155 23-11-2010 03:11:04 4.2 C 69 % -0.97 C
3156 23-11-2010 03:23:04 4.1 C 69 % -1.06 C
3157 23-11-2010 03:35:04 4.2 C 68 % -1.17 C
3158 23-11-2010 03:47:04 4 C 69 % -1.16 C
3159 23-11-2010 03:59:04 3.9 C 71 % -0.87 C
3160 23-11-2010 04:11:04 3.8 C 70 % -1.16 C
3161 23-11-2010 04:23:05 3.8 C 71 % -0.96 C
3162 23-11-2010 04:35:05 3.7 C 73 % -0.68 C
3163 23-11-2010 04:47:05 3.6 C 74 % -0.59 C
3164 23-11-2010 04:59:05 3.5 C 75 % -0.5 C
3165 23-11-2010 05:11:05 3.5 C 74 % -0.69 C
3166 23-11-2010 05:23:05 3.5 C 75 % -0.5 C
3167 23-11-2010 05:35:05 3.4 C 75 % -0.6 C
3168 23-11-2010 05:47:05 2.9 C 79 % -0.37 C
3169 23-11-2010 05:59:05 2.7 C 83 % 0.11 C
3170 23-11-2010 06:11:05 2.6 C 85 % 0.34 C
3171 23-11-2010 06:23:05 2.7 C 85 % 0.44 C
3172 23-11-2010 06:35:05 2.6 C 87 % 0.66 C
3173 23-11-2010 06:47:05 2.7 C 87 % 0.76 C
3174 23-11-2010 06:59:05 2.7 C 87 % 0.76 C
3175 23-11-2010 07:11:05 2.6 C 88 % 0.82 C
Sensor: Nr:Datum:Temp:Feuchte:Taupunkt:
Aussen-T/F 3176 23-11-2010 07:23:02 2.8 C 88 % 1.02 C
3177 23-11-2010 07:35:03 3.1 C 85 % 0.83 C
3178 23-11-2010 07:47:02 3.2 C 84 % 0.76 C
3179 23-11-2010 07:59:02 3.1 C 83 % 0.5 C
3180 23-11-2010 08:11:02 3.1 C 82 % 0.33 C
3181 23-11-2010 08:23:01 3 C 82 % 0.24 C
3182 23-11-2010 08:35:02 3.1 C 83 % 0.5 C
3183 23-11-2010 08:47:02 3.3 C 80 % 0.19 C
3184 23-11-2010 08:59:02 3.4 C 79 % 0.11 C
3185 23-11-2010 09:11:03 3.6 C 77 % -0.05 C
3186 23-11-2010 09:23:02 3.7 C 76 % -0.13 C
3187 23-11-2010 09:35:02 3.6 C 77 % -0.05 C
3188 23-11-2010 09:47:01 3.7 C 77 % 0.05 C
3189 23-11-2010 09:59:01 3.8 C 75 % -0.21 C
3190 23-11-2010 10:11:02 4 C 73 % -0.39 C
3191 23-11-2010 10:23:01 4.1 C 72 % -0.48 C
3192 23-11-2010 10:35:01 4.3 C 70 % -0.68 C
3193 23-11-2010 10:47:01 4.4 C 70 % -0.58 C
3194 23-11-2010 10:59:01 4.5 C 69 % -0.68 C
3195 23-11-2010 11:11:02 4.4 C 70 % -0.58 C
3196 23-11-2010 11:23:02 4.7 C 71 % -0.1 C
3197 23-11-2010 11:35:01 4.8 C 71 % 0 C
3198 23-11-2010 11:47:01 4.9 C 69 % -0.3 C
3199 23-11-2010 11:59:01 4.8 C 68 % -0.59 C
3200 23-11-2010 12:11:01 5.2 C 67 % -0.41 C
Sensor: Nr:Datum:Temp:Feuchte:Taupunkt:
Aussen-T/F 3201 23-11-2010 12:23:01 5.2 C 65 % -0.83 C
3202 23-11-2010 12:35:01 5.1 C 64 % -1.13 C
3203 23-11-2010 12:47:01 5.4 C 64 % -0.85 C
3204 23-11-2010 12:59:01 5.5 C 63 % -0.97 C
3205 23-11-2010 13:11:02 5.8 C 62 % -0.9 C
3206 23-11-2010 13:23:01 6 C 61 % -0.94 C
3207 23-11-2010 13:35:02 6.2 C 59 % -1.2 C
3208 23-11-2010 13:47:01 6.1 C 59 % -1.3 C
3209 23-11-2010 13:59:01 6.1 C 59 % -1.3 C
3210 23-11-2010 14:11:02 5.9 C 59 % -1.48 C
3211 23-11-2010 14:23:01 5.8 C 59 % -1.58 C
3212 23-11-2010 14:35:02 5.7 C 60 % -1.44 C
3213 23-11-2010 14:47:01 5.7 C 60 % -1.44 C
3214 23-11-2010 14:59:01 5.6 C 60 % -1.54 C
3215 23-11-2010 15:11:02 5.7 C 59 % -1.67 C
3216 23-11-2010 15:23:02 5.6 C 59 % -1.77 C
3217 23-11-2010 15:35:01 5.6 C 60 % -1.54 C
3218 23-11-2010 15:47:02 5.5 C 61 % -1.41 C
3219 23-11-2010 15:59:02 5.3 C 63 % -1.16 C
3220 23-11-2010 16:11:01 5.3 C 64 % -0.94 C
3221 23-11-2010 16:23:02 5.4 C 64 % -0.85 C
3222 23-11-2010 16:35:01 5.4 C 64 % -0.85 C
3223 23-11-2010 16:47:03 5.5 C 64 % -0.75 C
3224 23-11-2010 16:59:03 5.3 C 65 % -0.73 C
3225 23-11-2010 17:11:02 5.3 C 65 % -0.73 C
Sensor: Nr:Datum:Temp:Feuchte:Taupunkt:
Aussen-T/F 3226 23-11-2010 17:23:02 5.3 C 65 % -0.73 C
3227 23-11-2010 17:35:02 5.3 C 64 % -0.94 C
3228 23-11-2010 17:47:02 5.4 C 63 % -1.06 C
3229 23-11-2010 17:59:03 5.3 C 64 % -0.94 C
3230 23-11-2010 18:11:01 5.2 C 65 % -0.83 C
3231 23-11-2010 18:23:02 5.4 C 64 % -0.85 C
3232 23-11-2010 18:35:02 5.2 C 64 % -1.04 C
3233 23-11-2010 18:47:02 5.4 C 62 % -1.28 C
3234 23-11-2010 18:59:02 5.2 C 64 % -1.04 C
3235 23-11-2010 19:11:03 5.2 C 65 % -0.83 C
3236 23-11-2010 19:23:02 5.3 C 65 % -0.73 C
3237 23-11-2010 19:35:02 5.2 C 65 % -0.83 C
3238 23-11-2010 19:47:01 5.1 C 66 % -0.71 C
3239 23-11-2010 19:59:01 5.2 C 66 % -0.62 C
3240 23-11-2010 20:11:02 5 C 66 % -0.81 C
3241 23-11-2010 20:23:01 5.2 C 65 % -0.83 C
3242 23-11-2010 20:35:02 5.2 C 64 % -1.04 C
3243 23-11-2010 20:47:01 5.2 C 63 % -1.25 C
3244 23-11-2010 20:59:01 5.1 C 67 % -0.51 C
3245 23-11-2010 21:11:02 4.8 C 67 % -0.8 C
3246 23-11-2010 21:23:01 5.1 C 63 % -1.35 C
3247 23-11-2010 21:35:02 5 C 63 % -1.44 C
3248 23-11-2010 21:47:01 5 C 63 % -1.44 C
3249 23-11-2010 21:59:01 5 C 63 % -1.44 C
3250 23-11-2010 22:12:03 5 C 63 % -1.44 C
Sensor: Nr:Datum:Temp:Feuchte:Taupunkt:
Aussen-T/F 3251 23-11-2010 22:24:03 5 C 63 % -1.44 C
3252 23-11-2010 22:36:03 4.9 C 65 % -1.11 C
3253 23-11-2010 22:48:03 4.9 C 65 % -1.11 C
3254 23-11-2010 23:00:03 4.8 C 65 % -1.21 C
3255 23-11-2010 23:12:03 4.8 C 65 % -1.21 C
3256 23-11-2010 23:24:03 4.6 C 66 % -1.19 C
3257 23-11-2010 23:36:03 4.6 C 67 % -0.99 C
3258 23-11-2010 23:48:03 4.4 C 68 % -0.98 C
3259 24-11-2010 00:00:03 4.2 C 69 % -0.97 C
3260 24-11-2010 00:12:03 4.4 C 69 % -0.78 C
3261 24-11-2010 00:24:03 4.4 C 68 % -0.98 C
3262 24-11-2010 00:36:03 4.3 C 68 % -1.07 C
3263 24-11-2010 00:48:04 4.3 C 68 % -1.07 C
3264 24-11-2010 01:00:04 4.3 C 68 % -1.07 C
3265 24-11-2010 01:12:04 4.3 C 68 % -1.07 C
3266 24-11-2010 01:24:04 3.6 C 71 % -1.15 C
3267 24-11-2010 01:36:04 3.6 C 73 % -0.78 C
3268 24-11-2010 01:48:04 4 C 72 % -0.58 C
3269 24-11-2010 02:00:04 3.5 C 73 % -0.87 C
3270 24-11-2010 02:12:04 3.4 C 74 % -0.78 C
3271 24-11-2010 02:24:04 3.5 C 74 % -0.69 C
3272 24-11-2010 02:36:04 3.3 C 73 % -1.06 C
3273 24-11-2010 02:48:04 3.4 C 74 % -0.78 C
3274 24-11-2010 03:00:04 3.5 C 73 % -0.87 C
3275 24-11-2010 03:12:04 3.5 C 75 % -0.5 C
Sensor: Nr:Datum:Temp:Feuchte:Taupunkt:
Aussen-T/F 3276 24-11-2010 03:24:04 3.5 C 75 % -0.5 C
3277 24-11-2010 03:36:04 3.5 C 76 % -0.32 C
3278 24-11-2010 03:48:04 3.6 C 76 % -0.22 C
3279 24-11-2010 04:00:04 3.6 C 76 % -0.22 C
3280 24-11-2010 04:12:04 3.5 C 76 % -0.32 C
3281 24-11-2010 04:24:04 3.5 C 77 % -0.14 C
3282 24-11-2010 04:36:04 3.4 C 77 % -0.24 C
3283 24-11-2010 04:48:05 3.3 C 79 % 0.02 C
3284 24-11-2010 05:00:05 3.1 C 81 % 0.16 C
3285 24-11-2010 05:12:05 2.9 C 84 % 0.47 C
3286 24-11-2010 05:24:05 2.9 C 85 % 0.63 C
3287 24-11-2010 05:36:05 2.8 C 86 % 0.7 C
3288 24-11-2010 05:48:05 2.9 C 87 % 0.96 C
3289 24-11-2010 06:00:05 3 C 86 % 0.89 C
3290 24-11-2010 06:12:05 3.2 C 85 % 0.93 C
3291 24-11-2010 06:24:05 3.2 C 84 % 0.76 C
3292 24-11-2010 06:36:05 3.3 C 83 % 0.7 C
3293 24-11-2010 06:48:05 3.3 C 83 % 0.7 C
3294 24-11-2010 07:00:05 3.4 C 82 % 0.63 C
3295 24-11-2010 07:12:02 3.4 C 82 % 0.63 C
3296 24-11-2010 07:24:03 3.3 C 83 % 0.7 C
3297 24-11-2010 07:36:03 3.2 C 83 % 0.6 C
3298 24-11-2010 07:48:01 3.4 C 82 % 0.63 C
3299 24-11-2010 08:00:01 3.5 C 82 % 0.72 C
3300 24-11-2010 08:12:01 3.4 C 81 % 0.46 C
Sensor: Nr:Datum:Temp:Feuchte:Taupunkt:
Aussen-T/F 3301 24-11-2010 08:24:01 3.3 C 83 % 0.7 C
3302 24-11-2010 08:36:02 3.3 C 84 % 0.86 C
3303 24-11-2010 08:48:02 3.6 C 85 % 1.32 C
3304 24-11-2010 09:00:02 3.6 C 83 % 0.99 C
3305 24-11-2010 09:12:02 4.1 C 79 % 0.79 C
3306 24-11-2010 09:24:01 4.3 C 76 % 0.45 C
3307 24-11-2010 09:36:02 4.5 C 75 % 0.46 C
3308 24-11-2010 09:48:02 4.6 C 74 % 0.38 C
3309 24-11-2010 10:00:02 4.8 C 72 % 0.19 C
3310 24-11-2010 10:12:02 5.1 C 69 % -0.11 C
3311 24-11-2010 10:24:02 5.2 C 68 % -0.21 C
3312 24-11-2010 10:36:01 5.4 C 67 % -0.22 C
3313 24-11-2010 10:48:02 5.6 C 65 % -0.45 C
3314 24-11-2010 11:00:02 5.7 C 65 % -0.35 C
3315 24-11-2010 11:12:01 4.9 C 70 % -0.1 C
3316 24-11-2010 11:24:01 4.9 C 72 % 0.29 C
3317 24-11-2010 11:36:02 5 C 72 % 0.38 C
3318 24-11-2010 11:48:02 5.6 C 68 % 0.17 C
3319 24-11-2010 12:00:02 5.6 C 65 % -0.45 C
3320 24-11-2010 12:12:01 5.8 C 64 % -0.47 C
3321 24-11-2010 12:24:02 6.1 C 62 % -0.62 C
3322 24-11-2010 12:36:02 5.9 C 64 % -0.38 C
3323 24-11-2010 12:48:01 5.6 C 64 % -0.66 C
3324 24-11-2010 13:00:01 5.6 C 65 % -0.45 C
3325 24-11-2010 13:12:02 5.6 C 66 % -0.24 C
Sensor: Nr:Datum:Temp:Feuchte:Taupunkt:
Aussen-T/F 3326 24-11-2010 13:24:01 5.4 C 65 % -0.64 C
3327 24-11-2010 13:36:01 5.1 C 67 % -0.51 C
3328 24-11-2010 13:48:01 5.1 C 68 % -0.31 C
3329 24-11-2010 14:00:01 4.9 C 70 % -0.1 C
3330 24-11-2010 14:12:02 4.7 C 75 % 0.66 C
3331 24-11-2010 14:24:01 4.5 C 79 % 1.18 C
3332 24-11-2010 14:36:01 4.3 C 81 % 1.34 C
3333 24-11-2010 14:48:01 4 C 82 % 1.21 C
3334 24-11-2010 15:00:01 3.5 C 82 % 0.72 C
3335 24-11-2010 15:12:02 3.4 C 84 % 0.96 C
3336 24-11-2010 15:24:02 3.5 C 86 % 1.38 C
3337 24-11-2010 15:36:01 3.5 C 87 % 1.55 C
3338 24-11-2010 15:48:02 3.5 C 88 % 1.7 C
3339 24-11-2010 16:00:02 3.5 C 88 % 1.7 C
3340 24-11-2010 16:12:01 3.5 C 87 % 1.55 C
3341 24-11-2010 16:24:02 3.3 C 85 % 1.03 C
3342 24-11-2010 16:36:01 3.1 C 85 % 0.83 C
3343 24-11-2010 16:48:02 3.1 C 85 % 0.83 C
3344 24-11-2010 17:00:02 3 C 85 % 0.73 C
3345 24-11-2010 17:12:02 3 C 85 % 0.73 C
3346 24-11-2010 17:24:02 2.4 C 86 % 0.3 C
3347 24-11-2010 17:36:02 1.6 C 87 % -0.32 C
3348 24-11-2010 17:48:02 1.4 C 88 % -0.36 C
3349 24-11-2010 18:00:02 1.4 C 89 % -0.21 C
3350 24-11-2010 18:12:01 1.5 C 90 % 0.04 C
Sensor: Nr:Datum:Temp:Feuchte:Taupunkt:
Aussen-T/F 3351 24-11-2010 18:24:01 1.6 C 91 % 0.29 C
3352 24-11-2010 18:36:02 1.7 C 91 % 0.39 C
3353 24-11-2010 18:48:02 2 C 91 % 0.69 C
3354 24-11-2010 19:00:02 2 C 91 % 0.69 C
3355 24-11-2010 19:12:02 2.2 C 91 % 0.89 C
3356 24-11-2010 19:24:02 2.1 C 91 % 0.79 C
3357 24-11-2010 19:36:02 1.9 C 92 % 0.74 C
3358 24-11-2010 19:48:02 1.9 C 92 % 0.74 C
3359 24-11-2010 20:00:02 1.5 C 92 % 0.35 C
3360 24-11-2010 20:12:02 1.3 C 92 % 0.15 C
3361 24-11-2010 20:24:02 1.4 C 92 % 0.25 C
3362 24-11-2010 20:36:02 1.3 C 92 % 0.15 C
3363 24-11-2010 20:48:02 1.6 C 92 % 0.44 C
3364 24-11-2010 21:00:02 1.9 C 92 % 0.74 C
3365 24-11-2010 21:12:02 1.3 C 92 % 0.15 C
3366 24-11-2010 21:24:02 1 C 92 % -0.15 C
3367 24-11-2010 21:36:03 1.2 C 92 % 0.05 C
3368 24-11-2010 21:49:04 1.7 C 92 % 0.54 C
3369 24-11-2010 22:01:04 2 C 92 % 0.84 C
3370 24-11-2010 22:13:04 2.2 C 92 % 1.04 C
3371 24-11-2010 22:25:04 2.3 C 92 % 1.14 C
3372 24-11-2010 22:37:05 2.1 C 91 % 0.79 C
3373 24-11-2010 22:49:05 2.1 C 90 % 0.64 C
3374 24-11-2010 23:01:05 2.1 C 90 % 0.64 C
3375 24-11-2010 23:13:05 2.1 C 89 % 0.48 C
Sensor: Nr:Datum:Temp:Feuchte:Taupunkt:
Aussen-T/F 3376 24-11-2010 23:25:05 2.6 C 89 % 0.97 C
3377 24-11-2010 23:37:05 2.6 C 88 % 0.82 C
3378 24-11-2010 23:49:05 2.6 C 87 % 0.66 C
3379 25-11-2010 00:01:05 2.4 C 86 % 0.3 C
3380 25-11-2010 00:13:05 2.6 C 86 % 0.5 C
3381 25-11-2010 00:25:05 2.4 C 86 % 0.3 C
3382 25-11-2010 00:37:05 2.5 C 86 % 0.4 C
3383 25-11-2010 00:49:05 2.6 C 85 % 0.34 C
3384 25-11-2010 01:01:05 2.6 C 85 % 0.34 C
3385 25-11-2010 01:13:05 3.1 C 83 % 0.5 C
3386 25-11-2010 01:25:05 3 C 80 % -0.1 C
3387 25-11-2010 01:37:05 2.9 C 81 % -0.03 C
3388 25-11-2010 01:49:05 3.1 C 78 % -0.35 C
3389 25-11-2010 02:01:05 3 C 76 % -0.81 C
3390 25-11-2010 02:13:05 2.9 C 77 % -0.72 C
3391 25-11-2010 02:25:05 2.7 C 78 % -0.74 C
3392 25-11-2010 02:37:05 2.6 C 79 % -0.67 C
3393 25-11-2010 02:49:06 2.6 C 79 % -0.67 C
3394 25-11-2010 03:01:06 2.5 C 80 % -0.59 C
3395 25-11-2010 03:13:06 3 C 76 % -0.81 C
3396 25-11-2010 03:25:06 3.1 C 73 % -1.26 C
3397 25-11-2010 03:37:06 2.9 C 73 % -1.45 C
3398 25-11-2010 03:49:06 2.6 C 75 % -1.37 C
3399 25-11-2010 04:01:06 2.5 C 75 % -1.47 C
3400 25-11-2010 04:13:06 2 C 75 % -1.95 C
Sensor: Nr:Datum:Temp:Feuchte:Taupunkt:
Aussen-T/F 3401 25-11-2010 04:25:06 1.9 C 76 % -1.87 C
3402 25-11-2010 04:37:06 1.7 C 76 % -2.07 C
3403 25-11-2010 04:49:06 2 C 75 % -1.95 C
3404 25-11-2010 05:01:06 1.5 C 75 % -2.44 C
3405 25-11-2010 05:13:06 1.4 C 77 % -2.18 C
3406 25-11-2010 05:25:06 1.7 C 77 % -1.89 C
3407 25-11-2010 05:37:06 0.9 C 78 % -2.49 C
3408 25-11-2010 05:49:06 1 C 78 % -2.39 C
3409 25-11-2010 06:01:06 0.9 C 78 % -2.49 C
3410 25-11-2010 06:13:06 1.4 C 79 % -1.83 C
3411 25-11-2010 06:25:06 0.7 C 81 % -2.18 C
3412 25-11-2010 06:37:06 0.1 C 83 % -2.44 C
3413 25-11-2010 06:49:06 0.2 C 85 % -2.02 C
3414 25-11-2010 07:01:07 0.3 C 86 % -1.76 C
3415 25-11-2010 07:13:07 0.3 C 87 % -1.6 C
3416 25-11-2010 07:25:04 0.2 C 87 % -1.7 C
3417 25-11-2010 07:37:04 -0.2 C 88 % -1.94 C
3418 25-11-2010 07:49:02 -0.3 C 88 % -2.04 C
3419 25-11-2010 08:01:01 -0.4 C 88 % -2.14 C
3420 25-11-2010 08:13:01 -0.2 C 89 % -1.79 C
3421 25-11-2010 08:25:02 -0.4 C 89 % -1.99 C
3422 25-11-2010 08:37:02 -0.4 C 89 % -1.99 C
3423 25-11-2010 08:49:02 0 C 90 % -1.44 C
3424 25-11-2010 09:01:02 0.4 C 90 % -1.04 C
3425 25-11-2010 09:13:02 0.5 C 89 % -1.1 C
Sensor: Nr:Datum:Temp:Feuchte:Taupunkt:
Aussen-T/F 3426 25-11-2010 09:25:01 0.7 C 88 % -1.05 C
3427 25-11-2010 09:37:01 0.7 C 87 % -1.21 C
3428 25-11-2010 09:49:03 0.6 C 87 % -1.31 C
3429 25-11-2010 10:01:02 0.4 C 86 % -1.66 C
3430 25-11-2010 10:13:02 0.6 C 87 % -1.31 C
3431 25-11-2010 10:25:02 0.9 C 87 % -1.01 C
3432 25-11-2010 10:37:02 1 C 86 % -1.07 C
3433 25-11-2010 10:49:02 1.1 C 86 % -0.97 C
3434 25-11-2010 11:01:01 1.2 C 85 % -1.03 C
3435 25-11-2010 11:13:01 1.4 C 85 % -0.84 C
3436 25-11-2010 11:25:02 1.9 C 83 % -0.67 C
3437 25-11-2010 11:37:02 2.2 C 81 % -0.71 C
3438 25-11-2010 11:49:02 2.1 C 80 % -0.98 C
3439 25-11-2010 12:01:02 1.7 C 81 % -1.2 C
3440 25-11-2010 12:13:02 1.5 C 82 % -1.23 C
3441 25-11-2010 12:25:02 1.4 C 83 % -1.16 C
3442 25-11-2010 12:37:02 2.4 C 83 % -0.18 C
3443 25-11-2010 12:49:01 3 C 77 % -0.63 C
3444 25-11-2010 13:01:02 3.3 C 73 % -1.06 C
3445 25-11-2010 13:13:03 3.4 C 70 % -1.54 C
3446 25-11-2010 13:25:01 3.6 C 67 % -1.94 C
3447 25-11-2010 13:37:01 3.5 C 67 % -2.04 C
3448 25-11-2010 13:49:01 3.6 C 67 % -1.94 C
3449 25-11-2010 14:01:01 3.6 C 66 % -2.14 C
3450 25-11-2010 14:13:01 3.7 C 66 % -2.05 C
Sensor: Nr:Datum:Temp:Feuchte:Taupunkt:
Aussen-T/F 3451 25-11-2010 14:25:02 3.7 C 65 % -2.25 C
3452 25-11-2010 14:37:01 3.6 C 66 % -2.14 C
3453 25-11-2010 14:49:02 3.7 C 61 % -3.11 C
3454 25-11-2010 15:01:01 3.8 C 62 % -2.8 C
3455 25-11-2010 15:13:01 3.8 C 62 % -2.8 C
3456 25-11-2010 15:25:01 3.5 C 61 % -3.3 C
3457 25-11-2010 15:37:01 2.9 C 69 % -2.21 C
3458 25-11-2010 15:49:02 2.4 C 73 % -1.93 C
3459 25-11-2010 16:01:02 2.2 C 74 % -1.94 C
3460 25-11-2010 16:13:02 2 C 75 % -1.95 C
3461 25-11-2010 16:25:02 1.8 C 77 % -1.79 C
3462 25-11-2010 16:37:02 2.1 C 76 % -1.68 C
3463 25-11-2010 16:49:02 2.1 C 76 % -1.68 C
3464 25-11-2010 17:01:02 2.1 C 76 % -1.68 C
3465 25-11-2010 17:13:02 2.1 C 78 % -1.33 C
3466 25-11-2010 17:25:01 2 C 79 % -1.25 C
3467 25-11-2010 17:37:02 2 C 78 % -1.42 C
3468 25-11-2010 17:49:02 2 C 79 % -1.25 C
3469 25-11-2010 18:01:02 2 C 79 % -1.25 C
3470 25-11-2010 18:13:02 1.8 C 80 % -1.27 C
3471 25-11-2010 18:25:02 1.9 C 82 % -0.84 C
3472 25-11-2010 18:37:02 1.8 C 82 % -0.94 C
3473 25-11-2010 18:49:02 1.2 C 82 % -1.52 C
3474 25-11-2010 19:01:02 0.9 C 83 % -1.65 C
3475 25-11-2010 19:13:02 0.8 C 84 % -1.59 C
Sensor: Nr:Datum:Temp:Feuchte:Taupunkt:
Aussen-T/F 3476 25-11-2010 19:25:01 0.9 C 85 % -1.33 C
3477 25-11-2010 19:37:02 1.1 C 86 % -0.97 C
3478 25-11-2010 19:49:01 1.2 C 85 % -1.03 C
3479 25-11-2010 20:01:02 0.8 C 86 % -1.27 C
3480 25-11-2010 20:13:03 0.8 C 86 % -1.27 C
3481 25-11-2010 20:25:01 0.7 C 87 % -1.21 C
3482 25-11-2010 20:37:02 0.5 C 87 % -1.41 C
3483 25-11-2010 20:50:04 0.7 C 87 % -1.21 C
3484 25-11-2010 21:02:04 0.9 C 87 % -1.01 C
3485 25-11-2010 21:14:04 1.2 C 86 % -0.88 C
3486 25-11-2010 21:26:04 1.4 C 85 % -0.84 C
3487 25-11-2010 21:38:04 1.4 C 84 % -1 C
3488 25-11-2010 21:50:04 1.3 C 84 % -1.1 C
3489 25-11-2010 22:02:04 1.4 C 84 % -1 C
3490 25-11-2010 22:14:04 1.3 C 84 % -1.1 C
3491 25-11-2010 22:26:04 1.3 C 85 % -0.94 C
3492 25-11-2010 22:38:05 1.3 C 85 % -0.94 C
3493 25-11-2010 22:50:05 1.4 C 85 % -0.84 C
3494 25-11-2010 23:02:05 1.2 C 85 % -1.03 C
3495 25-11-2010 23:14:05 1.3 C 85 % -0.94 C
3496 25-11-2010 23:26:05 1.4 C 85 % -0.84 C
3497 25-11-2010 23:38:05 1.5 C 85 % -0.74 C
3498 25-11-2010 23:50:05 1.4 C 85 % -0.84 C
3499 26-11-2010 00:02:05 1.4 C 85 % -0.84 C
3500 26-11-2010 00:14:05 1.6 C 85 % -0.64 C
Sensor: Nr:Datum:Temp:Feuchte:Taupunkt:
Aussen-T/F 3501 26-11-2010 00:26:05 1.6 C 85 % -0.64 C
3502 26-11-2010 00:38:05 1.4 C 84 % -1 C
3503 26-11-2010 00:50:05 1 C 84 % -1.39 C
3504 26-11-2010 01:02:05 0.9 C 86 % -1.17 C
3505 26-11-2010 01:14:05 1.1 C 86 % -0.97 C
3506 26-11-2010 01:26:05 1.1 C 87 % -0.82 C
3507 26-11-2010 01:38:05 1.2 C 86 % -0.88 C
3508 26-11-2010 01:50:05 1 C 86 % -1.07 C
3509 26-11-2010 02:02:05 1 C 86 % -1.07 C
3510 26-11-2010 02:14:05 1.1 C 86 % -0.97 C
3511 26-11-2010 02:26:05 1 C 86 % -1.07 C
3512 26-11-2010 02:38:05 1.1 C 86 % -0.97 C
3513 26-11-2010 02:50:06 1.1 C 85 % -1.13 C
3514 26-11-2010 03:02:06 1.1 C 86 % -0.97 C
3515 26-11-2010 03:14:06 1.2 C 85 % -1.03 C
3516 26-11-2010 03:26:06 0.6 C 85 % -1.62 C
3517 26-11-2010 03:38:06 0.4 C 86 % -1.66 C
3518 26-11-2010 03:50:06 0.4 C 87 % -1.5 C
3519 26-11-2010 04:02:06 0.4 C 88 % -1.35 C
3520 26-11-2010 04:14:06 0.3 C 88 % -1.45 C
3521 26-11-2010 04:26:06 0.3 C 89 % -1.29 C
3522 26-11-2010 04:38:06 0.3 C 89 % -1.29 C
3523 26-11-2010 04:50:06 0.3 C 90 % -1.14 C
3524 26-11-2010 05:02:06 0.3 C 90 % -1.14 C
3525 26-11-2010 05:14:06 0.1 C 90 % -1.34 C
Sensor: Nr:Datum:Temp:Feuchte:Taupunkt:
Aussen-T/F 3526 26-11-2010 05:26:06 0.2 C 91 % -1.09 C
3527 26-11-2010 05:38:06 0.3 C 91 % -0.99 C
3528 26-11-2010 05:50:06 0.4 C 91 % -0.89 C
3529 26-11-2010 06:02:06 0.4 C 91 % -0.89 C
3530 26-11-2010 06:14:06 0.4 C 91 % -0.89 C
3531 26-11-2010 06:26:06 0.2 C 91 % -1.09 C
3532 26-11-2010 06:38:06 0.1 C 91 % -1.19 C
3533 26-11-2010 06:50:07 0 C 92 % -1.14 C
3534 26-11-2010 07:02:03 0 C 92 % -1.14 C
3535 26-11-2010 07:14:03 0 C 92 % -1.14 C
3536 26-11-2010 07:26:03 0 C 92 % -1.14 C
3537 26-11-2010 07:38:03 0 C 92 % -1.14 C
3538 26-11-2010 07:50:01 0 C 92 % -1.14 C
3539 26-11-2010 08:02:02 0 C 92 % -1.14 C
3540 26-11-2010 08:14:02 0 C 92 % -1.14 C
3541 26-11-2010 08:26:01 0 C 92 % -1.14 C
3542 26-11-2010 08:38:01 0.1 C 93 % -0.89 C
3543 26-11-2010 08:50:01 0.1 C 93 % -0.89 C
3544 26-11-2010 09:02:01 0.1 C 93 % -0.89 C
3545 26-11-2010 09:14:01 0.1 C 93 % -0.89 C
3546 26-11-2010 09:26:01 0.1 C 93 % -0.89 C
3547 26-11-2010 09:38:02 0.2 C 93 % -0.79 C
3548 26-11-2010 09:50:02 0.2 C 93 % -0.79 C
3549 26-11-2010 10:02:01 0.4 C 93 % -0.6 C
3550 26-11-2010 10:14:01 0.4 C 93 % -0.6 C
Sensor: Nr:Datum:Temp:Feuchte:Taupunkt:
Aussen-T/F 3551 26-11-2010 10:26:02 0.5 C 92 % -0.65 C
3552 26-11-2010 10:38:02 0.7 C 92 % -0.45 C
3553 26-11-2010 10:50:01 0.9 C 92 % -0.25 C
3554 26-11-2010 11:02:02 1 C 90 % -0.45 C
3555 26-11-2010 11:14:02 1 C 89 % -0.6 C
3556 26-11-2010 11:26:01 1.2 C 88 % -0.56 C
3557 26-11-2010 11:38:01 1.2 C 87 % -0.72 C
3558 26-11-2010 11:50:01 1.2 C 86 % -0.88 C
3559 26-11-2010 12:02:02 1.1 C 86 % -0.97 C
3560 26-11-2010 12:14:02 1.1 C 86 % -0.97 C
3561 26-11-2010 12:26:01 0.8 C 86 % -1.27 C
3562 26-11-2010 12:38:02 0.7 C 86 % -1.37 C
3563 26-11-2010 12:50:01 0.5 C 86 % -1.56 C
3564 26-11-2010 13:02:02 0.4 C 86 % -1.66 C
3565 26-11-2010 13:14:02 0.6 C 86 % -1.46 C
3566 26-11-2010 13:26:02 1 C 86 % -1.07 C
3567 26-11-2010 13:38:01 1.3 C 85 % -0.94 C
3568 26-11-2010 13:50:01 1.2 C 81 % -1.69 C
3569 26-11-2010 14:02:01 1.4 C 79 % -1.83 C
3570 26-11-2010 14:14:01 1.5 C 78 % -1.91 C
3571 26-11-2010 14:26:02 1.5 C 77 % -2.08 C
3572 26-11-2010 14:38:01 1.8 C 76 % -1.97 C
3573 26-11-2010 14:50:03 1.8 C 76 % -1.97 C
3574 26-11-2010 15:02:02 1.4 C 71 % -3.27 C
3575 26-11-2010 15:14:02 1 C 72 % -3.47 C
Sensor: Nr:Datum:Temp:Feuchte:Taupunkt:
Aussen-T/F 3576 26-11-2010 15:26:02 0.9 C 74 % -3.2 C
3577 26-11-2010 15:38:02 0.7 C 76 % -3.03 C
3578 26-11-2010 15:50:02 0 C 78 % -3.37 C
3579 26-11-2010 16:02:01 -0.8 C 81 % -3.64 C
3580 26-11-2010 16:14:01 -1.1 C 83 % -3.61 C
3581 26-11-2010 16:26:02 -1.6 C 85 % -3.79 C
3582 26-11-2010 16:38:02 -1.8 C 86 % -3.83 C
3583 26-11-2010 16:50:02 -2.1 C 87 % -3.97 C
3584 26-11-2010 17:02:03 -2.2 C 88 % -3.91 C
3585 26-11-2010 17:14:03 -2.4 C 88 % -4.11 C
3586 26-11-2010 17:26:02 -2.5 C 89 % -4.06 C
3587 26-11-2010 17:38:02 -2.5 C 89 % -4.06 C
3588 26-11-2010 17:50:01 -2.2 C 90 % -3.61 C
3589 26-11-2010 18:02:02 -1.5 C 90 % -2.92 C
3590 26-11-2010 18:14:02 -1.3 C 91 % -2.58 C
3591 26-11-2010 18:26:01 -1.3 C 91 % -2.58 C
3592 26-11-2010 18:38:01 -1.4 C 91 % -2.68 C
3593 26-11-2010 18:50:01 -1.4 C 91 % -2.68 C
3594 26-11-2010 19:02:02 -1.4 C 91 % -2.68 C
3595 26-11-2010 19:14:02 -1.4 C 91 % -2.68 C
3596 26-11-2010 19:26:01 -1.4 C 91 % -2.68 C
3597 26-11-2010 19:38:01 -1.6 C 91 % -2.87 C
3598 26-11-2010 19:50:02 -1.9 C 91 % -3.17 C
3599 26-11-2010 20:02:02 -1.8 C 91 % -3.07 C
3600 26-11-2010 20:14:02 -1.9 C 91 % -3.17 C
Sensor: Nr:Datum:Temp:Feuchte:Taupunkt:
Aussen-T/F 3601 26-11-2010 20:26:02 -1.7 C 91 % -2.97 C
3602 26-11-2010 20:38:02 -1.9 C 91 % -3.17 C
3603 26-11-2010 20:50:02 -2.5 C 91 % -3.76 C
3604 26-11-2010 21:02:01 -2.2 C 91 % -3.47 C
3605 26-11-2010 21:14:01 -2 C 91 % -3.27 C
3606 26-11-2010 21:26:02 -2.3 C 91 % -3.57 C
3607 26-11-2010 21:38:02 -2.6 C 91 % -3.86 C
3608 26-11-2010 21:50:02 -2.6 C 91 % -3.86 C
3609 26-11-2010 22:02:02 -3 C 91 % -4.26 C
3610 26-11-2010 22:14:02 -3.3 C 90 % -4.7 C
3611 26-11-2010 22:26:02 -3.1 C 91 % -4.36 C
3612 26-11-2010 22:38:02 -3.2 C 91 % -4.46 C
3613 26-11-2010 22:50:02 -3.6 C 90 % -5 C
3614 26-11-2010 23:03:02 -3.8 C 90 % -5.2 C
3615 26-11-2010 23:15:02 -3.8 C 90 % -5.2 C
3616 26-11-2010 23:27:02 -3.9 C 90 % -5.29 C
3617 26-11-2010 23:39:02 -3.7 C 90 % -5.1 C
3618 26-11-2010 23:51:02 -3.6 C 90 % -5 C
3619 27-11-2010 00:03:02 -4 C 90 % -5.39 C
3620 27-11-2010 00:15:02 -4.1 C 90 % -5.49 C
3621 27-11-2010 00:27:02 -4.2 C 90 % -5.59 C
3622 27-11-2010 00:39:02 -4.1 C 90 % -5.49 C
3623 27-11-2010 00:51:02 -4 C 90 % -5.39 C
3624 27-11-2010 01:03:02 -3.1 C 90 % -4.5 C
3625 27-11-2010 01:15:02 -2.7 C 90 % -4.11 C
Sensor: Nr:Datum:Temp:Feuchte:Taupunkt:
Aussen-T/F 3626 27-11-2010 01:27:02 -3.7 C 90 % -5.1 C
3627 27-11-2010 01:39:02 -4.3 C 89 % -5.84 C
3628 27-11-2010 01:51:03 -3.9 C 89 % -5.44 C
3629 27-11-2010 02:03:03 -3.9 C 89 % -5.44 C
3630 27-11-2010 02:15:03 -4.1 C 88 % -5.79 C
3631 27-11-2010 02:27:03 -4.5 C 88 % -6.18 C
3632 27-11-2010 02:39:03 -4 C 88 % -5.69 C
3633 27-11-2010 02:51:03 -3.2 C 89 % -4.75 C
3634 27-11-2010 03:03:03 -2.8 C 89 % -4.36 C
3635 27-11-2010 03:15:03 -2.7 C 90 % -4.11 C
3636 27-11-2010 03:27:03 -2.9 C 89 % -4.45 C
3637 27-11-2010 03:39:03 -3.5 C 89 % -5.05 C
3638 27-11-2010 03:51:03 -3.9 C 88 % -5.59 C
3639 27-11-2010 04:03:03 -4.1 C 88 % -5.79 C
3640 27-11-2010 04:15:03 -4 C 88 % -5.69 C
3641 27-11-2010 04:27:03 -4.1 C 88 % -5.79 C
3642 27-11-2010 04:39:03 -4 C 88 % -5.69 C
3643 27-11-2010 04:51:03 -4.4 C 88 % -6.08 C
3644 27-11-2010 05:03:03 -4.5 C 88 % -6.18 C
3645 27-11-2010 05:15:03 -4.7 C 87 % -6.53 C
3646 27-11-2010 05:27:03 -4.4 C 88 % -6.08 C
3647 27-11-2010 05:39:03 -4 C 88 % -5.69 C
3648 27-11-2010 05:51:03 -3.8 C 88 % -5.49 C
3649 27-11-2010 06:03:04 -3.7 C 88 % -5.39 C
3650 27-11-2010 06:15:04 -3.4 C 89 % -4.95 C
Sensor: Nr:Datum:Temp:Feuchte:Taupunkt:
Aussen-T/F 3651 27-11-2010 06:27:04 -3.4 C 89 % -4.95 C
3652 27-11-2010 06:39:04 -3.5 C 88 % -5.2 C
3653 27-11-2010 06:51:04 -3.6 C 88 % -5.29 C
3654 27-11-2010 07:03:04 -3.8 C 88 % -5.49 C
3655 27-11-2010 07:15:04 -3.4 C 88 % -5.1 C
3656 27-11-2010 07:27:04 -3.5 C 88 % -5.2 C
3657 27-11-2010 07:39:04 -3.6 C 88 % -5.29 C
3658 27-11-2010 07:51:04 -3.4 C 88 % -5.1 C
3659 27-11-2010 08:03:04 -3.5 C 88 % -5.2 C
3660 27-11-2010 08:15:04 -3.4 C 88 % -5.1 C
3661 27-11-2010 08:27:04 -2.9 C 89 % -4.45 C
3662 27-11-2010 08:39:04 -2.6 C 89 % -4.16 C
3663 27-11-2010 08:51:04 -2.6 C 89 % -4.16 C
3664 27-11-2010 09:03:04 -2.3 C 89 % -3.86 C
3665 27-11-2010 09:15:04 -2 C 89 % -3.57 C
3666 27-11-2010 09:27:04 -1.9 C 89 % -3.47 C
3667 27-11-2010 09:39:04 -1.7 C 89 % -3.27 C
3668 27-11-2010 09:51:04 -1.1 C 89 % -2.68 C
3669 27-11-2010 10:03:02 -0.8 C 90 % -2.23 C
3670 27-11-2010 10:15:02 -0.8 C 89 % -2.38 C
3671 27-11-2010 10:27:02 -1 C 89 % -2.58 C
3672 27-11-2010 10:39:01 -1 C 88 % -2.73 C
3673 27-11-2010 10:51:02 -0.6 C 88 % -2.34 C
3674 27-11-2010 11:03:01 -0.4 C 88 % -2.14 C
3675 27-11-2010 11:15:02 -0.4 C 88 % -2.14 C
Sensor: Nr:Datum:Temp:Feuchte:Taupunkt:
Aussen-T/F 3676 27-11-2010 11:27:02 -0.3 C 88 % -2.04 C
3677 27-11-2010 11:39:01 0 C 88 % -1.74 C
3678 27-11-2010 11:51:02 0.1 C 86 % -1.96 C
3679 27-11-2010 12:03:02 0.2 C 84 % -2.18 C
3680 27-11-2010 12:15:02 0.3 C 82 % -2.4 C
3681 27-11-2010 12:27:02 0.4 C 81 % -2.47 C
3682 27-11-2010 12:39:03 0.6 C 79 % -2.61 C
3683 27-11-2010 12:51:02 0.4 C 76 % -3.32 C
3684 27-11-2010 13:03:02 0.7 C 76 % -3.03 C
3685 27-11-2010 13:15:02 0.7 C 76 % -3.03 C
3686 27-11-2010 13:27:02 0.7 C 77 % -2.86 C
3687 27-11-2010 13:39:02 1 C 77 % -2.57 C
3688 27-11-2010 13:51:02 1.2 C 74 % -2.91 C
3689 27-11-2010 14:03:02 1.4 C 74 % -2.71 C
3690 27-11-2010 14:15:02 1.5 C 72 % -2.99 C
3691 27-11-2010 14:27:02 1.5 C 69 % -3.55 C
3692 27-11-2010 14:39:02 1.7 C 68 % -3.56 C
3693 27-11-2010 14:51:01 1.3 C 70 % -3.55 C
3694 27-11-2010 15:03:02 1 C 72 % -3.47 C
3695 27-11-2010 15:15:01 1 C 74 % -3.1 C
3696 27-11-2010 15:27:01 0.8 C 74 % -3.29 C
3697 27-11-2010 15:39:01 0.7 C 75 % -3.21 C
3698 27-11-2010 15:51:01 0.3 C 77 % -3.25 C
3699 27-11-2010 16:03:01 -0.3 C 75 % -4.18 C
3700 27-11-2010 16:15:02 -0.5 C 77 % -4.03 C
Sensor: Nr:Datum:Temp:Feuchte:Taupunkt:
Aussen-T/F 3701 27-11-2010 16:27:02 -0.7 C 78 % -4.05 C
3702 27-11-2010 16:39:01 -1 C 79 % -4.17 C
3703 27-11-2010 16:51:02 -1.1 C 80 % -4.1 C
3704 27-11-2010 17:03:01 -1 C 81 % -3.84 C
3705 27-11-2010 17:15:02 -0.7 C 80 % -3.71 C
3706 27-11-2010 17:27:02 -0.7 C 79 % -3.88 C
3707 27-11-2010 17:39:01 -0.8 C 80 % -3.81 C
3708 27-11-2010 17:51:02 -1.1 C 80 % -4.1 C
3709 27-11-2010 18:03:02 -1.6 C 81 % -4.43 C
3710 27-11-2010 18:15:02 -1.8 C 82 % -4.46 C
3711 27-11-2010 18:27:02 -1.8 C 83 % -4.3 C
3712 27-11-2010 18:39:02 -1.7 C 84 % -4.04 C
3713 27-11-2010 18:51:02 -1 C 84 % -3.35 C
3714 27-11-2010 19:03:01 -0.9 C 83 % -3.42 C
3715 27-11-2010 19:15:02 -1 C 82 % -3.68 C
3716 27-11-2010 19:27:02 -1.1 C 83 % -3.61 C
3717 27-11-2010 19:39:02 -0.9 C 83 % -3.42 C
3718 27-11-2010 19:51:02 -0.7 C 82 % -3.38 C
3719 27-11-2010 20:03:03 -0.7 C 82 % -3.38 C
3720 27-11-2010 20:15:02 -0.7 C 81 % -3.55 C
3721 27-11-2010 20:27:02 -1.2 C 79 % -4.37 C
3722 27-11-2010 20:39:02 -2.2 C 80 % -5.18 C
3723 27-11-2010 20:51:01 -2.7 C 81 % -5.5 C
3724 27-11-2010 21:03:02 -3 C 82 % -5.63 C
3725 27-11-2010 21:15:01 -3 C 84 % -5.32 C
Sensor: Nr:Datum:Temp:Feuchte:Taupunkt:
Aussen-T/F 3726 27-11-2010 21:27:01 -3 C 84 % -5.32 C
3727 27-11-2010 21:39:01 -3.2 C 84 % -5.51 C
3728 27-11-2010 21:51:01 -3.3 C 85 % -5.45 C
3729 27-11-2010 22:03:02 -3.8 C 85 % -5.95 C
3730 27-11-2010 22:15:01 -3.8 C 86 % -5.79 C
3731 27-11-2010 22:27:01 -3.2 C 87 % -5.05 C
3732 27-11-2010 22:40:03 -3.3 C 86 % -5.3 C
3733 27-11-2010 22:52:03 -2.7 C 87 % -4.56 C
3734 27-11-2010 23:04:03 -2.8 C 86 % -4.81 C
3735 27-11-2010 23:16:03 -2.8 C 86 % -4.81 C
3736 27-11-2010 23:28:03 -3 C 86 % -5.01 C
3737 27-11-2010 23:40:03 -3.6 C 85 % -5.75 C
3738 27-11-2010 23:52:03 -3.9 C 85 % -6.04 C
3739 28-11-2010 00:04:03 -3.9 C 86 % -5.89 C
3740 28-11-2010 00:16:03 -3.8 C 86 % -5.79 C
3741 28-11-2010 00:28:03 -3.7 C 86 % -5.69 C
3742 28-11-2010 00:40:03 -3.8 C 86 % -5.79 C
3743 28-11-2010 00:52:03 -3.6 C 86 % -5.6 C
3744 28-11-2010 01:04:03 -3.4 C 87 % -5.25 C
3745 28-11-2010 01:16:03 -3 C 87 % -4.85 C
3746 28-11-2010 01:28:03 -2.7 C 88 % -4.41 C
3747 28-11-2010 01:40:03 -2.4 C 88 % -4.11 C
3748 28-11-2010 01:52:03 -2.3 C 88 % -4.01 C
3749 28-11-2010 02:04:03 -2.1 C 87 % -3.97 C
3750 28-11-2010 02:16:03 -2.2 C 87 % -4.07 C
Sensor: Nr:Datum:Temp:Feuchte:Taupunkt:
Aussen-T/F 3751 28-11-2010 02:28:04 -2.1 C 87 % -3.97 C
3752 28-11-2010 02:40:04 -2.1 C 86 % -4.12 C
3753 28-11-2010 02:52:04 -2.4 C 86 % -4.42 C
3754 28-11-2010 03:04:04 -2.6 C 85 % -4.77 C
3755 28-11-2010 03:16:04 -3.3 C 84 % -5.61 C
3756 28-11-2010 03:28:04 -3.8 C 84 % -6.1 C
3757 28-11-2010 03:40:04 -3.6 C 84 % -5.9 C
3758 28-11-2010 03:52:04 -3.7 C 85 % -5.85 C
3759 28-11-2010 04:04:04 -3.2 C 86 % -5.2 C
3760 28-11-2010 04:16:04 -2.8 C 86 % -4.81 C
3761 28-11-2010 04:28:04 -2.5 C 86 % -4.51 C
3762 28-11-2010 04:40:04 -2.4 C 86 % -4.42 C
3763 28-11-2010 04:52:04 -2.3 C 86 % -4.32 C
3764 28-11-2010 05:04:04 -2.3 C 86 % -4.32 C
3765 28-11-2010 05:16:04 -2.6 C 86 % -4.61 C
3766 28-11-2010 05:28:04 -3 C 85 % -5.16 C
3767 28-11-2010 05:40:04 -3 C 85 % -5.16 C
3768 28-11-2010 05:52:04 -2.7 C 85 % -4.87 C
3769 28-11-2010 06:04:04 -2.5 C 86 % -4.51 C
3770 28-11-2010 06:16:04 -2.3 C 86 % -4.32 C
3771 28-11-2010 06:28:04 -2.1 C 86 % -4.12 C
3772 28-11-2010 06:40:04 -2 C 85 % -4.18 C
3773 28-11-2010 06:52:05 -2 C 85 % -4.18 C
3774 28-11-2010 07:04:05 -2 C 85 % -4.18 C
3775 28-11-2010 07:16:05 -1.9 C 84 % -4.24 C
Sensor: Nr:Datum:Temp:Feuchte:Taupunkt:
Aussen-T/F 3776 28-11-2010 07:28:05 -1.9 C 84 % -4.24 C
3777 28-11-2010 07:40:05 -1.8 C 84 % -4.14 C
3778 28-11-2010 07:52:05 -1.8 C 84 % -4.14 C
3779 28-11-2010 08:04:05 -1.8 C 83 % -4.3 C
3780 28-11-2010 08:16:05 -1.7 C 84 % -4.04 C
3781 28-11-2010 08:28:05 -1.6 C 84 % -3.94 C
3782 28-11-2010 08:40:05 -1.6 C 83 % -4.1 C
3783 28-11-2010 08:52:05 -1.6 C 83 % -4.1 C
3784 28-11-2010 09:04:05 -1.4 C 82 % -4.07 C
3785 28-11-2010 09:16:05 -1.3 C 82 % -3.97 C
3786 28-11-2010 09:28:05 -1.2 C 81 % -4.04 C
3787 28-11-2010 09:40:03 -1.1 C 80 % -4.1 C
3788 28-11-2010 09:52:01 -0.9 C 80 % -3.91 C
3789 28-11-2010 10:04:02 -0.4 C 79 % -3.59 C
3790 28-11-2010 10:16:02 -0.5 C 77 % -4.03 C
3791 28-11-2010 10:28:02 -0.4 C 77 % -3.93 C
3792 28-11-2010 10:40:02 -0.4 C 76 % -4.1 C
3793 28-11-2010 10:52:02 -0.2 C 76 % -3.91 C
3794 28-11-2010 11:04:01 -0.1 C 75 % -3.99 C
3795 28-11-2010 11:16:02 -0.2 C 74 % -4.26 C
3796 28-11-2010 11:28:02 -0.3 C 74 % -4.36 C
3797 28-11-2010 11:40:01 -0.1 C 74 % -4.17 C
3798 28-11-2010 11:52:02 -0.2 C 74 % -4.26 C
3799 28-11-2010 12:04:01 0 C 74 % -4.07 C
3800 28-11-2010 12:16:01 0.1 C 74 % -3.97 C
Sensor: Nr:Datum:Temp:Feuchte:Taupunkt:
Aussen-T/F 3801 28-11-2010 12:28:01 0 C 74 % -4.07 C
3802 28-11-2010 12:40:02 0 C 74 % -4.07 C
3803 28-11-2010 12:52:02 0 C 74 % -4.07 C
3804 28-11-2010 13:04:02 0 C 74 % -4.07 C
3805 28-11-2010 13:16:02 0.1 C 74 % -3.97 C
3806 28-11-2010 13:28:02 0.1 C 75 % -3.79 C
3807 28-11-2010 13:40:02 0.2 C 74 % -3.87 C
3808 28-11-2010 13:52:02 0.3 C 74 % -3.78 C
3809 28-11-2010 14:04:02 0.2 C 74 % -3.87 C
3810 28-11-2010 14:16:02 0.3 C 74 % -3.78 C
3811 28-11-2010 14:28:02 0.5 C 74 % -3.58 C
3812 28-11-2010 14:40:02 0.7 C 73 % -3.57 C
3813 28-11-2010 14:52:01 0.8 C 73 % -3.48 C
3814 28-11-2010 15:04:02 0.7 C 73 % -3.57 C
3815 28-11-2010 15:16:01 0.7 C 73 % -3.57 C
3816 28-11-2010 15:28:01 0.6 C 74 % -3.49 C
3817 28-11-2010 15:40:01 0.5 C 74 % -3.58 C
3818 28-11-2010 15:52:01 0.2 C 75 % -3.69 C
3819 28-11-2010 16:04:01 0 C 76 % -3.71 C
3820 28-11-2010 16:16:02 -0.3 C 77 % -3.83 C
3821 28-11-2010 16:28:02 -0.6 C 78 % -3.95 C
3822 28-11-2010 16:40:01 -0.5 C 79 % -3.69 C
3823 28-11-2010 16:52:03 -0.3 C 79 % -3.49 C
3824 28-11-2010 17:04:02 -0.3 C 79 % -3.49 C
3825 28-11-2010 17:16:02 -0.3 C 79 % -3.49 C
Sensor: Nr:Datum:Temp:Feuchte:Taupunkt:
Aussen-T/F 3826 28-11-2010 17:28:02 -0.6 C 79 % -3.78 C
3827 28-11-2010 17:40:02 -0.9 C 79 % -4.08 C
3828 28-11-2010 17:52:02 -1.1 C 80 % -4.1 C
3829 28-11-2010 18:04:02 -1.8 C 80 % -4.79 C
3830 28-11-2010 18:16:02 -1.4 C 83 % -3.91 C
3831 28-11-2010 18:28:02 -1 C 84 % -3.35 C
3832 28-11-2010 18:40:02 -0.7 C 84 % -3.06 C
3833 28-11-2010 18:52:02 -0.6 C 82 % -3.29 C
3834 28-11-2010 19:04:02 -0.6 C 81 % -3.45 C
3835 28-11-2010 19:16:01 -0.6 C 81 % -3.45 C
3836 28-11-2010 19:28:01 -0.8 C 80 % -3.81 C
3837 28-11-2010 19:40:02 -0.8 C 80 % -3.81 C
3838 28-11-2010 19:52:02 -0.7 C 79 % -3.88 C
3839 28-11-2010 20:04:02 -1.1 C 79 % -4.27 C
3840 28-11-2010 20:16:02 -0.9 C 79 % -4.08 C
3841 28-11-2010 20:28:02 -0.7 C 78 % -4.05 C
3842 28-11-2010 20:40:02 -0.6 C 76 % -4.3 C
3843 28-11-2010 20:52:02 -0.7 C 75 % -4.57 C
3844 28-11-2010 21:04:02 -0.7 C 75 % -4.57 C
3845 28-11-2010 21:16:02 -0.9 C 76 % -4.59 C
3846 28-11-2010 21:28:02 -0.9 C 76 % -4.59 C
3847 28-11-2010 21:40:02 -0.9 C 76 % -4.59 C
3848 28-11-2010 21:52:02 -0.9 C 76 % -4.59 C
3849 28-11-2010 22:04:02 -1 C 76 % -4.69 C
3850 28-11-2010 22:16:02 -1 C 76 % -4.69 C
Sensor: Nr:Datum:Temp:Feuchte:Taupunkt:
Aussen-T/F 3851 28-11-2010 22:28:02 -1.4 C 77 % -4.9 C
3852 28-11-2010 22:40:03 -2.2 C 78 % -5.51 C
3853 28-11-2010 22:52:02 -2.4 C 80 % -5.37 C
3854 28-11-2010 23:04:01 -2.7 C 81 % -5.5 C
3855 28-11-2010 23:16:02 -2.6 C 83 % -5.08 C
3856 28-11-2010 23:28:02 -2 C 84 % -4.34 C
3857 28-11-2010 23:40:02 -1.5 C 81 % -4.33 C
3858 28-11-2010 23:52:02 -1.4 C 78 % -4.73 C
3859 29-11-2010 00:04:02 -1.4 C 76 % -5.07 C
3860 29-11-2010 00:16:02 -1.4 C 76 % -5.07 C
3861 29-11-2010 00:28:02 -1.4 C 78 % -4.73 C
3862 29-11-2010 00:40:02 -1.5 C 78 % -4.83 C
3863 29-11-2010 00:52:01 -1.7 C 77 % -5.19 C
3864 29-11-2010 01:04:02 -1.8 C 77 % -5.29 C
3865 29-11-2010 01:16:01 -1.9 C 77 % -5.39 C
3866 29-11-2010 01:28:01 -1.8 C 78 % -5.12 C
3867 29-11-2010 01:40:02 -1.7 C 78 % -5.02 C
3868 29-11-2010 01:52:01 -1.8 C 77 % -5.29 C
3869 29-11-2010 02:04:02 -1.8 C 77 % -5.29 C
3870 29-11-2010 02:16:02 -1.9 C 77 % -5.39 C
3871 29-11-2010 02:28:02 -1.9 C 77 % -5.39 C
3872 29-11-2010 02:40:02 -1.9 C 77 % -5.39 C
3873 29-11-2010 02:52:01 -1.9 C 76 % -5.56 C
3874 29-11-2010 03:04:01 -2 C 76 % -5.66 C
3875 29-11-2010 03:16:01 -1.9 C 76 % -5.56 C
Sensor: Nr:Datum:Temp:Feuchte:Taupunkt:
Aussen-T/F 3876 29-11-2010 03:28:01 -2 C 76 % -5.66 C
3877 29-11-2010 03:40:01 -2 C 76 % -5.66 C
3878 29-11-2010 03:52:01 -2.1 C 77 % -5.58 C
3879 29-11-2010 04:04:01 -2.1 C 76 % -5.75 C
3880 29-11-2010 04:16:02 -2 C 77 % -5.48 C
3881 29-11-2010 04:28:02 -2 C 76 % -5.66 C
3882 29-11-2010 04:40:01 -2 C 76 % -5.66 C
3883 29-11-2010 04:52:01 -1.9 C 77 % -5.39 C
3884 29-11-2010 05:04:01 -1.9 C 77 % -5.39 C
3885 29-11-2010 05:16:02 -1.8 C 77 % -5.29 C
3886 29-11-2010 05:28:02 -1.8 C 77 % -5.29 C
3887 29-11-2010 05:40:01 -1.8 C 76 % -5.46 C
3888 29-11-2010 05:52:02 -1.8 C 76 % -5.46 C
3889 29-11-2010 06:04:01 -1.7 C 76 % -5.36 C
3890 29-11-2010 06:16:01 -1.7 C 77 % -5.19 C
3891 29-11-2010 06:28:01 -1.7 C 77 % -5.19 C
3892 29-11-2010 06:40:01 -1.7 C 77 % -5.19 C
3893 29-11-2010 06:52:01 -1.6 C 77 % -5.1 C
3894 29-11-2010 07:04:01 -1.6 C 77 % -5.1 C
3895 29-11-2010 07:16:01 -1.7 C 76 % -5.36 C
3896 29-11-2010 07:28:01 -1.7 C 76 % -5.36 C
3897 29-11-2010 07:40:02 -1.7 C 76 % -5.36 C
3898 29-11-2010 07:52:01 -1.6 C 76 % -5.27 C
3899 29-11-2010 08:04:02 -1.7 C 76 % -5.36 C
3900<